Provisional Data: West Creek near Weber City, PA


Please select a monitoring station.
Please select start date.
Please select start date.

Toggle Unit: C/F Toggle Unit: C/F
Sample Time Temperature (C) Temperature (F) Specific Conductivity (mS/cm) pH   Turbidity (NTU+) DO (mg/L)
3/7/2021 12:00:00 AM 0.92 33.656 0.074 6.64 2.81 13.71
3/7/2021 12:15:00 AM 0.88 33.584 0.074 6.63 2.8 13.74
3/7/2021 12:30:00 AM 0.82 33.476 0.075 6.63 2.75 13.75
3/7/2021 12:45:00 AM 0.77 33.386 0.074 6.63 2.83 13.77
3/7/2021 1:00:00 AM 0.72 33.296 0.075 6.64 2.75 13.79
3/7/2021 1:15:00 AM 0.67 33.206 0.074 6.63 2.8 13.81
3/7/2021 1:30:00 AM 0.61 33.098 0.074 6.63 2.74 13.83
3/7/2021 1:45:00 AM 0.56 33.008 0.074 6.62 2.75 13.84
3/7/2021 2:00:00 AM 0.5 32.9 0.074 6.63 2.79 13.86
3/7/2021 2:15:00 AM 0.45 32.81 0.074 6.62 2.83 13.89
3/7/2021 2:30:00 AM 0.39 32.702 0.074 6.62 2.72 13.91
3/7/2021 2:45:00 AM 0.33 32.594 0.074 6.62 2.75 13.93
3/7/2021 3:00:00 AM 0.28 32.504 0.075 6.63 2.71 13.95
3/7/2021 3:15:00 AM 0.22 32.396 0.075 6.62 2.79 13.97
3/7/2021 3:30:00 AM 0.17 32.306 0.075 6.63 2.73 13.99
3/7/2021 3:45:00 AM 0.11 32.198 0.075 6.63 2.75 14.02
3/7/2021 4:00:00 AM 0.06 32.108 0.075 6.63 2.89 14.04
3/7/2021 4:15:00 AM 0 32 0.075 6.63 2.69 14.07
3/7/2021 4:30:00 AM -0.05 31.91 0.075 6.63 2.75 14.1
3/7/2021 4:45:00 AM -0.1 31.82 0.075 6.62 2.69 14.12
3/7/2021 5:00:00 AM -0.08 31.856 0.074 6.7 2.79 14.15
3/7/2021 5:15:00 AM -0.08 31.856 0.074 6.69 2.85 14.18
3/7/2021 5:30:00 AM -0.08 31.856 0.074 6.66 2.99 14.2
3/7/2021 5:45:00 AM -0.07 31.874 0.069 6.7 2.98 14.22
3/7/2021 6:00:00 AM -0.07 31.874 0.071 6.72 3.01 14.23
3/7/2021 6:15:00 AM -0.07 31.874 0.074 6.7 3.29 14.25
3/7/2021 6:30:00 AM -0.07 31.874 0.075 6.72 2.96 14.26
3/7/2021 6:45:00 AM -0.07 31.874 0.074 6.71 2.84 14.28
3/7/2021 7:00:00 AM -0.07 31.874 0.075 6.72 3.1 14.3
3/7/2021 7:15:00 AM -0.07 31.874 0.075 6.72 2.8 14.32
3/7/2021 7:30:00 AM -0.07 31.874 0.075 6.71 2.81 14.34
3/7/2021 7:45:00 AM -0.07 31.874 0.075 6.71 2.66 14.36
3/7/2021 8:00:00 AM -0.07 31.874 0.075 6.73 2.63 14.38
3/7/2021 8:15:00 AM -0.07 31.874 0.075 6.74 2.66 14.39
3/7/2021 8:30:00 AM -0.07 31.874 0.075 6.74 2.76 14.4
3/7/2021 8:45:00 AM -0.07 31.874 0.075 6.72 2.98 14.41
3/7/2021 9:00:00 AM -0.06 31.892 0.075 6.72 3.09 14.41
3/7/2021 9:15:00 AM -0.06 31.892 0.075 6.73 3 14.41
3/7/2021 9:30:00 AM -0.06 31.892 0.073 6.68 2.88 14.41
3/7/2021 9:45:00 AM -0.05 31.91 0.075 6.76 2.95 14.4
3/7/2021 10:00:00 AM -0.04 31.928 0.075 6.7 2.75 14.4
3/7/2021 10:15:00 AM 0 32 0.075 6.7 2.7 14.39
3/7/2021 10:30:00 AM 0.02 32.036 0.075 6.7 2.76 14.38
3/7/2021 10:45:00 AM 0.06 32.108 0.075 6.7 2.73 14.38
3/7/2021 11:00:00 AM 0.09 32.162 0.075 6.7 2.85 14.37
3/7/2021 11:15:00 AM 0.11 32.198 0.075 6.71 2.93 14.35
3/7/2021 11:30:00 AM 0.12 32.216 0.075 6.71 3.02 14.34
3/7/2021 11:45:00 AM 0.18 32.324 0.075 6.71 3.14 14.31
3/7/2021 12:00:00 PM 0.35 32.63 0.075 6.72 3.12 14.29
3/7/2021 12:15:00 PM 0.54 32.972 0.074 6.75 3.13 14.25
3/7/2021 12:30:00 PM 0.66 33.188 0.074 6.75 2.88 14.23
3/7/2021 12:45:00 PM 0.79 33.422 0.074 6.76 2.92 14.2
3/7/2021 1:00:00 PM 0.94 33.692 0.074 6.76 2.91 14.16
3/7/2021 1:15:00 PM 1.13 34.034 0.074 6.77 2.95 14.1
3/7/2021 1:30:00 PM 1.29 34.322 0.074 6.78 2.79 14.05
3/7/2021 1:45:00 PM 1.44 34.592 0.074 6.77 2.75 14
3/7/2021 2:00:00 PM 1.58 34.844 0.074 6.79 2.85 13.95
3/7/2021 2:15:00 PM 1.7 35.06 0.074 6.78 2.76 13.91
3/7/2021 2:30:00 PM 1.81 35.258 0.074 6.78 2.93 13.86
3/7/2021 2:45:00 PM 1.94 35.492 0.074 6.79 2.72 13.81
3/7/2021 3:00:00 PM 2.07 35.726 0.074 6.79 2.89 13.75
3/7/2021 3:15:00 PM 2.22 35.996 0.074 6.8 2.79 13.69
3/7/2021 3:30:00 PM 2.35 36.23 0.074 6.8 2.86 13.62
3/7/2021 3:45:00 PM 2.46 36.428 0.074 6.8 2.89 13.56
3/7/2021 4:00:00 PM 2.57 36.626 0.074 6.79 2.95 13.5
3/7/2021 4:15:00 PM 2.64 36.752 0.074 6.78 2.96 13.46
3/7/2021 4:30:00 PM 2.66 36.788 0.074 6.78 3.03 13.43
3/7/2021 4:45:00 PM 2.67 36.806 0.074 6.77 2.98 13.4
3/7/2021 5:00:00 PM 2.65 36.77 0.074 6.75 3.03 13.39
3/7/2021 5:15:00 PM 2.6 36.68 0.074 6.76 3.19 13.38
3/7/2021 5:30:00 PM 2.52 36.536 0.073 6.74 3.16 13.39
3/7/2021 5:45:00 PM 2.41 36.338 0.073 6.74 3.26 13.41
3/7/2021 6:00:00 PM 2.29 36.122 0.073 6.73 3.21 13.43
3/7/2021 6:15:00 PM 2.16 35.888 0.073 6.71 3.19 13.46
3/7/2021 6:30:00 PM 2.03 35.654 0.072 6.7 3.24 13.48
3/7/2021 6:45:00 PM 1.91 35.438 0.072 6.69 3.13 13.49
3/7/2021 7:00:00 PM 1.8 35.24 0.072 6.67 3.1 13.52
3/7/2021 7:15:00 PM 1.7 35.06 0.072 6.66 3.13 13.55
3/7/2021 7:30:00 PM 1.6 34.88 0.072 6.66 3.26 13.57
3/7/2021 7:45:00 PM 1.52 34.736 0.071 6.64 3.24 13.59
3/7/2021 8:00:00 PM 1.44 34.592 0.071 6.64 3.19 13.62
3/7/2021 8:15:00 PM 1.36 34.448 0.071 6.64 3.04 13.64
3/7/2021 8:30:00 PM 1.29 34.322 0.071 6.64 3.1 13.66
3/7/2021 8:45:00 PM 1.22 34.196 0.071 6.64 3.01 13.69
3/7/2021 9:00:00 PM 1.15 34.07 0.07 6.63 3.02 13.71
3/7/2021 9:15:00 PM 1.08 33.944 0.07 6.63 3.13 13.74
3/7/2021 9:30:00 PM 1.01 33.818 0.07 6.65 3.06 13.76
3/7/2021 9:45:00 PM 0.94 33.692 0.07 6.65 3.01 13.78
3/7/2021 10:00:00 PM 0.87 33.566 0.07 6.65 3.05 13.81
3/7/2021 10:15:00 PM 0.8 33.44 0.07 6.64 3.01 13.84
3/7/2021 10:30:00 PM 0.73 33.314 0.07 6.66 2.85 13.87
3/7/2021 10:45:00 PM 0.66 33.188 0.07 6.65 2.87 13.9
3/7/2021 11:00:00 PM 0.59 33.062 0.071 6.65 2.85 13.92
3/7/2021 11:15:00 PM 0.52 32.936 0.071 6.65 2.9 13.94
3/7/2021 11:30:00 PM 0.45 32.81 0.071 6.65 2.84 13.97
3/7/2021 11:45:00 PM 0.39 32.702 0.071 6.66 2.84 14
3/8/2021 12:00:00 AM 0.32 32.576 0.071 6.66 2.83 14.02
3/8/2021 12:15:00 AM 0.25 32.45 0.072 6.65 2.83 14.04
3/8/2021 12:30:00 AM 0.19 32.342 0.072 6.65 2.83 14.07
3/8/2021 12:45:00 AM 0.12 32.216 0.073 6.65 2.86 14.1
3/8/2021 1:00:00 AM 0.06 32.108 0.073 6.65 2.77 14.14
3/8/2021 1:15:00 AM 0 32 0.074 6.65 2.76 14.15
3/8/2021 1:30:00 AM -0.07 31.874 0.074 6.65 2.85 14.18
3/8/2021 1:45:00 AM -0.1 31.82 0.074 6.62 2.81 14.21
3/8/2021 2:00:00 AM -0.08 31.856 0.074 6.71 2.9 14.24
3/8/2021 2:15:00 AM -0.07 31.874 0.075 6.7 3.09 14.26
3/8/2021 2:30:00 AM -0.08 31.856 0.072 6.68 3.2 14.28
3/8/2021 2:45:00 AM -0.08 31.856 0.073 6.68 3.02 14.3
3/8/2021 3:00:00 AM -0.07 31.874 0.043 6.62 3.16 14.31
3/8/2021 3:15:00 AM -0.07 31.874 0.049 6.64 3.02 14.32
3/8/2021 3:30:00 AM -0.07 31.874 0.067 6.67 3.17 14.33
3/8/2021 3:45:00 AM -0.07 31.874 0.077 6.67 3.21 14.34
3/8/2021 4:00:00 AM -0.07 31.874 0.075 6.65 3.12 14.35
3/8/2021 4:15:00 AM -0.07 31.874 0.076 6.62 2.94 14.36
3/8/2021 4:30:00 AM -0.07 31.874 0.078 6.64 3.07 14.37
3/8/2021 4:45:00 AM -0.07 31.874 0.067 6.64 3.03 14.37
3/8/2021 5:00:00 AM -0.07 31.874 0.079 6.63 2.9 14.38
3/8/2021 5:15:00 AM -0.07 31.874 0.078 6.63 3.05 14.38
3/8/2021 5:30:00 AM -0.07 31.874 0.079 6.63 3.06 14.39
3/8/2021 5:45:00 AM -0.07 31.874 0.079 6.66 3 14.39
3/8/2021 6:00:00 AM -0.07 31.874 0.079 6.66 2.91 14.4
3/8/2021 6:15:00 AM -0.07 31.874 0.079 6.67 2.97 14.4
3/8/2021 6:30:00 AM -0.07 31.874 0.08 6.68 2.89 14.4
3/8/2021 6:45:00 AM -0.07 31.874 0.08 6.69 2.83 14.41
3/8/2021 7:00:00 AM -0.07 31.874 0.08 6.69 2.78 14.42
3/8/2021 7:15:00 AM -0.07 31.874 0.08 6.69 2.9 14.44
3/8/2021 7:30:00 AM -0.07 31.874 0.08 6.71 2.77 14.46
3/8/2021 7:45:00 AM -0.07 31.874 0.08 6.7 2.78 14.47
3/8/2021 8:00:00 AM -0.07 31.874 0.08 6.73 2.65 14.49
3/8/2021 8:15:00 AM -0.07 31.874 0.08 6.73 2.66 14.49
3/8/2021 8:30:00 AM -0.07 31.874 0.08 6.74 2.71 14.5
3/8/2021 8:45:00 AM -0.07 31.874 0.081 6.74 2.77 14.5
3/8/2021 9:00:00 AM -0.06 31.892 0.081 6.74 2.7 14.5
3/8/2021 9:15:00 AM -0.06 31.892 0.081 6.73 3.04 14.5
3/8/2021 9:30:00 AM -0.06 31.892 0.081 6.7 2.89 14.5
3/8/2021 9:45:00 AM -0.06 31.892 0.081 6.78 2.73 14.49
3/8/2021 10:00:00 AM -0.07 31.874 0.08 6.76 2.42 14.48
3/8/2021 10:15:00 AM -0.06 31.892 0.08 6.78 2.58 14.47
3/8/2021 10:30:00 AM -0.06 31.892 0.08 6.78 2.87 14.45
3/8/2021 10:45:00 AM -0.06 31.892 0.081 6.74 2.78 14.44
3/8/2021 11:00:00 AM -0.05 31.91 0.08 6.76 2.76 14.42
3/8/2021 11:15:00 AM -0.05 31.91 0.08 6.73 2.88 14.41
3/8/2021 11:30:00 AM -0.01 31.982 0.08 6.69 2.88 14.38
3/8/2021 11:45:00 AM 0 32 0.08 6.69 2.93 14.38
3/8/2021 12:00:00 PM -0.01 31.982 0.08 6.69 2.95 14.38
3/8/2021 12:15:00 PM -0.01 31.982 0.081 6.77 3.06 14.37
3/8/2021 12:30:00 PM 0.02 32.036 0.079 6.71 3.11 14.36
3/8/2021 12:45:00 PM 0.15 32.27 0.079 6.72 3.08 14.35
3/8/2021 1:00:00 PM 0.28 32.504 0.079 6.79 3.24 14.34
3/8/2021 1:15:00 PM 0.37 32.666 0.079 6.79 3.03 14.33
3/8/2021 1:30:00 PM 0.48 32.864 0.078 6.8 2.87 14.31
3/8/2021 1:45:00 PM 0.62 33.116 0.079 6.8 2.79 14.27
3/8/2021 2:00:00 PM 0.71 33.278 0.078 6.75 2.73 14.24
3/8/2021 2:15:00 PM 0.86 33.548 0.078 6.74 2.74 14.22
3/8/2021 2:30:00 PM 1.05 33.89 0.078 6.74 2.63 14.17
3/8/2021 2:45:00 PM 1.15 34.07 0.078 6.71 2.91 14.13
3/8/2021 3:00:00 PM 1.24 34.232 0.077 6.71 2.7 14.09
3/8/2021 3:15:00 PM 1.32 34.376 0.077 6.71 3.03 14.05
3/8/2021 3:30:00 PM 1.41 34.538 0.077 6.7 2.79 14.01
3/8/2021 3:45:00 PM 1.49 34.682 0.077 6.69 2.74 13.97
3/8/2021 4:00:00 PM 1.56 34.808 0.077 6.68 2.91 13.93
3/8/2021 4:15:00 PM 1.64 34.952 0.077 6.69 3.04 13.89
3/8/2021 4:30:00 PM 1.7 35.06 0.077 6.69 3.09 13.85
3/8/2021 4:45:00 PM 1.74 35.132 0.077 6.69 3.09 13.81
3/8/2021 5:00:00 PM 1.76 35.168 0.077 6.68 3.2 13.77
3/8/2021 5:15:00 PM 1.79 35.222 0.077 6.68 3.13 13.73
3/8/2021 5:30:00 PM 1.82 35.276 0.077 6.68 3.18 13.71
3/8/2021 5:45:00 PM 1.82 35.276 0.076 6.67 3.26 13.69
3/8/2021 6:00:00 PM 1.8 35.24 0.076 6.67 3.18 13.67
3/8/2021 6:15:00 PM 1.76 35.168 0.076 6.66 3.25 13.65
3/8/2021 6:30:00 PM 1.71 35.078 0.076 6.65 3.25 13.64
3/8/2021 6:45:00 PM 1.66 34.988 0.075 6.63 3.27 13.64
3/8/2021 7:00:00 PM 1.6 34.88 0.075 6.64 3.11 13.64
3/8/2021 7:15:00 PM 1.55 34.79 0.075 6.63 3.17 13.65
3/8/2021 7:30:00 PM 1.49 34.682 0.075 6.62 3.18 13.66
3/8/2021 7:45:00 PM 1.43 34.574 0.075 6.62 3.24 13.67
3/8/2021 8:00:00 PM 1.37 34.466 0.074 6.61 3.15 13.68
3/8/2021 8:15:00 PM 1.31 34.358 0.074 6.61 3.24 13.7
3/8/2021 8:30:00 PM 1.25 34.25 0.074 6.61 3.08 13.72
3/8/2021 8:45:00 PM 1.2 34.16 0.074 6.6 3.21 13.74
3/8/2021 9:00:00 PM 1.14 34.052 0.073 6.6 3.2 13.75
3/8/2021 9:15:00 PM 1.09 33.962 0.073 6.58 3.13 13.78
3/8/2021 9:30:00 PM 1.05 33.89 0.073 6.59 3.19 13.8
3/8/2021 9:45:00 PM 1.02 33.836 0.072 6.59 3.01 13.81
3/8/2021 10:00:00 PM 0.99 33.782 0.072 6.59 2.97 13.82
3/8/2021 10:15:00 PM 0.96 33.728 0.072 6.59 3.01 13.83
3/8/2021 10:30:00 PM 0.94 33.692 0.072 6.58 2.95 13.84
3/8/2021 10:45:00 PM 0.92 33.656 0.072 6.6 2.98 13.85
3/8/2021 11:00:00 PM 0.89 33.602 0.072 6.58 3 13.86
3/8/2021 11:15:00 PM 0.85 33.53 0.072 6.58 2.92 13.87
3/8/2021 11:30:00 PM 0.81 33.458 0.072 6.58 2.97 13.88
3/8/2021 11:45:00 PM 0.78 33.404 0.073 6.59 2.97 13.89
3/9/2021 12:00:00 AM 0.75 33.35 0.073 6.58 2.94 13.9
3/9/2021 12:15:00 AM 0.74 33.332 0.073 6.59 2.86 13.91
3/9/2021 12:30:00 AM 0.72 33.296 0.074 6.59 2.84 13.91
3/9/2021 12:45:00 AM 0.71 33.278 0.074 6.6 2.89 13.92
3/9/2021 1:00:00 AM 0.7 33.26 0.075 6.59 2.79 13.92
3/9/2021 1:15:00 AM 0.7 33.26 0.075 6.59 2.81 13.92
3/9/2021 1:30:00 AM 0.7 33.26 0.076 6.6 2.82 13.91
3/9/2021 1:45:00 AM 0.68 33.224 0.076 6.6 2.84 13.93
3/9/2021 2:00:00 AM 0.67 33.206 0.077 6.61 2.68 13.93
3/9/2021 2:15:00 AM 0.66 33.188 0.077 6.61 2.76 13.93
3/9/2021 2:30:00 AM 0.65 33.17 0.078 6.61 2.72 13.93
3/9/2021 2:45:00 AM 0.64 33.152 0.078 6.61 2.72 13.92
3/9/2021 3:00:00 AM 0.64 33.152 0.078 6.61 2.69 13.93
3/9/2021 3:15:00 AM 0.63 33.134 0.078 6.62 2.74 13.93
3/9/2021 3:30:00 AM 0.61 33.098 0.079 6.62 2.7 13.93
3/9/2021 3:45:00 AM 0.59 33.062 0.079 6.62 2.68 13.94
3/9/2021 4:00:00 AM 0.57 33.026 0.079 6.61 2.65 13.94
3/9/2021 4:15:00 AM 0.55 32.99 0.079 6.62 2.63 13.95
3/9/2021 4:30:00 AM 0.53 32.954 0.079 6.61 2.66 13.95
3/9/2021 4:45:00 AM 0.51 32.918 0.079 6.61 2.65 13.95
3/9/2021 5:00:00 AM 0.49 32.882 0.079 6.62 2.68 13.96
3/9/2021 5:15:00 AM 0.47 32.846 0.079 6.62 2.69 13.97
3/9/2021 5:30:00 AM 0.45 32.81 0.079 6.62 2.66 13.98
3/9/2021 5:45:00 AM 0.43 32.774 0.079 6.62 2.61 13.98
3/9/2021 6:00:00 AM 0.41 32.738 0.08 6.62 2.65 13.99
3/9/2021 6:15:00 AM 0.4 32.72 0.08 6.62 2.61 14
3/9/2021 6:30:00 AM 0.38 32.684 0.08 6.62 2.57 14.01
3/9/2021 6:45:00 AM 0.36 32.648 0.08 6.63 2.62 14.03
3/9/2021 7:00:00 AM 0.35 32.63 0.08 6.62 2.58 14.05
3/9/2021 7:15:00 AM 0.35 32.63 0.08 6.63 2.54 14.07
3/9/2021 7:30:00 AM 0.34 32.612 0.08 6.63 2.51 14.09
3/9/2021 7:45:00 AM 0.35 32.63 0.08 6.64 2.46 14.12
3/9/2021 8:00:00 AM 0.39 32.702 0.08 6.65 2.46 14.15
3/9/2021 8:15:00 AM 0.42 32.756 0.08 6.65 2.45 14.15
3/9/2021 8:30:00 AM 0.46 32.828 0.08 6.66 2.43 14.17
3/9/2021 8:45:00 AM 0.51 32.918 0.08 6.66 2.43 14.18
3/9/2021 9:00:00 AM 0.57 33.026 0.08 6.67 2.42 14.18
3/9/2021 9:15:00 AM 0.64 33.152 0.08 6.68 2.39 14.18
3/9/2021 9:30:00 AM 0.72 33.296 0.08 6.68 2.43 14.17
3/9/2021 9:45:00 AM 0.82 33.476 0.08 6.68 2.44 14.16
3/9/2021 10:00:00 AM 0.92 33.656 0.08 6.68 2.4 14.15
3/9/2021 10:15:00 AM 1.04 33.872 0.08 6.69 2.38 14.13
3/9/2021 10:30:00 AM 1.18 34.124 0.08 6.71 2.39 14.1
3/9/2021 10:45:00 AM 1.34 34.412 0.079 6.71 2.36 14.06
3/9/2021 11:00:00 AM 1.53 34.754 0.079 6.72 2.32 14.01
3/9/2021 11:15:00 AM 1.72 35.096 0.079 6.72 2.36 13.96
3/9/2021 11:30:00 AM 1.92 35.456 0.079 6.73 2.33 13.92
3/9/2021 11:45:00 AM 2.11 35.798 0.079 6.74 2.34 13.87
3/9/2021 12:00:00 PM 2.32 36.176 0.079 6.75 2.31 13.8
3/9/2021 12:15:00 PM 2.53 36.554 0.079 6.75 2.33 13.73
3/9/2021 12:30:00 PM 2.75 36.95 0.078 6.76 2.3 13.66
3/9/2021 12:45:00 PM 2.96 37.328 0.078 6.74 2.3 13.58
3/9/2021 1:00:00 PM 3.18 37.724 0.078 6.75 2.31 13.5
3/9/2021 1:15:00 PM 3.42 38.156 0.078 6.76 2.31 13.44
3/9/2021 1:30:00 PM 3.63 38.534 0.078 6.76 2.32 13.35
3/9/2021 1:45:00 PM 3.84 38.912 0.078 6.75 2.42 13.27
3/9/2021 2:00:00 PM 4.05 39.29 0.078 6.76 2.38 13.19
3/9/2021 2:15:00 PM 4.24 39.632 0.078 6.75 2.42 13.12
3/9/2021 2:30:00 PM 4.43 39.974 0.078 6.75 2.55 13.04
3/9/2021 2:45:00 PM 4.6 40.28 0.078 6.75 2.56 12.98
3/9/2021 3:00:00 PM 4.77 40.586 0.078 6.75 2.61 12.9
3/9/2021 3:15:00 PM 4.9 40.82 0.078 6.75 2.67 12.84
3/9/2021 3:30:00 PM 5.04 41.072 0.078 6.75 2.67 12.78
3/9/2021 3:45:00 PM 5.12 41.216 0.078 6.74 2.77 12.72
3/9/2021 4:00:00 PM 5.18 41.324 0.078 6.75 2.81 12.67
3/9/2021 4:15:00 PM 5.22 41.396 0.078 6.73 2.82 12.63
3/9/2021 4:30:00 PM 5.25 41.45 0.078 6.73 2.88 12.6
3/9/2021 4:45:00 PM 5.25 41.45 0.078 6.72 2.93 12.57
3/9/2021 5:00:00 PM 5.23 41.414 0.078 6.72 2.89 12.54
3/9/2021 5:15:00 PM 5.19 41.342 0.078 6.71 2.91 12.53
3/9/2021 5:30:00 PM 5.13 41.234 0.079 6.7 3.01 12.52
3/9/2021 5:45:00 PM 5.05 41.09 0.079 6.7 2.95 12.51
3/9/2021 6:00:00 PM 4.96 40.928 0.079 6.69 3.03 12.51
3/9/2021 6:15:00 PM 4.87 40.766 0.079 6.67 3.02 12.51
3/9/2021 6:30:00 PM 4.77 40.586 0.079 6.67 3.17 12.5
3/9/2021 6:45:00 PM 4.67 40.406 0.079 6.66 3.16 12.52
3/9/2021 7:00:00 PM 4.57 40.226 0.079 6.66 3.15 12.53
3/9/2021 7:15:00 PM 4.48 40.064 0.079 6.65 3.13 12.53
3/9/2021 7:30:00 PM 4.39 39.902 0.079 6.66 3.1 12.54
3/9/2021 7:45:00 PM 4.3 39.74 0.079 6.64 3.09 12.57
3/9/2021 8:00:00 PM 4.22 39.596 0.08 6.63 3.17 12.58
3/9/2021 8:15:00 PM 4.15 39.47 0.08 6.62 3.08 12.59
3/9/2021 8:30:00 PM 4.08 39.344 0.08 6.63 3.07 12.61
3/9/2021 8:45:00 PM 4.02 39.236 0.08 6.62 3.1 12.63
3/9/2021 9:00:00 PM 3.95 39.11 0.081 6.62 3.23 12.64
3/9/2021 9:15:00 PM 3.89 39.002 0.081 6.6 3.25 12.66
3/9/2021 9:30:00 PM 3.84 38.912 0.081 6.67 3.39 12.67
3/9/2021 9:45:00 PM 3.79 38.822 0.081 6.66 3.62 12.69
3/9/2021 10:00:00 PM 3.74 38.732 0.081 6.64 3.79 12.7
3/9/2021 10:15:00 PM 3.69 38.642 0.081 6.67 4.17 12.72
3/9/2021 10:30:00 PM 3.65 38.57 0.081 6.67 4.29 12.73
3/9/2021 10:45:00 PM 3.6 38.48 0.081 6.64 4.59 12.74
3/9/2021 11:00:00 PM 3.56 38.408 0.082 6.6 5.1 12.76
3/9/2021 11:15:00 PM 3.51 38.318 0.082 6.6 5.28 12.79
3/9/2021 11:30:00 PM 3.45 38.21 0.082 6.6 5.42 12.81
3/9/2021 11:45:00 PM 3.4 38.12 0.082 6.61 5.53 12.83
3/10/2021 12:00:00 AM 3.34 38.012 0.082 6.61 5.39 12.85
3/10/2021 12:15:00 AM 3.28 37.904 0.082 6.6 5.06 12.88
3/10/2021 12:30:00 AM 3.22 37.796 0.082 6.6 4.93 12.9
3/10/2021 12:45:00 AM 3.16 37.688 0.082 6.59 5.08 12.92
3/10/2021 1:00:00 AM 3.11 37.598 0.082 6.6 4.97 12.94
3/10/2021 1:15:00 AM 3.05 37.49 0.082 6.6 4.95 12.97
3/10/2021 1:30:00 AM 3 37.4 0.083 6.6 4.86 12.98
3/10/2021 1:45:00 AM 2.95 37.31 0.083 6.61 4.79 13
3/10/2021 2:00:00 AM 2.91 37.238 0.083 6.62 4.8 13.02
3/10/2021 2:15:00 AM 2.86 37.148 0.084 6.63 4.65 13.03
3/10/2021 2:30:00 AM 2.81 37.058 0.084 6.59 4.62 13.06
3/10/2021 2:45:00 AM 2.76 36.968 0.085 6.6 4.67 13.07
3/10/2021 3:00:00 AM 2.71 36.878 0.086 6.6 4.83 13.09
3/10/2021 3:15:00 AM 2.66 36.788 0.087 6.59 4.73 13.12
3/10/2021 3:30:00 AM 2.6 36.68 0.088 6.59 4.77 13.14
3/10/2021 3:45:00 AM 2.53 36.554 0.088 6.6 4.9 13.17
3/10/2021 4:00:00 AM 2.46 36.428 0.089 6.6 5.14 13.2
3/10/2021 4:15:00 AM 2.39 36.302 0.09 6.6 5.32 13.23
3/10/2021 4:30:00 AM 2.32 36.176 0.09 6.6 5.7 13.26
3/10/2021 4:45:00 AM 2.24 36.032 0.09 6.6 6.07 13.28
3/10/2021 5:00:00 AM 2.16 35.888 0.091 6.6 6.48 13.3
3/10/2021 5:15:00 AM 2.09 35.762 0.091 6.61 7.07 13.34
3/10/2021 5:30:00 AM 2.01 35.618 0.091 6.61 7.14 13.38
3/10/2021 5:45:00 AM 1.94 35.492 0.091 6.61 7.68 13.39
3/10/2021 6:00:00 AM 1.87 35.366 0.091 6.62 7.85 13.43
3/10/2021 6:15:00 AM 1.8 35.24 0.091 6.62 7.85 13.45
3/10/2021 6:30:00 AM 1.74 35.132 0.091 6.63 7.87 13.48
3/10/2021 6:45:00 AM 1.68 35.024 0.091 6.66 8.02 13.5
3/10/2021 7:00:00 AM 1.62 34.916 0.091 6.67 7.44 13.53
3/10/2021 7:15:00 AM 1.57 34.826 0.092 6.68 7.73 13.56
3/10/2021 7:30:00 AM 1.53 34.754 0.092 6.69 7.66 13.6
3/10/2021 7:45:00 AM 1.51 34.718 0.092 6.7 7.49 13.63
3/10/2021 8:00:00 AM 1.5 34.7 0.092 6.71 7.73 13.66
3/10/2021 8:15:00 AM 1.5 34.7 0.092 6.72 7.36 13.69
3/10/2021 8:30:00 AM 1.51 34.718 0.092 6.73 7.29 13.71
3/10/2021 8:45:00 AM 1.53 34.754 0.092 6.74 7.3 13.73
3/10/2021 9:00:00 AM 1.57 34.826 0.093 6.75 7.27 13.75
3/10/2021 9:15:00 AM 1.61 34.898 0.093 6.76 6.96 13.76
3/10/2021 9:30:00 AM 1.67 35.006 0.093 6.77 6.93 13.77
3/10/2021 9:45:00 AM 1.74 35.132 0.093 6.78 6.56 13.77
3/10/2021 10:00:00 AM 1.83 35.294 0.093 6.79 6.57 13.77
3/10/2021 10:15:00 AM 1.93 35.474 0.093 6.8 6.3 13.76
3/10/2021 10:30:00 AM 2.05 35.69 0.093 6.81 6.26 13.74
3/10/2021 10:45:00 AM 2.17 35.906 0.093 6.82 6.05 13.73
3/10/2021 11:00:00 AM 2.32 36.176 0.093 6.83 6.05 13.7
3/10/2021 11:15:00 AM 2.48 36.464 0.094 6.83 5.86 13.67
3/10/2021 11:30:00 AM 2.66 36.788 0.094 6.84 5.63 13.61
3/10/2021 11:45:00 AM 2.85 37.13 0.094 6.85 5.48 13.57
3/10/2021 12:00:00 PM 3.06 37.508 0.093 6.85 5.4 13.51
3/10/2021 12:15:00 PM 3.26 37.868 0.093 6.86 5.32 13.46
3/10/2021 12:30:00 PM 3.48 38.264 0.093 6.86 5.13 13.39
3/10/2021 12:45:00 PM 3.69 38.642 0.093 6.87 5.07 13.32
3/10/2021 1:00:00 PM 3.91 39.038 0.093 6.87 4.83 13.26
3/10/2021 1:15:00 PM 4.11 39.398 0.093 6.87 4.87 13.19
3/10/2021 1:30:00 PM 4.29 39.722 0.093 6.87 4.77 13.12
3/10/2021 1:45:00 PM 4.5 40.1 0.093 6.88 4.77 13.05
3/10/2021 2:00:00 PM 4.7 40.46 0.093 6.88 4.77 12.97
3/10/2021 2:15:00 PM 4.88 40.784 0.092 6.89 4.6 12.92
3/10/2021 2:30:00 PM 5.06 41.108 0.092 6.87 4.57 12.83
3/10/2021 2:45:00 PM 5.23 41.414 0.092 6.87 4.63 12.77
3/10/2021 3:00:00 PM 5.38 41.684 0.092 6.87 4.65 12.7
3/10/2021 3:15:00 PM 5.51 41.918 0.091 6.87 4.68 12.64
3/10/2021 3:30:00 PM 5.57 42.026 0.091 6.86 4.52 12.6
3/10/2021 3:45:00 PM 5.66 42.188 0.091 6.86 4.68 12.55
3/10/2021 4:00:00 PM 5.7 42.26 0.09 6.84 4.8 12.51
3/10/2021 4:15:00 PM 5.74 42.332 0.09 6.83 4.75 12.47
3/10/2021 4:30:00 PM 5.77 42.386 0.09 6.82 4.73 12.46
3/10/2021 4:45:00 PM 5.77 42.386 0.089 6.82 4.74 12.43
3/10/2021 5:00:00 PM 5.73 42.314 0.089 6.81 4.73 12.41
3/10/2021 5:15:00 PM 5.68 42.224 0.089 6.8 4.79 12.4
3/10/2021 5:30:00 PM 5.62 42.116 0.088 6.78 4.71 12.38
3/10/2021 5:45:00 PM 5.55 41.99 0.088 6.83 4.6 12.36
3/10/2021 6:00:00 PM 5.48 41.864 0.088 6.81 4.79 12.34
3/10/2021 6:15:00 PM 5.41 41.738 0.088 6.8 4.81 12.31
3/10/2021 6:30:00 PM 5.35 41.63 0.087 6.78 4.85 12.3
3/10/2021 6:45:00 PM 5.29 41.522 0.087 6.76 5.1 12.29
3/10/2021 7:00:00 PM 5.23 41.414 0.087 6.75 5.03 12.28
3/10/2021 7:15:00 PM 5.17 41.306 0.087 6.74 5.11 12.28
3/10/2021 7:30:00 PM 5.12 41.216 0.086 6.74 5.52 12.28
3/10/2021 7:45:00 PM 5.07 41.126 0.086 6.73 5.78 12.28
3/10/2021 8:00:00 PM 5.03 41.054 0.085 6.82 8.37 12.28
3/10/2021 8:15:00 PM 4.99 40.982 0.085 6.8 8.64 12.28
3/10/2021 8:30:00 PM 4.95 40.91 0.086 6.79 10.56 12.28
3/10/2021 8:45:00 PM 4.91 40.838 0.086 6.76 12.61 12.28
3/10/2021 9:00:00 PM 4.87 40.766 0.086 6.75 15.9 12.29
3/10/2021 9:15:00 PM 4.82 40.676 0.086 6.71 16.5 12.3
3/10/2021 9:30:00 PM 4.76 40.568 0.085 6.77 29.81 12.31
3/10/2021 9:45:00 PM 4.71 40.478 0.084 6.73 24.77 12.34
3/10/2021 10:00:00 PM 4.64 40.352 0.084 6.75 22.14 12.34
3/10/2021 10:15:00 PM 4.57 40.226 0.084 6.64 20.39 12.37
3/10/2021 10:30:00 PM 4.51 40.118 0.083 6.63 20.5 12.38
3/10/2021 10:45:00 PM 4.45 40.01 0.083 6.63 22.42 12.4
3/10/2021 11:00:00 PM 4.41 39.938 0.083 6.59 21.14 12.42
3/10/2021 11:15:00 PM 4.38 39.884 0.083 6.62 21.62 12.44
3/10/2021 11:30:00 PM 4.34 39.812 0.084 6.63 22.71 12.45
3/10/2021 11:45:00 PM 4.3 39.74 0.085 6.72 22.3 12.48
3/11/2021 12:00:00 AM 4.24 39.632 0.086 6.69 22.5 12.5
3/11/2021 12:15:00 AM 4.17 39.506 0.086 6.68 24.97 12.53
3/11/2021 12:30:00 AM 4.1 39.38 0.086 6.66 27.21 12.56
3/11/2021 12:45:00 AM 4.03 39.254 0.086 6.67 27.49 12.58
3/11/2021 1:00:00 AM 3.96 39.128 0.086 6.69 28.22 12.61
3/11/2021 1:15:00 AM 3.89 39.002 0.085 6.7 27.75 12.64
3/11/2021 1:30:00 AM 3.83 38.894 0.084 6.7 29.94 12.66
3/11/2021 1:45:00 AM 3.77 38.786 0.083 6.71 32.91 12.68
3/11/2021 2:00:00 AM 3.73 38.714 0.083 6.72 31.39 12.7
3/11/2021 2:15:00 AM 3.68 38.624 0.082 6.7 33.32 12.72
3/11/2021 2:30:00 AM 3.63 38.534 0.082 6.73 37.63 12.74
3/11/2021 2:45:00 AM 3.6 38.48 0.081 6.75 27.55 12.74
3/11/2021 3:00:00 AM 3.56 38.408 0.081 6.75 29.92 12.77
3/11/2021 3:15:00 AM 3.53 38.354 0.081 6.73 28.14 12.78
3/11/2021 3:30:00 AM 3.49 38.282 0.081 6.71 25.5 12.79
3/11/2021 3:45:00 AM 3.46 38.228 0.08 6.71 24.44 12.8
3/11/2021 4:00:00 AM 3.43 38.174 0.08 6.71 23.78 12.81
3/11/2021 4:15:00 AM 3.41 38.138 0.08 6.71 22.8 12.82
3/11/2021 4:30:00 AM 3.38 38.084 0.08 6.74 21.37 12.83
3/11/2021 4:45:00 AM 3.34 38.012 0.08 6.77 20.68 12.84
3/11/2021 5:00:00 AM 3.31 37.958 0.08 6.74 21.04 12.84
3/11/2021 5:15:00 AM 3.28 37.904 0.08 6.73 18.62 12.86
3/11/2021 5:30:00 AM 3.26 37.868 0.08 6.74 19.71 12.86
3/11/2021 5:45:00 AM 3.23 37.814 0.08 6.75 23.77 12.86
3/11/2021 6:00:00 AM 3.2 37.76 0.08 6.76 17.15 12.88
3/11/2021 6:15:00 AM 3.17 37.706 0.08 6.75 17.32 12.89
3/11/2021 6:30:00 AM 3.14 37.652 0.08 6.74 16.34 12.89
3/11/2021 6:45:00 AM 3.11 37.598 0.079 6.72 16.24 12.91
3/11/2021 7:00:00 AM 3.08 37.544 0.079 6.75 14.49 12.92
3/11/2021 7:15:00 AM 3.08 37.544 0.079 6.76 15.12 12.94
3/11/2021 7:30:00 AM 3.08 37.544 0.079 6.75 14.52 12.96
3/11/2021 7:45:00 AM 3.09 37.562 0.078 6.76 14.96 12.97
3/11/2021 8:00:00 AM 3.1 37.58 0.078 6.76 12.74 12.98
3/11/2021 8:15:00 AM 3.12 37.616 0.078 6.76 12.57 12.99
3/11/2021 8:30:00 AM 3.15 37.67 0.077 6.78 12.27 13
3/11/2021 8:45:00 AM 3.16 37.688 0.077 6.78 11.25 13
3/11/2021 9:00:00 AM 3.17 37.706 0.077 6.78 10.89 13
3/11/2021 9:15:00 AM 3.2 37.76 0.076 6.78 10.66 13.01
3/11/2021 9:30:00 AM 3.24 37.832 0.076 6.79 10.56 13.02
3/11/2021 9:45:00 AM 3.31 37.958 0.075 6.79 9.86 13.03
3/11/2021 10:00:00 AM 3.41 38.138 0.075 6.8 10.32 13.04
3/11/2021 10:15:00 AM 3.49 38.282 0.075 6.8 10.3 13.03
3/11/2021 10:30:00 AM 3.56 38.408 0.074 6.81 9.9 13.02
3/11/2021 10:45:00 AM 3.67 38.606 0.074 6.81 9.99 13
3/11/2021 11:00:00 AM 3.78 38.804 0.074 6.81 9.95 12.99
3/11/2021 11:15:00 AM 3.87 38.966 0.073 6.81 9.87 12.97
3/11/2021 11:30:00 AM 3.96 39.128 0.073 6.82 9.39 12.95
3/11/2021 11:45:00 AM 4.04 39.272 0.073 6.81 9.71 12.92
3/11/2021 12:00:00 PM 4.13 39.434 0.072 6.79 9.82 12.9
3/11/2021 12:15:00 PM 4.26 39.668 0.072 6.8 9.48 12.88
3/11/2021 12:30:00 PM 4.35 39.83 0.072 6.8 9.71 12.85
3/11/2021 12:45:00 PM 4.48 40.064 0.071 6.81 9.24 12.82
3/11/2021 1:00:00 PM 4.65 40.37 0.071 6.81 9.51 12.78
3/11/2021 1:15:00 PM 4.8 40.64 0.071 6.84 8.74 12.75
3/11/2021 1:30:00 PM 4.91 40.838 0.07 6.84 9.27 12.7
3/11/2021 1:45:00 PM 5.04 41.072 0.07 6.85 8.73 12.66
3/11/2021 2:00:00 PM 5.18 41.324 0.07 6.81 11.46 12.61
3/11/2021 2:15:00 PM 5.29 41.522 0.069 6.72 9.41 12.57
3/11/2021 2:30:00 PM 5.37 41.666 0.069 6.69 9.85 12.52
3/11/2021 2:45:00 PM 5.46 41.828 0.069 6.81 9.81 12.48
3/11/2021 3:00:00 PM 5.51 41.918 0.069 6.8 10.24 12.44
3/11/2021 3:15:00 PM 5.61 42.098 0.068 6.76 11.74 12.42
3/11/2021 3:30:00 PM 5.62 42.116 0.068 6.74 11.08 12.37
3/11/2021 3:45:00 PM 5.66 42.188 0.068 6.77 12.47 12.35
3/11/2021 4:00:00 PM 5.69 42.242 0.068 6.78 12.27 12.32
3/11/2021 4:15:00 PM 5.7 42.26 0.067 6.77 13.56 12.3
3/11/2021 4:30:00 PM 5.7 42.26 0.067 6.73 14.66 12.28
3/11/2021 4:45:00 PM 5.69 42.242 0.067 6.7 19.59 12.25
3/11/2021 5:00:00 PM 5.68 42.224 0.067 6.69 18.33 12.22
3/11/2021 5:15:00 PM 5.65 42.17 0.066 6.63 20.45 12.21
3/11/2021 5:30:00 PM 5.64 42.152 0.066 6.63 23.41 12.19
3/11/2021 5:45:00 PM 5.61 42.098 0.066 6.64 25.68 12.17
3/11/2021 6:00:00 PM 5.57 42.026 0.065 6.64 34.64 12.16
3/11/2021 6:15:00 PM 5.52 41.936 0.065 6.62 36.68 12.14
3/11/2021 6:30:00 PM 5.47 41.846 0.065 6.57 42.84 12.13
3/11/2021 6:45:00 PM 5.43 41.774 0.065 6.59 48.19 12.14
3/11/2021 7:00:00 PM 5.39 41.702 0.064 6.56 68.6 12.14
3/11/2021 7:15:00 PM 5.35 41.63 0.064 6.54 69.23 12.13
3/11/2021 7:30:00 PM 5.31 41.558 0.063 6.54 62.43 12.14
3/11/2021 7:45:00 PM 5.27 41.486 0.063 6.51 64.56 12.15
3/11/2021 8:00:00 PM 5.23 41.414 0.063 6.51 68.13 12.15
3/11/2021 8:15:00 PM 5.19 41.342 0.033 6.51 73.9 12.16
3/11/2021 8:30:00 PM 5.17 41.306 0.063 6.52 80.49 12.18
3/11/2021 8:45:00 PM 5.14 41.252 0.041 6.49 78.53 12.19
3/11/2021 9:00:00 PM 5.11 41.198 0.063 6.48 75.21 12.21
3/11/2021 9:15:00 PM 5.08 41.144 0.032 6.53 87.01 12.22
3/11/2021 9:30:00 PM 5.03 41.054 0.062 6.48 112.58 12.24
3/11/2021 9:45:00 PM 4.99 40.982 0.062 6.47 100.58 12.26
3/11/2021 10:00:00 PM 4.96 40.928 0.033 6.5 79.74 12.26
3/11/2021 10:15:00 PM 4.93 40.874 0.061 6.5 95.37 12.28
3/11/2021 10:30:00 PM 4.91 40.838 0.061 6.5 75.84 12.3
3/11/2021 10:45:00 PM 4.88 40.784 0.033 6.52 81.63 12.31
3/11/2021 11:00:00 PM 4.86 40.748 0.059 6.51 80.82 12.32
3/11/2021 11:15:00 PM 4.83 40.694 0.059 6.52 72.26 12.33
3/11/2021 11:30:00 PM 4.81 40.658 0.035 6.54 77.04 12.34
3/11/2021 11:45:00 PM 4.78 40.604 0.058 6.51 71.49 12.35
3/12/2021 12:00:00 AM 4.76 40.568 0.058 6.52 68.21 12.35
3/12/2021 12:15:00 AM 4.73 40.514 0.058 6.51 72.65 12.36
3/12/2021 12:30:00 AM 4.7 40.46 0.035 6.52 83.77 12.39
3/12/2021 12:45:00 AM 4.67 40.406 0.058 6.51 57.31 12.38
3/12/2021 1:00:00 AM 4.64 40.352 0.058 6.5 68.78 12.4
3/12/2021 1:15:00 AM 4.61 40.298 0.058 6.46 66.17 12.4
3/12/2021 1:30:00 AM 4.6 40.28 0.058 6.49 47.6 12.41
3/12/2021 1:45:00 AM 4.59 40.262 0.057 6.49 70.13 12.42
3/12/2021 2:00:00 AM 4.57 40.226 0.057 6.51 59.62 12.43
3/12/2021 2:15:00 AM 4.55 40.19 0.057 6.5 54.83 12.43
3/12/2021 2:30:00 AM 4.53 40.154 0.057 6.49 52.03 12.44
3/12/2021 2:45:00 AM 4.5 40.1 0.057 6.5 48.47 12.45
3/12/2021 3:00:00 AM 4.46 40.028 0.057 6.48 52.89 12.47
3/12/2021 3:15:00 AM 4.44 39.992 0.057 6.49 53.2 12.47
3/12/2021 3:30:00 AM 4.42 39.956 0.056 6.47 44.43 12.48
3/12/2021 3:45:00 AM 4.41 39.938 0.056 6.47 53.88 12.48
3/12/2021 4:00:00 AM 4.4 39.92 0.056 6.48 56.23 12.49
3/12/2021 4:15:00 AM 4.38 39.884 0.055 6.48 54.72 12.49
3/12/2021 4:30:00 AM 4.36 39.848 0.055 6.47 35 12.5
3/12/2021 4:45:00 AM 4.34 39.812 0.055 6.42 50.08 12.5
3/12/2021 5:00:00 AM 4.31 39.758 0.055 6.43 44.56 12.51
3/12/2021 5:15:00 AM 4.29 39.722 0.028 6.43 50.93 12.53
3/12/2021 5:30:00 AM 4.27 39.686 0.054 6.41 59.68 12.53
3/12/2021 5:45:00 AM 4.24 39.632 0.054 6.44 52.52 12.54
3/12/2021 6:00:00 AM 4.21 39.578 0.054 6.38 51.96 12.55
3/12/2021 6:15:00 AM 4.18 39.524 0.053 6.41 46.76 12.56
3/12/2021 6:30:00 AM 4.15 39.47 0.053 6.42 37.9 12.57
3/12/2021 6:45:00 AM 4.13 39.434 0.053 6.33 49.67 12.58
3/12/2021 7:00:00 AM 4.1 39.38 0.053 6.42 41.85 12.58
3/12/2021 7:15:00 AM 4.08 39.344 0.053 6.34 41.9 12.6
3/12/2021 7:30:00 AM 4.06 39.308 0.052 6.36 38.65 12.6
3/12/2021 7:45:00 AM 4.06 39.308 0.052 6.39 50.93 12.61
3/12/2021 8:00:00 AM 4.05 39.29 0.052 6.38 37.73 12.62
3/12/2021 8:15:00 AM 4.05 39.29 0.052 6.4 39.66 12.63
3/12/2021 8:30:00 AM 4.06 39.308 0.052 6.43 32.41 12.63
3/12/2021 8:45:00 AM 4.07 39.326 0.052 6.43 36.85 12.64
3/12/2021 9:00:00 AM 4.1 39.38 0.051 6.43 36.85 12.64
3/12/2021 9:15:00 AM 4.13 39.434 0.051 6.41 31.49 12.65
3/12/2021 9:30:00 AM 4.17 39.506 0.051 6.4 31.46 12.64
3/12/2021 9:45:00 AM 4.23 39.614 0.051 6.41 34.05 12.64
3/12/2021 10:00:00 AM 4.3 39.74 0.051 6.4 30.8 12.64
3/12/2021 10:15:00 AM 4.38 39.884 0.051 6.43 27.28 12.63
3/12/2021 10:30:00 AM 4.47 40.046 0.05 6.47 30.99 12.62
3/12/2021 10:45:00 AM 4.57 40.226 0.05 6.44 33.81 12.61
3/12/2021 11:00:00 AM 4.67 40.406 0.05 6.45 25.59 12.59
3/12/2021 11:15:00 AM 4.78 40.604 0.05 6.45 29.46 12.57
3/12/2021 11:30:00 AM 4.89 40.802 0.05 6.41 24.83 12.55
3/12/2021 11:45:00 AM 5 41 0.05 6.45 25.75 12.53
3/12/2021 12:00:00 PM 5.1 41.18 0.05 6.46 26.38 12.51
3/12/2021 12:15:00 PM 5.22 41.396 0.05 6.45 30.12 12.47
3/12/2021 12:30:00 PM 5.35 41.63 0.049 6.44 25.98 12.45
3/12/2021 12:45:00 PM 5.47 41.846 0.049 6.45 25.38 12.42
3/12/2021 1:00:00 PM 5.58 42.044 0.049 6.45 25.3 12.39
3/12/2021 1:15:00 PM 5.69 42.242 0.049 6.45 25.51 12.36
3/12/2021 1:30:00 PM 5.79 42.422 0.049 6.46 23.65 12.33
3/12/2021 1:45:00 PM 5.9 42.62 0.049 6.46 24.8 12.3
3/12/2021 2:00:00 PM 5.99 42.782 0.049 6.46 31.31 12.27
3/12/2021 2:15:00 PM 6.08 42.944 0.049 6.41 25.04 12.24
3/12/2021 2:30:00 PM 6.16 43.088 0.049 6.4 22.79 12.21
3/12/2021 2:45:00 PM 6.23 43.214 0.049 6.42 34.14 12.19
3/12/2021 3:00:00 PM 6.29 43.322 0.048 6.45 22.42 12.16
3/12/2021 3:15:00 PM 6.35 43.43 0.048 6.41 33.59 12.13
3/12/2021 3:30:00 PM 6.39 43.502 0.048 6.39 21.35 12.1
3/12/2021 3:45:00 PM 6.42 43.556 0.048 6.39 23.74 12.08
3/12/2021 4:00:00 PM 6.44 43.592 0.048 6.37 24.39 12.06
3/12/2021 4:15:00 PM 6.45 43.61 0.048 6.4 21.47 12.04
3/12/2021 4:30:00 PM 6.46 43.628 0.048 6.37 24.53 12.02
3/12/2021 4:45:00 PM 6.45 43.61 0.048 6.38 22.22 12
3/12/2021 5:00:00 PM 6.43 43.574 0.048 6.36 23.37 11.98
3/12/2021 5:15:00 PM 6.41 43.538 0.048 6.34 23.14 11.96
3/12/2021 5:30:00 PM 6.38 43.484 0.048 6.36 26.91 11.95
3/12/2021 5:45:00 PM 6.35 43.43 0.048 6.27 19.65 11.94
3/12/2021 6:00:00 PM 6.32 43.376 0.048 6.32 23.12 11.92
3/12/2021 6:15:00 PM 6.29 43.322 0.047 6.32 27.46 11.93
3/12/2021 6:30:00 PM 6.25 43.25 0.047 6.3 42.77 11.92
3/12/2021 6:45:00 PM 6.21 43.178 0.047 6.31 32.15 11.92
3/12/2021 7:00:00 PM 6.17 43.106 0.047 6.32 26.39 11.93
3/12/2021 7:15:00 PM 6.13 43.034 0.047 6.31 23.53 11.94
3/12/2021 7:30:00 PM 6.08 42.944 0.047 6.3 28.09 11.95
3/12/2021 7:45:00 PM 6.04 42.872 0.047 6.29 29.91 11.95
3/12/2021 8:00:00 PM 5.99 42.782 0.047 6.29 29.14 11.97
3/12/2021 8:15:00 PM 5.93 42.674 0.047 6.28 25.62 11.99
3/12/2021 8:30:00 PM 5.88 42.584 0.047 6.27 31.65 12.01
3/12/2021 8:45:00 PM 5.82 42.476 0.047 6.31 25.08 12.02
3/12/2021 9:00:00 PM 5.76 42.368 0.047 6.31 28.34 12.04
3/12/2021 9:15:00 PM 5.7 42.26 0.047 6.32 29.24 12.06
3/12/2021 9:30:00 PM 5.64 42.152 0.047 6.29 40.17 12.08
3/12/2021 9:45:00 PM 5.57 42.026 0.047 6.32 29.07 12.11
3/12/2021 10:00:00 PM 5.5 41.9 0.047 6.28 29.11 12.13
3/12/2021 10:15:00 PM 5.44 41.792 0.047 6.31 30.19 12.15
3/12/2021 10:30:00 PM 5.37 41.666 0.047 6.3 35.6 12.17
3/12/2021 10:45:00 PM 5.3 41.54 0.047 6.3 27.61 12.19
3/12/2021 11:00:00 PM 5.23 41.414 0.047 6.29 28.17 12.23
3/12/2021 11:15:00 PM 5.15 41.27 0.047 6.25 26.22 12.25
3/12/2021 11:30:00 PM 5.08 41.144 0.047 6.35 27.16 12.27
3/12/2021 11:45:00 PM 5.01 41.018 0.047 6.34 23.15 12.3
3/13/2021 12:00:00 AM 4.94 40.892 0.047 6.34 24.11 12.33
3/13/2021 12:15:00 AM 4.87 40.766 0.047 6.33 20.04 12.35
3/13/2021 12:30:00 AM 4.8 40.64 0.024 6.35 20.53 12.36
3/13/2021 12:45:00 AM 4.74 40.532 0.047 6.3 24.28 12.39
3/13/2021 1:00:00 AM 4.67 40.406 0.047 6.34 21.12 12.4
3/13/2021 1:15:00 AM 4.6 40.28 0.047 6.31 20.29 12.44
3/13/2021 1:30:00 AM 4.52 40.136 0.047 6.32 20.52 12.46
3/13/2021 1:45:00 AM 4.45 40.01 0.047 6.32 20.86 12.48
3/13/2021 2:00:00 AM 4.39 39.902 0.047 6.32 20.45 12.5
3/13/2021 2:15:00 AM 4.32 39.776 0.047 6.32 21.46 12.53
3/13/2021 2:30:00 AM 4.26 39.668 0.047 6.27 19.75 12.55
3/13/2021 2:45:00 AM 4.19 39.542 0.047 6.28 18.46 12.57
3/13/2021 3:00:00 AM 4.14 39.452 0.047 6.32 21.46 12.59
3/13/2021 3:15:00 AM 4.08 39.344 0.047 6.32 19.03 12.61
3/13/2021 3:30:00 AM 4.02 39.236 0.047 6.32 18.43 12.63
3/13/2021 3:45:00 AM 3.97 39.146 0.047 6.31 19.21 12.65
3/13/2021 4:00:00 AM 3.92 39.056 0.047 6.32 18.35 12.66
3/13/2021 4:15:00 AM 3.86 38.948 0.047 6.31 15.96 12.69
3/13/2021 4:30:00 AM 3.8 38.84 0.047 6.32 17.46 12.71
3/13/2021 4:45:00 AM 3.75 38.75 0.047 6.33 18.95 12.73
3/13/2021 5:00:00 AM 3.71 38.678 0.047 6.34 16.17 12.74
3/13/2021 5:15:00 AM 3.65 38.57 0.047 6.35 16.07 12.77
3/13/2021 5:30:00 AM 3.61 38.498 0.047 6.32 17.11 12.79
3/13/2021 5:45:00 AM 3.56 38.408 0.047 6.32 16.64 12.8
3/13/2021 6:00:00 AM 3.51 38.318 0.047 6.32 17.21 12.82
3/13/2021 6:15:00 AM 3.46 38.228 0.047 6.32 16.94 12.83
3/13/2021 6:30:00 AM 3.41 38.138 0.047 6.35 16.43 12.86
3/13/2021 6:45:00 AM 3.37 38.066 0.047 6.37 15.59 12.87
3/13/2021 7:00:00 AM 3.32 37.976 0.047 6.37 14.91 12.9
3/13/2021 7:15:00 AM 3.28 37.904 0.047 6.39 15.36 12.91
3/13/2021 7:30:00 AM 3.24 37.832 0.047 6.32 15.22 12.94
3/13/2021 7:45:00 AM 3.22 37.796 0.047 6.32 14.66 12.96
3/13/2021 8:00:00 AM 3.19 37.742 0.047 6.31 15.09 12.98
3/13/2021 8:15:00 AM 3.16 37.688 0.047 6.32 13.44 13
3/13/2021 8:30:00 AM 3.15 37.67 0.047 6.31 14.35 13.01
3/13/2021 8:45:00 AM 3.14 37.652 0.047 6.32 13.45 13.03
3/13/2021 9:00:00 AM 3.14 37.652 0.047 6.33 13.19 13.04
3/13/2021 9:15:00 AM 3.15 37.67 0.047 6.34 12.8 13.06
3/13/2021 9:30:00 AM 3.17 37.706 0.047 6.35 13.42 13.06
3/13/2021 9:45:00 AM 3.2 37.76 0.047 6.34 12.53 13.07
3/13/2021 10:00:00 AM 3.26 37.868 0.047 6.35 12.58 13.08
3/13/2021 10:15:00 AM 3.32 37.976 0.047 6.36 12.58 13.07
3/13/2021 10:30:00 AM 3.4 38.12 0.047 6.37 12.13 13.06
3/13/2021 10:45:00 AM 3.48 38.264 0.047 6.39 12.71 13.05
3/13/2021 11:00:00 AM 3.58 38.444 0.047 6.39 11.98 13.04
3/13/2021 11:15:00 AM 3.68 38.624 0.047 6.4 12.59 13.02
3/13/2021 11:30:00 AM 3.79 38.822 0.047 6.39 11.82 13
3/13/2021 11:45:00 AM 3.91 39.038 0.047 6.4 12.14 12.97
3/13/2021 12:00:00 PM 4.02 39.236 0.047 6.39 12.06 12.95
3/13/2021 12:15:00 PM 4.14 39.452 0.047 6.41 11.78 12.92
3/13/2021 12:30:00 PM 4.26 39.668 0.047 6.41 12.24 12.89
3/13/2021 12:45:00 PM 4.38 39.884 0.047 6.41 11.86 12.86
3/13/2021 1:00:00 PM 4.51 40.118 0.047 6.43 11.5 12.84
3/13/2021 1:15:00 PM 4.62 40.316 0.047 6.42 11.42 12.79
3/13/2021 1:30:00 PM 4.73 40.514 0.047 6.42 11.82 12.77
3/13/2021 1:45:00 PM 4.85 40.73 0.047 6.43 12.01 12.73
3/13/2021 2:00:00 PM 4.96 40.928 0.047 6.42 10.99 12.7
3/13/2021 2:15:00 PM 5.05 41.09 0.047 6.43 11.13 12.66
3/13/2021 2:30:00 PM 5.13 41.234 0.047 6.42 11.53 12.63
3/13/2021 2:45:00 PM 5.21 41.378 0.047 6.41 11.52 12.6
3/13/2021 3:00:00 PM 5.28 41.504 0.047 6.41 11.52 12.57
3/13/2021 3:15:00 PM 5.34 41.612 0.047 6.41 11.17 12.54
3/13/2021 3:30:00 PM 5.39 41.702 0.047 6.4 11.36 12.51
3/13/2021 3:45:00 PM 5.43 41.774 0.047 6.35 11.28 12.48
3/13/2021 4:00:00 PM 5.45 41.81 0.047 6.38 11.25 12.46
3/13/2021 4:15:00 PM 5.46 41.828 0.047 6.4 10.75 12.44
3/13/2021 4:30:00 PM 5.46 41.828 0.047 6.39 11.2 12.42
3/13/2021 4:45:00 PM 5.45 41.81 0.047 6.39 11.45 12.39
3/13/2021 5:00:00 PM 5.44 41.792 0.047 6.4 11.36 12.37
3/13/2021 5:15:00 PM 5.42 41.756 0.047 6.38 11.27 12.36
3/13/2021 5:30:00 PM 5.39 41.702 0.047 6.38 10.75 12.33
3/13/2021 5:45:00 PM 5.37 41.666 0.047 6.38 11.15 12.32
3/13/2021 6:00:00 PM 5.34 41.612 0.047 6.39 10.64 12.3
3/13/2021 6:15:00 PM 5.31 41.558 0.047 6.37 10.86 12.28
3/13/2021 6:30:00 PM 5.28 41.504 0.047 6.36 10.75 12.27
3/13/2021 6:45:00 PM 5.26 41.468 0.047 6.35 10.62 12.25
3/13/2021 7:00:00 PM 5.23 41.414 0.047 6.36 10.77 12.24
3/13/2021 7:15:00 PM 5.21 41.378 0.047 6.35 11.15 12.24
3/13/2021 7:30:00 PM 5.18 41.324 0.047 6.36 11.57 12.24
3/13/2021 7:45:00 PM 5.14 41.252 0.047 6.35 10.74 12.24
3/13/2021 8:00:00 PM 5.11 41.198 0.047 6.35 10.4 12.25
3/13/2021 8:15:00 PM 5.07 41.126 0.047 6.35 10.97 12.25
3/13/2021 8:30:00 PM 5.04 41.072 0.047 6.36 10.6 12.25
3/13/2021 8:45:00 PM 5 41 0.047 6.32 10.63 12.27
3/13/2021 9:00:00 PM 4.95 40.91 0.048 6.33 10.13 12.27
3/13/2021 9:15:00 PM 4.91 40.838 0.048 6.33 10.3 12.28
3/13/2021 9:30:00 PM 4.86 40.748 0.048 6.32 10.25 12.29
3/13/2021 9:45:00 PM 4.81 40.658 0.048 6.33 10.92 12.32
3/13/2021 10:00:00 PM 4.76 40.568 0.048 6.33 10.72 12.33
3/13/2021 10:15:00 PM 4.7 40.46 0.048 6.34 10.5 12.33
3/13/2021 10:30:00 PM 4.65 40.37 0.048 6.34 10.39 12.36
3/13/2021 10:45:00 PM 4.6 40.28 0.048 6.34 10.65 12.37
3/13/2021 11:00:00 PM 4.55 40.19 0.048 6.32 10.23 12.39
3/13/2021 11:15:00 PM 4.5 40.1 0.048 6.31 10.68 12.4
3/13/2021 11:30:00 PM 4.45 40.01 0.048 6.34 10.56 12.42
3/13/2021 11:45:00 PM 4.4 39.92 0.048 6.37 10.64 12.43
3/14/2021 12:00:00 AM 4.35 39.83 0.048 6.36 10.75 12.45
3/14/2021 12:15:00 AM 4.3 39.74 0.048 6.37 10.87 12.46
3/14/2021 12:30:00 AM 4.25 39.65 0.048 6.37 10.33 12.48
3/14/2021 12:45:00 AM 4.19 39.542 0.048 6.37 10.37 12.5
3/14/2021 1:00:00 AM 4.15 39.47 0.048 6.37 10.37 12.51
3/14/2021 1:15:00 AM 4.11 39.398 0.048 6.4 10.27 12.53
3/14/2021 1:30:00 AM 4.06 39.308 0.048 6.4 12 12.54
3/14/2021 1:45:00 AM 4.01 39.218 0.048 6.39 10.11 12.56
3/14/2021 3:00:00 AM 3.78 38.804 0.049 6.4 9.74 12.63
3/14/2021 3:15:00 AM 3.73 38.714 0.049 6.41 9.79 12.65
3/14/2021 3:30:00 AM 3.69 38.642 0.049 6.41 10.15 12.67
3/14/2021 3:45:00 AM 3.64 38.552 0.049 6.4 9.66 12.68
3/14/2021 4:00:00 AM 3.6 38.48 0.049 6.39 9.94 12.69
3/14/2021 4:15:00 AM 3.56 38.408 0.049 6.41 9.67 12.71
3/14/2021 4:30:00 AM 3.51 38.318 0.049 6.41 9.6 12.72
3/14/2021 4:45:00 AM 3.47 38.246 0.049 6.41 9.63 12.73
3/14/2021 5:00:00 AM 3.43 38.174 0.049 6.41 9.28 12.75
3/14/2021 5:15:00 AM 3.39 38.102 0.049 6.41 9.19 12.76
3/14/2021 5:30:00 AM 3.35 38.03 0.049 6.41 9.55 12.78
3/14/2021 5:45:00 AM 3.31 37.958 0.049 6.41 9.81 12.78
3/14/2021 6:00:00 AM 3.27 37.886 0.049 6.41 9.28 12.8
3/14/2021 6:15:00 AM 3.23 37.814 0.049 6.41 9.1 12.81
3/14/2021 6:30:00 AM 3.19 37.742 0.049 6.38 8.97 12.83
3/14/2021 6:45:00 AM 3.16 37.688 0.049 6.39 9.08 12.84
3/14/2021 7:00:00 AM 3.13 37.634 0.049 6.4 8.81 12.86
3/14/2021 7:15:00 AM 3.1 37.58 0.049 6.42 8.85 12.87
3/14/2021 7:30:00 AM 3.08 37.544 0.049 6.42 8.67 12.89
3/14/2021 7:45:00 AM 3.07 37.526 0.05 6.42 8.61 12.91
3/14/2021 8:00:00 AM 3.07 37.526 0.05 6.43 8.74 12.93
3/14/2021 8:15:00 AM 3.07 37.526 0.05 6.43 8.78 12.94
3/14/2021 8:30:00 AM 3.09 37.562 0.05 6.44 8.16 12.96
3/14/2021 8:45:00 AM 3.11 37.598 0.05 6.46 8.41 12.97
3/14/2021 9:00:00 AM 3.13 37.634 0.05 6.45 8.29 12.98
3/14/2021 10:15:00 AM 3.16 37.688 0.05 6.45 8.49 12.98
3/14/2021 10:30:00 AM 3.21 37.778 0.05 6.46 8.21 12.99
3/14/2021 10:45:00 AM 3.26 37.868 0.05 6.45 8.06 12.99
3/14/2021 11:00:00 AM 3.33 37.994 0.05 6.47 7.81 12.99
3/14/2021 11:15:00 AM 3.42 38.156 0.05 6.49 7.98 12.98
3/14/2021 11:30:00 AM 3.51 38.318 0.05 6.49 8.14 12.97
3/14/2021 11:45:00 AM 3.6 38.48 0.05 6.51 7.7 12.96
3/14/2021 12:00:00 PM 3.72 38.696 0.05 6.52 7.99 12.93
3/14/2021 12:15:00 PM 3.82 38.876 0.05 6.51 8.39 12.91
3/14/2021 12:30:00 PM 3.99 39.182 0.05 6.52 7.68 12.88
3/14/2021 12:45:00 PM 4.13 39.434 0.05 6.53 7.65 12.84
3/14/2021 1:00:00 PM 4.21 39.578 0.05 6.52 7.88 12.82
3/14/2021 1:15:00 PM 4.35 39.83 0.05 6.52 7.96 12.79
3/14/2021 1:30:00 PM 4.47 40.046 0.05 6.55 8.09 12.75
3/14/2021 1:45:00 PM 4.6 40.28 0.05 6.55 7.61 12.72
3/14/2021 2:00:00 PM 4.72 40.496 0.05 6.55 7.73 12.69
3/14/2021 2:15:00 PM 4.86 40.748 0.05 6.55 7.88 12.65
3/14/2021 2:30:00 PM 5.02 41.036 0.05 6.57 7.63 12.62
3/14/2021 2:45:00 PM 5.14 41.252 0.05 6.55 7.79 12.57
3/14/2021 3:00:00 PM 5.29 41.522 0.05 6.54 7.63 12.53
3/14/2021 3:15:00 PM 5.39 41.702 0.05 6.52 8.17 12.5
3/14/2021 3:30:00 PM 5.42 41.756 0.05 6.52 7.75 12.47
3/14/2021 3:45:00 PM 5.45 41.81 0.05 6.49 7.79 12.44
3/14/2021 4:00:00 PM 5.48 41.864 0.05 6.49 7.56 12.42
3/14/2021 4:15:00 PM 5.54 41.972 0.05 6.5 7.99 12.39
3/14/2021 4:30:00 PM 5.66 42.188 0.05 6.52 7.63 12.36
3/14/2021 4:45:00 PM 5.79 42.422 0.05 6.51 7.91 12.33
3/14/2021 5:00:00 PM 5.87 42.566 0.05 6.53 7.89 12.31
3/14/2021 5:15:00 PM 5.86 42.548 0.05 6.52 7.83 12.29
3/14/2021 5:30:00 PM 5.83 42.494 0.051 6.51 7.66 12.29
3/14/2021 5:45:00 PM 5.77 42.386 0.051 6.5 7.51 12.28
3/14/2021 6:00:00 PM 5.71 42.278 0.051 6.5 7.31 12.27
3/14/2021 6:15:00 PM 5.64 42.152 0.051 6.49 7.78 12.27
3/14/2021 6:30:00 PM 5.54 41.972 0.051 6.49 7.59 12.27
3/14/2021 6:45:00 PM 5.44 41.792 0.051 6.47 7.32 12.27
3/14/2021 7:00:00 PM 5.34 41.612 0.051 6.46 7.03 12.27
3/14/2021 7:15:00 PM 5.25 41.45 0.051 6.44 7.29 12.28
3/14/2021 7:30:00 PM 5.14 41.252 0.051 6.44 7.22 12.29
3/14/2021 7:45:00 PM 5.05 41.09 0.051 6.41 7.07 12.31
3/14/2021 8:00:00 PM 4.96 40.928 0.051 6.42 7.11 12.31
3/14/2021 8:15:00 PM 4.89 40.802 0.051 6.41 7.18 12.33
3/14/2021 8:30:00 PM 4.84 40.712 0.051 6.41 7.53 12.33
3/14/2021 8:45:00 PM 4.8 40.64 0.051 6.4 7.43 12.33
3/14/2021 9:00:00 PM 4.76 40.568 0.051 6.41 7.28 12.34
3/14/2021 9:15:00 PM 4.72 40.496 0.052 6.41 7.24 12.35
3/14/2021 9:30:00 PM 4.66 40.388 0.052 6.37 7.55 12.36
3/14/2021 9:45:00 PM 4.64 40.352 0.052 6.4 7 12.36
3/14/2021 10:00:00 PM 4.62 40.316 0.052 6.41 7.52 12.38
3/14/2021 10:15:00 PM 4.56 40.208 0.052 6.42 7.04 12.39
3/14/2021 10:30:00 PM 4.49 40.082 0.052 6.41 7.33 12.41
3/14/2021 10:45:00 PM 4.41 39.938 0.052 6.41 7.46 12.44
3/14/2021 11:00:00 PM 4.35 39.83 0.052 6.4 7.31 12.46
3/14/2021 11:15:00 PM 4.26 39.668 0.052 6.4 7.27 12.49
3/14/2021 11:30:00 PM 4.21 39.578 0.052 6.4 7.11 12.51
3/14/2021 11:45:00 PM 4.13 39.434 0.052 6.42 7.08 12.54
3/15/2021 12:00:00 AM 4.06 39.308 0.052 6.42 7.17 12.56
3/15/2021 12:15:00 AM 3.97 39.146 0.052 6.41 6.82 12.59
3/15/2021 12:30:00 AM 3.9 39.02 0.052 6.39 6.92 12.62
3/15/2021 12:45:00 AM 3.81 38.858 0.052 6.4 6.98 12.66
3/15/2021 1:00:00 AM 3.72 38.696 0.053 6.39 6.83 12.69
3/15/2021 1:15:00 AM 3.63 38.534 0.053 6.41 7.05 12.72
3/15/2021 1:30:00 AM 3.56 38.408 0.053 6.44 6.99 12.75
3/15/2021 1:45:00 AM 3.47 38.246 0.053 6.44 7.36 12.79
3/15/2021 2:00:00 AM 3.39 38.102 0.053 6.43 6.87 12.82
3/15/2021 2:15:00 AM 3.31 37.958 0.053 6.44 6.94 12.85
3/15/2021 2:30:00 AM 3.23 37.814 0.053 6.44 6.89 12.87
3/15/2021 2:45:00 AM 3.15 37.67 0.053 6.44 7.94 12.91
3/15/2021 3:00:00 AM 3.07 37.526 0.053 6.43 7.58 12.94
3/15/2021 3:15:00 AM 2.99 37.382 0.053 6.43 7.87 12.96
3/15/2021 3:30:00 AM 2.92 37.256 0.053 6.41 7.11 13
3/15/2021 3:45:00 AM 2.83 37.094 0.053 6.39 6.89 13.02
3/15/2021 4:00:00 AM 2.76 36.968 0.053 6.39 7.13 13.05
3/15/2021 4:15:00 AM 2.68 36.824 0.053 6.42 7.35 13.08
3/15/2021 4:30:00 AM 2.62 36.716 0.053 6.43 6.87 13.11
3/15/2021 4:45:00 AM 2.55 36.59 0.054 6.43 6.92 13.13
3/15/2021 5:00:00 AM 2.48 36.464 0.054 6.43 6.84 13.16
3/15/2021 5:15:00 AM 2.42 36.356 0.054 6.43 6.77 13.19
3/15/2021 5:30:00 AM 2.35 36.23 0.054 6.43 6.53 13.21
3/15/2021 5:45:00 AM 2.28 36.104 0.054 6.44 6.58 13.24
3/15/2021 6:00:00 AM 2.22 35.996 0.054 6.43 6.64 13.26
3/15/2021 6:15:00 AM 2.16 35.888 0.054 6.42 6.73 13.28
3/15/2021 6:30:00 AM 2.09 35.762 0.054 6.43 6.54 13.32
3/15/2021 6:45:00 AM 2.03 35.654 0.054 6.42 6.6 13.34
3/15/2021 7:00:00 AM 1.97 35.546 0.054 6.41 6.81 13.37
3/15/2021 7:15:00 AM 1.9 35.42 0.054 6.4 6.61 13.38
3/15/2021 7:30:00 AM 1.84 35.312 0.054 6.4 6.59 13.41
3/15/2021 7:45:00 AM 1.78 35.204 0.054 6.4 6.36 13.44
3/15/2021 8:00:00 AM 1.72 35.096 0.054 6.38 6.8 13.47
3/15/2021 8:15:00 AM 1.67 35.006 0.054 6.4 6.43 13.5
3/15/2021 8:30:00 AM 1.62 34.916 0.055 6.41 6.54 13.54
3/15/2021 8:45:00 AM 1.58 34.844 0.055 6.42 6.11 13.57
3/15/2021 9:00:00 AM 1.54 34.772 0.055 6.43 6.21 13.6
3/15/2021 9:15:00 AM 1.52 34.736 0.055 6.43 6.35 13.63
3/15/2021 9:30:00 AM 1.49 34.682 0.055 6.45 6.04 13.65
3/15/2021 9:45:00 AM 1.48 34.664 0.055 6.45 5.98 13.68
3/15/2021 10:00:00 AM 1.48 34.664 0.055 6.46 6.03 13.7
3/15/2021 10:15:00 AM 1.49 34.682 0.055 6.46 5.89 13.72
3/15/2021 10:30:00 AM 1.51 34.718 0.055 6.46 6.08 13.73
3/15/2021 10:45:00 AM 1.54 34.772 0.055 6.47 5.65 13.74
3/15/2021 11:00:00 AM 1.59 34.862 0.055 6.47 5.74 13.74
3/15/2021 11:15:00 AM 1.66 34.988 0.055 6.48 5.79 13.74
3/15/2021 11:30:00 AM 1.75 35.15 0.055 6.48 5.57 13.74
3/15/2021 11:45:00 AM 1.83 35.294 0.055 6.47 5.73 13.73
3/15/2021 12:00:00 PM 1.94 35.492 0.055 6.5 5.6 13.71
3/15/2021 12:15:00 PM 2.05 35.69 0.055 6.5 6.03 13.7
3/15/2021 12:30:00 PM 2.18 35.924 0.055 6.53 5.55 13.67
3/15/2021 12:45:00 PM 2.33 36.194 0.055 6.53 5.61 13.63
3/15/2021 1:00:00 PM 2.47 36.446 0.055 6.54 5.23 13.59
3/15/2021 1:15:00 PM 2.62 36.716 0.055 6.55 5.35 13.54
3/15/2021 1:30:00 PM 2.76 36.968 0.055 6.56 5.43 13.5
3/15/2021 1:45:00 PM 2.9 37.22 0.055 6.54 5.43 13.46
3/15/2021 2:00:00 PM 3.05 37.49 0.055 6.54 5.45 13.42
3/15/2021 2:15:00 PM 3.17 37.706 0.055 6.55 5.27 13.38
3/15/2021 2:30:00 PM 3.34 38.012 0.055 6.56 5.33 13.34
3/15/2021 2:45:00 PM 3.46 38.228 0.055 6.56 5.36 13.29
3/15/2021 3:00:00 PM 3.55 38.39 0.055 6.56 5.15 13.25
3/15/2021 3:15:00 PM 3.69 38.642 0.055 6.56 5.07 13.2
3/15/2021 3:30:00 PM 3.8 38.84 0.055 6.53 5.28 13.16
3/15/2021 3:45:00 PM 3.91 39.038 0.055 6.52 5.28 13.12
3/15/2021 4:00:00 PM 3.99 39.182 0.055 6.52 5.21 13.08
3/15/2021 4:15:00 PM 4.06 39.308 0.055 6.52 5.24 13.04
3/15/2021 4:30:00 PM 4.13 39.434 0.055 6.53 5.03 13
3/15/2021 4:45:00 PM 4.17 39.506 0.055 6.52 5.1 12.97
3/15/2021 5:00:00 PM 4.2 39.56 0.055 6.52 4.97 12.96
3/15/2021 5:15:00 PM 4.21 39.578 0.055 6.52 5.29 12.93
3/15/2021 5:30:00 PM 4.2 39.56 0.055 6.53 5.04 12.91
3/15/2021 5:45:00 PM 4.18 39.524 0.055 6.5 5 12.9
3/15/2021 6:00:00 PM 4.16 39.488 0.055 6.5 4.79 12.89
3/15/2021 6:15:00 PM 4.12 39.416 0.055 6.49 5.14 12.88
3/15/2021 6:30:00 PM 4.07 39.326 0.055 6.5 4.8 12.87
3/15/2021 6:45:00 PM 4.01 39.218 0.055 6.48 5.11 12.86
3/15/2021 7:00:00 PM 3.95 39.11 0.055 6.47 5.02 12.85
3/15/2021 7:15:00 PM 3.9 39.02 0.055 6.47 4.93 12.83
3/15/2021 7:30:00 PM 3.86 38.948 0.055 6.46 5.08 12.82
3/15/2021 7:45:00 PM 3.81 38.858 0.056 6.45 4.92 12.8
3/15/2021 8:00:00 PM 3.77 38.786 0.056 6.44 4.96 12.79
3/15/2021 8:15:00 PM 3.73 38.714 0.056 6.44 4.92 12.79
3/15/2021 8:30:00 PM 3.69 38.642 0.056 6.46 5.04 12.79
3/15/2021 8:45:00 PM 3.66 38.588 0.056 6.44 5.07 12.79
3/15/2021 9:00:00 PM 3.62 38.516 0.056 6.45 5.02 12.78
3/15/2021 9:15:00 PM 3.59 38.462 0.056 6.45 4.95 12.8
3/15/2021 9:30:00 PM 3.56 38.408 0.056 6.45 5.22 12.79
3/15/2021 9:45:00 PM 3.54 38.372 0.056 6.45 5 12.8
3/15/2021 10:00:00 PM 3.51 38.318 0.056 6.44 5.06 12.81
3/15/2021 10:15:00 PM 3.49 38.282 0.056 6.44 5 12.81
3/15/2021 10:30:00 PM 3.47 38.246 0.057 6.43 5.06 12.81
3/15/2021 10:45:00 PM 3.45 38.21 0.057 6.45 5.05 12.81
3/15/2021 11:00:00 PM 3.43 38.174 0.057 6.45 5.09 12.82
3/15/2021 11:15:00 PM 3.41 38.138 0.057 6.43 5.11 12.83
3/15/2021 11:30:00 PM 3.4 38.12 0.057 6.43 4.99 12.83
3/15/2021 11:45:00 PM 3.37 38.066 0.057 6.46 4.91 12.84
3/16/2021 12:00:00 AM 3.36 38.048 0.057 6.46 4.8 12.84
3/16/2021 12:15:00 AM 3.34 38.012 0.057 6.46 5 12.84
3/16/2021 12:30:00 AM 3.32 37.976 0.057 6.45 4.89 12.86
3/16/2021 12:45:00 AM 3.29 37.922 0.057 6.45 4.89 12.86
3/16/2021 1:00:00 AM 3.26 37.868 0.057 6.46 5.05 12.87
3/16/2021 1:15:00 AM 3.23 37.814 0.057 6.46 4.86 12.88
3/16/2021 1:30:00 AM 3.21 37.778 0.057 6.45 4.93 12.88
3/16/2021 1:45:00 AM 3.18 37.724 0.058 6.45 4.88 12.89
3/16/2021 2:00:00 AM 3.16 37.688 0.058 6.45 4.85 12.9
3/16/2021 2:15:00 AM 3.14 37.652 0.058 6.45 4.9 12.91
3/16/2021 2:30:00 AM 3.11 37.598 0.058 6.45 4.78 12.92
3/16/2021 2:45:00 AM 3.09 37.562 0.058 6.45 4.75 12.93
3/16/2021 3:00:00 AM 3.06 37.508 0.058 6.46 4.72 12.93
3/16/2021 3:15:00 AM 3.04 37.472 0.058 6.45 4.68 12.93
3/16/2021 3:30:00 AM 3.02 37.436 0.058 6.46 4.94 12.95
3/16/2021 3:45:00 AM 3 37.4 0.058 6.45 4.75 12.95
3/16/2021 4:00:00 AM 2.98 37.364 0.058 6.45 4.78 12.96
3/16/2021 4:15:00 AM 2.96 37.328 0.058 6.45 4.78 12.96
3/16/2021 4:30:00 AM 2.94 37.292 0.058 6.46 4.92 12.97
3/16/2021 4:45:00 AM 2.92 37.256 0.058 6.45 4.66 12.97
3/16/2021 5:00:00 AM 2.9 37.22 0.058 6.45 4.7 12.97
3/16/2021 5:15:00 AM 2.88 37.184 0.058 6.46 4.75 12.98
3/16/2021 5:30:00 AM 2.87 37.166 0.058 6.46 4.83 12.98
3/16/2021 5:45:00 AM 2.84 37.112 0.058 6.46 4.68 13
3/16/2021 6:00:00 AM 2.82 37.076 0.058 6.47 4.57 13
3/16/2021 6:15:00 AM 2.8 37.04 0.058 6.46 4.86 13.01
3/16/2021 6:30:00 AM 2.74 36.932 0.058 6.46 4.65 13.02
3/16/2021 6:45:00 AM 2.7 36.86 0.059 6.45 4.58 13.03
3/16/2021 7:00:00 AM 2.68 36.824 0.059 6.45 4.6 13.03
3/16/2021 7:15:00 AM 2.65 36.77 0.059 6.45 4.64 13.04
3/16/2021 7:30:00 AM 2.64 36.752 0.059 6.46 4.55 13.05
3/16/2021 7:45:00 AM 2.63 36.734 0.059 6.47 4.61 13.06
3/16/2021 8:00:00 AM 2.61 36.698 0.059 6.46 4.59 13.07
3/16/2021 8:15:00 AM 2.59 36.662 0.059 6.47 4.41 13.08
3/16/2021 8:30:00 AM 2.58 36.644 0.059 6.47 4.38 13.1
3/16/2021 8:45:00 AM 2.57 36.626 0.059 6.48 4.57 13.11
3/16/2021 9:00:00 AM 2.56 36.608 0.059 6.48 4.59 13.12
3/16/2021 9:15:00 AM 2.56 36.608 0.059 6.49 4.4 13.15
3/16/2021 9:30:00 AM 2.56 36.608 0.059 6.49 4.37 13.16
3/16/2021 9:45:00 AM 2.56 36.608 0.059 6.5 4.48 13.17
3/16/2021 10:00:00 AM 2.55 36.59 0.059 6.49 4.41 13.18
3/16/2021 10:15:00 AM 2.56 36.608 0.059 6.56 4.29 13.19
3/16/2021 10:30:00 AM 2.59 36.662 0.059 6.54 4.31 13.21
3/16/2021 10:45:00 AM 2.62 36.716 0.059 6.51 4.31 13.22
3/16/2021 11:00:00 AM 2.65 36.77 0.059 6.51 4.15 13.23
3/16/2021 11:15:00 AM 2.66 36.788 0.059 6.52 4.36 13.23
3/16/2021 11:30:00 AM 2.68 36.824 0.059 6.52 4.23 13.23
3/16/2021 11:45:00 AM 2.71 36.878 0.059 6.54 4.16 13.23
3/16/2021 12:00:00 PM 2.72 36.896 0.059 6.53 4.3 13.23
3/16/2021 12:15:00 PM 2.75 36.95 0.059 6.53 4.01 13.22
3/16/2021 12:30:00 PM 2.77 36.986 0.059 6.53 4.16 13.22
3/16/2021 12:45:00 PM 2.78 37.004 0.059 6.53 4.22 13.22
3/16/2021 1:00:00 PM 2.82 37.076 0.059 6.55 4.13 13.21
3/16/2021 1:15:00 PM 2.85 37.13 0.059 6.54 4.09 13.2
3/16/2021 1:30:00 PM 2.88 37.184 0.059 6.55 4 13.2
3/16/2021 1:45:00 PM 2.91 37.238 0.059 6.55 4.15 13.19
3/16/2021 2:00:00 PM 2.94 37.292 0.059 6.55 4.16 13.18
3/16/2021 2:15:00 PM 2.98 37.364 0.059 6.55 4.08 13.17
3/16/2021 2:30:00 PM 3 37.4 0.059 6.55 4.02 13.16
3/16/2021 2:45:00 PM 3.03 37.454 0.059 6.55 4.24 13.15
3/16/2021 3:00:00 PM 3.09 37.562 0.059 6.56 4.08 13.14
3/16/2021 3:15:00 PM 3.12 37.616 0.059 6.57 4.13 13.13
3/16/2021 3:30:00 PM 3.16 37.688 0.059 6.57 3.95 13.12
3/16/2021 3:45:00 PM 3.19 37.742 0.059 6.56 3.94 13.11
3/16/2021 4:00:00 PM 3.21 37.778 0.059 6.56 4.03 13.09
3/16/2021 4:15:00 PM 3.22 37.796 0.059 6.56 3.9 13.09
3/16/2021 4:30:00 PM 3.25 37.85 0.059 6.56 3.93 13.08
3/16/2021 4:45:00 PM 3.29 37.922 0.059 6.56 3.95 13.07
3/16/2021 5:00:00 PM 3.33 37.994 0.059 6.56 3.94 13.05
3/16/2021 5:15:00 PM 3.36 38.048 0.059 6.56 3.88 13.05
3/16/2021 5:30:00 PM 3.38 38.084 0.06 6.57 3.94 13.02
3/16/2021 5:45:00 PM 3.41 38.138 0.06 6.56 3.88 13.02
3/16/2021 6:00:00 PM 3.43 38.174 0.06 6.56 3.95 13
3/16/2021 6:15:00 PM 3.44 38.192 0.06 6.55 3.94 12.99
3/16/2021 6:30:00 PM 3.45 38.21 0.06 6.53 3.92 12.97
3/16/2021 6:45:00 PM 3.46 38.228 0.06 6.55 3.83 12.95
3/16/2021 7:00:00 PM 3.47 38.246 0.06 6.55 3.99 12.92
3/16/2021 7:15:00 PM 3.48 38.264 0.06 6.54 3.88 12.9
3/16/2021 7:30:00 PM 3.48 38.264 0.06 6.54 3.99 12.88
3/16/2021 7:45:00 PM 3.48 38.264 0.06 6.53 3.92 12.86
3/16/2021 8:00:00 PM 3.47 38.246 0.06 6.56 3.8 12.84
3/16/2021 8:15:00 PM 3.45 38.21 0.06 6.53 4.06 12.83
3/16/2021 8:30:00 PM 3.43 38.174 0.06 6.55 4.02 12.82
3/16/2021 8:45:00 PM 3.42 38.156 0.06 6.53 4.17 12.82
3/16/2021 9:00:00 PM 3.41 38.138 0.06 6.53 4.07 12.81
3/16/2021 9:15:00 PM 3.4 38.12 0.06 6.54 4.05 12.81
3/16/2021 9:30:00 PM 3.39 38.102 0.06 6.54 4.13 12.81
3/16/2021 9:45:00 PM 3.38 38.084 0.06 6.53 4.04 12.81
3/16/2021 10:00:00 PM 3.37 38.066 0.06 6.54 4 12.81
3/16/2021 10:15:00 PM 3.36 38.048 0.06 6.54 4.06 12.8
3/16/2021 10:30:00 PM 3.35 38.03 0.06 6.52 4 12.81
3/16/2021 10:45:00 PM 3.34 38.012 0.06 6.54 4.13 12.81
3/16/2021 11:00:00 PM 3.33 37.994 0.06 6.53 3.95 12.81
3/16/2021 11:15:00 PM 3.33 37.994 0.06 6.52 3.99 12.81
3/16/2021 11:30:00 PM 3.32 37.976 0.06 6.52 3.94 12.82
3/16/2021 11:45:00 PM 3.31 37.958 0.06 6.52 3.97 12.82
3/17/2021 12:00:00 AM 3.31 37.958 0.06 6.52 3.93 12.82
3/17/2021 12:15:00 AM 3.3 37.94 0.06 6.52 4.02 12.82
3/17/2021 12:30:00 AM 3.29 37.922 0.06 6.53 3.89 12.83
3/17/2021 12:45:00 AM 3.29 37.922 0.061 6.52 3.97 12.82
3/17/2021 1:00:00 AM 3.28 37.904 0.061 6.53 4.04 12.83
3/17/2021 1:15:00 AM 3.27 37.886 0.061 6.53 4.03 12.83
3/17/2021 1:30:00 AM 3.27 37.886 0.061 6.53 4.02 12.83
3/17/2021 1:45:00 AM 3.27 37.886 0.061 6.53 4.13 12.83
3/17/2021 2:00:00 AM 3.27 37.886 0.061 6.52 3.93 12.83
3/17/2021 2:15:00 AM 3.26 37.868 0.061 6.53 4.07 12.83
3/17/2021 2:30:00 AM 3.26 37.868 0.061 6.53 3.97 12.83
3/17/2021 2:45:00 AM 3.25 37.85 0.061 6.51 4 12.83
3/17/2021 3:00:00 AM 3.25 37.85 0.061 6.5 3.82 12.84
3/17/2021 3:15:00 AM 3.24 37.832 0.061 6.52 3.9 12.83
3/17/2021 3:30:00 AM 3.24 37.832 0.061 6.52 3.91 12.84
3/17/2021 3:45:00 AM 3.23 37.814 0.061 6.51 3.84 12.84
3/17/2021 4:00:00 AM 3.22 37.796 0.061 6.54 3.84 12.85
3/17/2021 4:15:00 AM 3.22 37.796 0.061 6.52 3.82 12.84
3/17/2021 4:30:00 AM 3.21 37.778 0.061 6.52 3.97 12.85
3/17/2021 4:45:00 AM 3.21 37.778 0.061 6.53 3.73 12.85
3/17/2021 5:00:00 AM 3.21 37.778 0.061 6.53 3.69 12.84
3/17/2021 5:15:00 AM 3.21 37.778 0.061 6.55 3.84 12.85
3/17/2021 5:30:00 AM 3.21 37.778 0.061 6.53 3.88 12.85
3/17/2021 5:45:00 AM 3.21 37.778 0.061 6.52 3.79 12.85
3/17/2021 6:00:00 AM 3.2 37.76 0.061 6.54 3.75 12.86
3/17/2021 6:15:00 AM 3.2 37.76 0.061 6.55 3.83 12.86
3/17/2021 6:30:00 AM 3.2 37.76 0.062 6.54 3.71 12.86
3/17/2021 6:45:00 AM 3.2 37.76 0.062 6.54 3.74 12.87
3/17/2021 7:00:00 AM 3.2 37.76 0.062 6.54 3.76 12.86
3/17/2021 7:15:00 AM 3.2 37.76 0.062 6.53 3.63 12.86
3/17/2021 7:30:00 AM 3.2 37.76 0.062 6.54 3.7 12.87
3/17/2021 7:45:00 AM 3.2 37.76 0.062 6.54 3.61 12.87
3/17/2021 8:00:00 AM 3.21 37.778 0.062 6.54 3.7 12.88
3/17/2021 8:15:00 AM 3.21 37.778 0.062 6.55 3.64 12.89
3/17/2021 8:30:00 AM 3.23 37.814 0.062 6.55 3.61 12.9
3/17/2021 8:45:00 AM 3.24 37.832 0.062 6.55 3.63 12.92
3/17/2021 9:00:00 AM 3.25 37.85 0.062 6.56 3.61 12.94
3/17/2021 9:15:00 AM 3.28 37.904 0.062 6.57 3.53 12.95
3/17/2021 9:30:00 AM 3.3 37.94 0.062 6.58 3.62 12.95
3/17/2021 9:45:00 AM 3.33 37.994 0.062 6.58 3.53 12.97
3/17/2021 10:00:00 AM 3.36 38.048 0.062 6.59 3.52 12.98
3/17/2021 10:15:00 AM 3.4 38.12 0.062 6.6 3.78 12.99
3/17/2021 10:30:00 AM 3.45 38.21 0.062 6.6 3.53 12.99
3/17/2021 10:45:00 AM 3.49 38.282 0.062 6.61 3.57 12.99
3/17/2021 11:00:00 AM 3.55 38.39 0.062 6.61 3.42 12.99
3/17/2021 11:15:00 AM 3.62 38.516 0.062 6.61 3.61 12.98
3/17/2021 11:30:00 AM 3.69 38.642 0.062 6.61 3.47 12.98
3/17/2021 11:45:00 AM 3.79 38.822 0.062 6.63 3.52 12.97
3/17/2021 12:00:00 PM 3.89 39.002 0.062 6.63 3.51 12.95
3/17/2021 12:15:00 PM 4 39.2 0.062 6.64 3.48 12.93
3/17/2021 12:30:00 PM 4.12 39.416 0.062 6.65 3.41 12.9
3/17/2021 12:45:00 PM 4.27 39.686 0.062 6.65 3.45 12.88
3/17/2021 1:00:00 PM 4.39 39.902 0.062 6.65 3.51 12.85
3/17/2021 1:15:00 PM 4.55 40.19 0.062 6.66 3.54 12.81
3/17/2021 1:30:00 PM 4.73 40.514 0.062 6.67 3.47 12.76
3/17/2021 1:45:00 PM 4.91 40.838 0.062 6.67 3.56 12.72
3/17/2021 2:00:00 PM 5.09 41.162 0.062 6.67 3.54 12.66
3/17/2021 2:15:00 PM 5.27 41.486 0.062 6.68 3.43 12.6
3/17/2021 2:30:00 PM 5.45 41.81 0.062 6.69 3.55 12.56
3/17/2021 2:45:00 PM 5.62 42.116 0.062 6.69 3.51 12.5
3/17/2021 3:00:00 PM 5.8 42.44 0.062 6.69 3.44 12.44
3/17/2021 3:15:00 PM 5.96 42.728 0.062 6.7 3.46 12.39
3/17/2021 3:30:00 PM 6.12 43.016 0.062 6.7 3.58 12.34
3/17/2021 3:45:00 PM 6.28 43.304 0.062 6.71 3.63 12.29
3/17/2021 4:00:00 PM 6.43 43.574 0.062 6.71 3.49 12.24
3/17/2021 4:15:00 PM 6.56 43.808 0.062 6.71 3.47 12.19
3/17/2021 4:30:00 PM 6.69 44.042 0.062 6.71 3.58 12.14
3/17/2021 4:45:00 PM 6.81 44.258 0.062 6.71 3.66 12.09
3/17/2021 5:00:00 PM 6.9 44.42 0.062 6.71 3.84 12.05
3/17/2021 5:15:00 PM 6.97 44.546 0.062 6.69 3.71 12.01
3/17/2021 5:30:00 PM 7.01 44.618 0.062 6.69 3.8 11.98
3/17/2021 5:45:00 PM 7.03 44.654 0.062 6.68 3.65 11.95
3/17/2021 6:00:00 PM 7.03 44.654 0.062 6.68 3.74 11.93
3/17/2021 6:15:00 PM 7 44.6 0.062 6.67 3.73 11.91
3/17/2021 6:30:00 PM 6.97 44.546 0.062 6.66 3.6 11.89
3/17/2021 6:45:00 PM 6.92 44.456 0.062 6.65 3.78 11.87
3/17/2021 7:00:00 PM 6.85 44.33 0.062 6.63 3.91 11.85
3/17/2021 7:15:00 PM 6.78 44.204 0.062 6.63 4.31 11.84
3/17/2021 7:30:00 PM 6.71 44.078 0.062 6.62 4.26 11.81
3/17/2021 7:45:00 PM 6.65 43.97 0.062 6.6 4.27 11.8
3/17/2021 8:00:00 PM 6.61 43.898 0.062 6.6 4.11 11.78
3/17/2021 8:15:00 PM 6.56 43.808 0.062 6.59 4.24 11.77
3/17/2021 8:30:00 PM 6.51 43.718 0.062 6.58 4.17 11.77
3/17/2021 8:45:00 PM 6.46 43.628 0.062 6.57 4.11 11.77
3/17/2021 9:00:00 PM 6.42 43.556 0.062 6.57 4.06 11.77
3/17/2021 9:15:00 PM 6.37 43.466 0.062 6.52 3.91 11.77
3/17/2021 9:30:00 PM 6.33 43.394 0.063 6.54 4.07 11.78
3/17/2021 9:45:00 PM 6.28 43.304 0.063 6.56 4.2 11.78
3/17/2021 10:00:00 PM 6.24 43.232 0.063 6.55 4.1 11.79
3/17/2021 10:15:00 PM 6.19 43.142 0.063 6.55 3.94 11.8
3/17/2021 10:30:00 PM 6.14 43.052 0.063 6.53 4.01 11.82
3/17/2021 10:45:00 PM 6.09 42.962 0.063 6.53 4.04 11.83
3/17/2021 11:00:00 PM 6.04 42.872 0.063 6.52 3.89 11.83
3/17/2021 11:15:00 PM 5.99 42.782 0.063 6.53 4.07 11.85
3/17/2021 11:30:00 PM 5.94 42.692 0.063 6.54 4.02 11.86
3/17/2021 11:45:00 PM 5.89 42.602 0.063 6.54 4.08 11.88
3/18/2021 12:00:00 AM 5.84 42.512 0.063 6.53 3.89 11.89
3/18/2021 12:15:00 AM 5.79 42.422 0.063 6.53 3.9 11.9
3/18/2021 12:30:00 AM 5.74 42.332 0.063 6.54 3.95 11.91
3/18/2021 12:45:00 AM 5.71 42.278 0.063 6.53 3.9 11.93
3/18/2021 1:00:00 AM 5.67 42.206 0.063 6.53 3.88 11.94
3/18/2021 1:15:00 AM 5.64 42.152 0.063 6.54 3.86 11.95
3/18/2021 1:30:00 AM 5.61 42.098 0.063 6.53 3.86 11.96
3/18/2021 1:45:00 AM 5.59 42.062 0.063 6.55 3.91 11.97
3/18/2021 2:00:00 AM 5.56 42.008 0.063 6.54 3.99 11.98
3/18/2021 2:15:00 AM 5.55 41.99 0.063 6.55 3.9 11.99
3/18/2021 2:30:00 AM 5.52 41.936 0.063 6.53 3.85 12
3/18/2021 2:45:00 AM 5.5 41.9 0.063 6.55 3.81 12.01
3/18/2021 3:00:00 AM 5.48 41.864 0.063 6.53 3.85 12.02
3/18/2021 3:15:00 AM 5.45 41.81 0.063 6.56 3.67 12.02
3/18/2021 3:30:00 AM 5.43 41.774 0.063 6.57 3.64 12.03
3/18/2021 3:45:00 AM 5.4 41.72 0.063 6.57 3.52 12.04
3/18/2021 4:00:00 AM 5.38 41.684 0.063 6.57 3.63 12.05
3/18/2021 4:15:00 AM 5.36 41.648 0.063 6.57 3.56 12.06
3/18/2021 4:30:00 AM 5.34 41.612 0.063 6.57 3.46 12.06
3/18/2021 4:45:00 AM 5.32 41.576 0.063 6.57 3.59 12.07
3/18/2021 5:00:00 AM 5.3 41.54 0.063 6.57 3.51 12.08
3/18/2021 5:15:00 AM 5.27 41.486 0.063 6.57 3.73 12.08
3/18/2021 5:30:00 AM 5.25 41.45 0.063 6.57 3.62 12.1
3/18/2021 5:45:00 AM 5.22 41.396 0.063 6.58 3.71 12.11
3/18/2021 6:00:00 AM 5.2 41.36 0.063 6.57 3.62 12.12
3/18/2021 6:15:00 AM 5.17 41.306 0.063 6.57 3.62 12.12
3/18/2021 6:30:00 AM 5.15 41.27 0.064 6.57 3.73 12.13
3/18/2021 6:45:00 AM 5.13 41.234 0.064 6.57 3.74 12.13
3/18/2021 7:00:00 AM 5.11 41.198 0.064 6.58 3.71 12.13
3/18/2021 7:15:00 AM 5.09 41.162 0.064 6.57 3.74 12.14
3/18/2021 7:30:00 AM 5.07 41.126 0.064 6.57 4.02 12.15
3/18/2021 7:45:00 AM 5.05 41.09 0.064 6.57 4.1 12.16
3/18/2021 8:00:00 AM 5.03 41.054 0.064 6.57 4.2 12.17
3/18/2021 8:15:00 AM 5.01 41.018 0.064 6.58 4.18 12.18
3/18/2021 8:30:00 AM 5 41 0.064 6.59 4.19 12.18
3/18/2021 8:45:00 AM 4.99 40.982 0.064 6.59 4.17 12.2
3/18/2021 9:00:00 AM 4.98 40.964 0.064 6.59 3.99 12.22
3/18/2021 9:15:00 AM 4.97 40.946 0.064 6.6 3.99 12.23
3/18/2021 9:30:00 AM 4.97 40.946 0.064 6.59 4.11 12.25
3/18/2021 9:45:00 AM 4.97 40.946 0.064 6.6 4.25 12.25
3/18/2021 10:00:00 AM 4.97 40.946 0.064 6.61 4.35 12.28
3/18/2021 10:15:00 AM 4.98 40.964 0.064 6.61 4.02 12.28
3/18/2021 10:30:00 AM 4.99 40.982 0.064 6.62 4.27 12.31
3/18/2021 10:45:00 AM 5 41 0.064 6.62 4.23 12.32
3/18/2021 11:00:00 AM 5.01 41.018 0.064 6.63 4.17 12.33
3/18/2021 11:15:00 AM 5.02 41.036 0.064 6.64 4.55 12.32
3/18/2021 11:30:00 AM 5.03 41.054 0.064 6.64 4.5 12.34
3/18/2021 11:45:00 AM 5.04 41.072 0.064 6.64 4.78 12.34
3/18/2021 12:00:00 PM 5.04 41.072 0.064 6.64 5.04 12.34
3/18/2021 12:15:00 PM 5.06 41.108 0.064 6.64 5.2 12.34
3/18/2021 12:30:00 PM 5.09 41.162 0.064 6.65 5.99 12.34
3/18/2021 12:45:00 PM 5.13 41.234 0.064 6.65 6.14 12.35
3/18/2021 1:00:00 PM 5.14 41.252 0.064 6.65 6.04 12.35
3/18/2021 1:15:00 PM 5.17 41.306 0.065 6.65 6.05 12.34
3/18/2021 1:30:00 PM 5.19 41.342 0.065 6.65 6.25 12.34
3/18/2021 1:45:00 PM 5.22 41.396 0.065 6.65 6.36 12.33
3/18/2021 2:00:00 PM 5.23 41.414 0.065 6.65 6.42 12.33
3/18/2021 2:15:00 PM 5.25 41.45 0.065 6.65 6.85 12.32
3/18/2021 2:30:00 PM 5.27 41.486 0.065 6.65 6.91 12.32
3/18/2021 2:45:00 PM 5.28 41.504 0.065 6.66 7.35 12.31
3/18/2021 3:00:00 PM 5.29 41.522 0.065 6.65 7.97 12.3
3/18/2021 3:15:00 PM 5.29 41.522 0.065 6.65 8.21 12.29
3/18/2021 3:30:00 PM 5.3 41.54 0.065 6.65 8.46 12.27
3/18/2021 3:45:00 PM 5.29 41.522 0.065 6.64 8.92 12.26
3/18/2021 4:00:00 PM 5.29 41.522 0.065 6.64 9.02 12.25
3/18/2021 4:15:00 PM 5.29 41.522 0.066 6.64 9.33 12.25
3/18/2021 4:30:00 PM 5.28 41.504 0.066 6.64 10.14 12.24
3/18/2021 4:45:00 PM 5.3 41.54 0.066 6.64 11.07 12.25
3/18/2021 5:00:00 PM 5.28 41.504 0.067 6.63 12.06 12.23
3/18/2021 5:15:00 PM 5.27 41.486 0.067 6.62 13.64 12.22
3/18/2021 5:30:00 PM 5.25 41.45 0.068 6.62 14.01 12.21
3/18/2021 5:45:00 PM 5.23 41.414 0.068 6.61 14.08 12.2
3/18/2021 6:00:00 PM 5.2 41.36 0.069 6.6 15.44 12.19
3/18/2021 6:15:00 PM 5.18 41.324 0.069 6.59 17.01 12.18
3/18/2021 6:30:00 PM 5.15 41.27 0.07 6.58 17.35 12.18
3/18/2021 6:45:00 PM 5.14 41.252 0.07 6.58 20.6 12.17
3/18/2021 7:00:00 PM 5.12 41.216 0.07 6.57 18 12.17
3/18/2021 7:15:00 PM 5.1 41.18 0.071 6.57 22.46 12.18
3/18/2021 7:30:00 PM 5.08 41.144 0.071 6.56 22.69 12.18
3/18/2021 7:45:00 PM 5.06 41.108 0.072 6.55 29.96 12.17
3/18/2021 8:00:00 PM 5.03 41.054 0.073 6.55 24.84 12.19
3/18/2021 8:15:00 PM 5.01 41.018 0.074 6.56 25.46 12.19
3/18/2021 8:30:00 PM 4.98 40.964 0.075 6.56 25.93 12.2
3/18/2021 8:45:00 PM 4.94 40.892 0.076 6.58 28.96 12.21
3/18/2021 9:00:00 PM 4.9 40.82 0.077 6.58 29.89 12.22
3/18/2021 9:15:00 PM 4.87 40.766 0.078 6.57 32.09 12.22
3/18/2021 9:30:00 PM 4.83 40.694 0.079 6.58 31.56 12.24
3/18/2021 9:45:00 PM 4.79 40.622 0.08 6.6 33.81 12.26
3/18/2021 10:00:00 PM 4.75 40.55 0.081 6.58 28.98 12.25
3/18/2021 10:15:00 PM 4.72 40.496 0.081 6.58 35.86 12.28
3/18/2021 10:30:00 PM 4.68 40.424 0.082 6.58 33.18 12.29
3/18/2021 10:45:00 PM 4.64 40.352 0.082 6.6 45.14 12.3
3/18/2021 11:00:00 PM 4.6 40.28 0.082 6.59 33.92 12.32
3/18/2021 11:15:00 PM 4.56 40.208 0.083 6.59 39.93 12.33
3/18/2021 11:30:00 PM 4.52 40.136 0.083 6.6 33.82 12.34
3/18/2021 11:45:00 PM 4.48 40.064 0.083 6.59 32.23 12.35
3/19/2021 12:00:00 AM 4.44 39.992 0.083 6.59 31.39 12.36
3/19/2021 12:15:00 AM 4.4 39.92 0.084 6.58 31.47 12.37
3/19/2021 12:30:00 AM 4.36 39.848 0.084 6.58 31.1 12.39
3/19/2021 12:45:00 AM 4.32 39.776 0.084 6.59 53.57 12.41
3/19/2021 1:00:00 AM 4.27 39.686 0.085 6.62 29.24 12.42
3/19/2021 1:15:00 AM 4.23 39.614 0.085 6.61 25.32 12.43
3/19/2021 1:30:00 AM 4.19 39.542 0.085 6.62 32.6 12.45
3/19/2021 1:45:00 AM 4.13 39.434 0.086 6.62 28.84 12.46
3/19/2021 2:00:00 AM 4.07 39.326 0.086 6.62 24.53 12.48
3/19/2021 2:15:00 AM 4.02 39.236 0.086 6.62 26.97 12.49
3/19/2021 2:30:00 AM 3.96 39.128 0.086 6.61 25.48 12.51
3/19/2021 2:45:00 AM 3.9 39.02 0.086 6.62 25.25 12.54
3/19/2021 3:00:00 AM 3.84 38.912 0.086 6.61 22.09 12.55
3/19/2021 3:15:00 AM 3.79 38.822 0.086 6.61 22.94 12.57
3/19/2021 3:30:00 AM 3.73 38.714 0.085 6.61 20.79 12.59
3/19/2021 3:45:00 AM 3.66 38.588 0.085 6.61 20.38 12.62
3/19/2021 4:00:00 AM 3.61 38.498 0.085 6.62 22.08 12.63
3/19/2021 4:15:00 AM 3.54 38.372 0.085 6.62 15.4 12.65
3/19/2021 4:30:00 AM 3.47 38.246 0.084 6.61 17.98 12.68
3/19/2021 4:45:00 AM 3.41 38.138 0.084 6.61 17.28 12.7
3/19/2021 5:00:00 AM 3.36 38.048 0.083 6.61 16.61 12.73
3/19/2021 5:15:00 AM 3.31 37.958 0.083 6.61 15.71 12.74
3/19/2021 5:30:00 AM 3.26 37.868 0.082 6.61 15.73 12.76
3/19/2021 5:45:00 AM 3.2 37.76 0.082 6.61 15.24 12.78
3/19/2021 6:00:00 AM 3.14 37.652 0.081 6.61 14.54 12.81
3/19/2021 6:15:00 AM 3.09 37.562 0.081 6.61 13.82 12.82
3/19/2021 6:30:00 AM 3.04 37.472 0.081 6.61 13.01 12.85
3/19/2021 6:45:00 AM 2.98 37.364 0.08 6.61 12.57 12.87
3/19/2021 7:00:00 AM 2.93 37.274 0.079 6.61 12.47 12.89
3/19/2021 7:15:00 AM 2.87 37.166 0.079 6.62 11.66 12.92
3/19/2021 7:30:00 AM 2.81 37.058 0.078 6.61 11.93 12.94
3/19/2021 7:45:00 AM 2.75 36.95 0.078 6.6 11.49 12.97
3/19/2021 8:00:00 AM 2.7 36.86 0.077 6.61 11.02 13
3/19/2021 8:15:00 AM 2.65 36.77 0.077 6.61 10.94 13.03
3/19/2021 8:30:00 AM 2.62 36.716 0.076 6.62 10.39 13.06
3/19/2021 8:45:00 AM 2.59 36.662 0.076 6.62 10.07 13.09
3/19/2021 9:00:00 AM 2.56 36.608 0.075 6.62 9.84 13.12
3/19/2021 9:15:00 AM 2.53 36.554 0.075 6.62 9.66 13.15
3/19/2021 9:30:00 AM 2.51 36.518 0.074 6.62 9.26 13.18
3/19/2021 9:45:00 AM 2.5 36.5 0.074 6.63 9.15 13.21
3/19/2021 10:00:00 AM 2.51 36.518 0.074 6.64 8.89 13.23
3/19/2021 10:15:00 AM 2.53 36.554 0.073 6.64 8.64 13.25
3/19/2021 10:30:00 AM 2.56 36.608 0.073 6.65 8.52 13.27
3/19/2021 10:45:00 AM 2.6 36.68 0.072 6.65 8.29 13.28
3/19/2021 11:00:00 AM 2.66 36.788 0.072 6.66 8.34 13.29
3/19/2021 11:15:00 AM 2.72 36.896 0.071 6.67 7.93 13.3
3/19/2021 11:30:00 AM 2.8 37.04 0.071 6.67 7.88 13.29
3/19/2021 11:45:00 AM 2.89 37.202 0.07 6.68 7.49 13.29
3/19/2021 12:00:00 PM 3 37.4 0.07 6.68 7.49 13.28
3/19/2021 12:15:00 PM 3.11 37.598 0.069 6.69 7.07 13.27
3/19/2021 12:30:00 PM 3.23 37.814 0.069 6.69 6.94 13.25
3/19/2021 12:45:00 PM 3.38 38.084 0.069 6.7 6.85 13.22
3/19/2021 1:00:00 PM 3.51 38.318 0.068 6.7 6.83 13.2
3/19/2021 1:15:00 PM 3.65 38.57 0.068 6.71 6.8 13.16
3/19/2021 1:30:00 PM 3.79 38.822 0.068 6.71 6.7 13.14
3/19/2021 1:45:00 PM 3.93 39.074 0.067 6.72 6.58 13.11
3/19/2021 2:00:00 PM 4.08 39.344 0.067 6.71 6.42 13.06
3/19/2021 2:15:00 PM 4.23 39.614 0.067 6.71 6.48 13.02
3/19/2021 2:30:00 PM 4.37 39.866 0.066 6.72 6.38 12.98
3/19/2021 2:45:00 PM 4.51 40.118 0.066 6.7 6.09 12.94
3/19/2021 3:00:00 PM 4.64 40.352 0.066 6.7 6.09 12.91
3/19/2021 3:15:00 PM 4.76 40.568 0.065 6.71 6.11 12.87
3/19/2021 3:30:00 PM 4.87 40.766 0.065 6.7 5.96 12.83
3/19/2021 3:45:00 PM 4.96 40.928 0.065 6.7 5.81 12.8
3/19/2021 4:00:00 PM 5.05 41.09 0.064 6.7 5.97 12.76
3/19/2021 4:15:00 PM 5.13 41.234 0.064 6.69 5.9 12.73
3/19/2021 4:30:00 PM 5.18 41.324 0.064 6.7 5.9 12.7
3/19/2021 4:45:00 PM 5.22 41.396 0.064 6.68 5.62 12.68
3/19/2021 5:00:00 PM 5.25 41.45 0.063 6.69 5.81 12.66
3/19/2021 5:15:00 PM 5.26 41.468 0.063 6.68 5.62 12.64
3/19/2021 5:30:00 PM 5.26 41.468 0.063 6.67 5.5 12.62
3/19/2021 5:45:00 PM 5.24 41.432 0.063 6.66 5.36 12.6
3/19/2021 6:00:00 PM 5.2 41.36 0.063 6.65 5.9 12.6
3/19/2021 6:15:00 PM 5.14 41.252 0.062 6.65 5.56 12.59
3/19/2021 6:30:00 PM 5.08 41.144 0.062 6.63 5.43 12.58
3/19/2021 6:45:00 PM 5.02 41.036 0.062 6.63 5.56 12.57
3/19/2021 7:00:00 PM 4.96 40.928 0.062 6.62 5.32 12.55
3/19/2021 7:15:00 PM 4.89 40.802 0.062 6.62 5.45 12.55
3/19/2021 7:30:00 PM 4.83 40.694 0.061 6.6 5.34 12.52
3/19/2021 7:45:00 PM 4.78 40.604 0.061 6.59 5.21 12.52
3/19/2021 8:00:00 PM 4.71 40.478 0.061 6.59 5.29 12.53
3/19/2021 8:15:00 PM 4.65 40.37 0.061 6.57 5.37 12.52
3/19/2021 8:30:00 PM 4.6 40.28 0.061 6.56 5.17 12.53
3/19/2021 8:45:00 PM 4.55 40.19 0.061 6.57 5.65 12.53
3/19/2021 9:00:00 PM 4.5 40.1 0.061 6.56 5.37 12.53
3/19/2021 9:15:00 PM 4.45 40.01 0.06 6.56 5.3 12.54
3/19/2021 9:30:00 PM 4.4 39.92 0.06 6.55 5.32 12.54
3/19/2021 9:45:00 PM 4.35 39.83 0.06 6.54 5.34 12.56
3/19/2021 10:00:00 PM 4.3 39.74 0.06 6.55 5.09 12.57
3/19/2021 10:15:00 PM 4.25 39.65 0.06 6.55 5.11 12.58
3/19/2021 10:30:00 PM 4.2 39.56 0.06 6.54 5.24 12.59
3/19/2021 10:45:00 PM 4.15 39.47 0.06 6.54 5.08 12.61
3/19/2021 11:00:00 PM 4.11 39.398 0.06 6.54 5.04 12.62
3/19/2021 11:15:00 PM 4.06 39.308 0.06 6.54 5.19 12.64
3/19/2021 11:30:00 PM 4 39.2 0.06 6.54 5.16 12.66
3/19/2021 11:45:00 PM 3.95 39.11 0.059 6.54 5.07 12.68
3/20/2021 12:00:00 AM 3.89 39.002 0.059 6.54 5.04 12.7
3/20/2021 12:15:00 AM 3.83 38.894 0.059 6.53 5.29 12.72
3/20/2021 12:30:00 AM 3.77 38.786 0.059 6.53 4.84 12.74
3/20/2021 12:45:00 AM 3.71 38.678 0.059 6.54 4.68 12.77
3/20/2021 1:00:00 AM 3.65 38.57 0.059 6.53 4.76 12.79
3/20/2021 1:15:00 AM 3.59 38.462 0.059 6.52 4.87 12.81
3/20/2021 1:30:00 AM 3.53 38.354 0.059 6.53 4.6 12.84
3/20/2021 1:45:00 AM 3.47 38.246 0.059 6.52 4.74 12.86
3/20/2021 2:00:00 AM 3.41 38.138 0.059 6.53 4.64 12.88
3/20/2021 2:15:00 AM 3.35 38.03 0.059 6.53 4.64 12.89
3/20/2021 2:30:00 AM 3.29 37.922 0.059 6.53 4.76 12.92
3/20/2021 2:45:00 AM 3.23 37.814 0.059 6.52 4.63 12.94
3/20/2021 3:00:00 AM 3.18 37.724 0.059 6.52 4.93 12.96
3/20/2021 3:15:00 AM 3.12 37.616 0.059 6.52 4.64 12.98
3/20/2021 3:30:00 AM 3.06 37.508 0.059 6.53 4.57 13.01
3/20/2021 3:45:00 AM 3.01 37.418 0.059 6.52 4.6 13.03
3/20/2021 4:00:00 AM 2.95 37.31 0.058 6.53 4.57 13.06
3/20/2021 4:15:00 AM 2.89 37.202 0.058 6.53 4.62 13.07
3/20/2021 4:30:00 AM 2.84 37.112 0.058 6.52 4.59 13.09
3/20/2021 4:45:00 AM 2.79 37.022 0.058 6.53 4.56 13.11
3/20/2021 5:00:00 AM 2.73 36.914 0.058 6.53 4.53 13.13
3/20/2021 5:15:00 AM 2.68 36.824 0.058 6.53 4.37 13.16
3/20/2021 5:30:00 AM 2.62 36.716 0.058 6.53 4.52 13.18
3/20/2021 5:45:00 AM 2.57 36.626 0.058 6.52 4.37 13.2
3/20/2021 6:00:00 AM 2.51 36.518 0.058 6.52 4.39 13.22
3/20/2021 6:15:00 AM 2.46 36.428 0.058 6.52 4.42 13.25
3/20/2021 6:30:00 AM 2.4 36.32 0.058 6.52 4.46 13.27
3/20/2021 6:45:00 AM 2.35 36.23 0.058 6.52 4.39 13.29
3/20/2021 7:00:00 AM 2.3 36.14 0.058 6.52 4.39 13.31
3/20/2021 7:15:00 AM 2.25 36.05 0.058 6.53 4.39 13.33
3/20/2021 7:30:00 AM 2.2 35.96 0.058 6.52 4.36 13.35
3/20/2021 7:45:00 AM 2.15 35.87 0.058 6.53 4.25 13.39
3/20/2021 8:00:00 AM 2.11 35.798 0.058 6.53 4.33 13.41
3/20/2021 8:15:00 AM 2.07 35.726 0.058 6.53 4.3 13.45
3/20/2021 8:30:00 AM 2.05 35.69 0.058 6.54 4.2 13.47
3/20/2021 8:45:00 AM 2.03 35.654 0.058 6.55 4.21 13.51
3/20/2021 9:00:00 AM 2.03 35.654 0.057 6.56 4.03 13.54
3/20/2021 9:15:00 AM 2.03 35.654 0.057 6.57 4.06 13.55
3/20/2021 9:30:00 AM 2.03 35.654 0.057 6.58 4.11 13.58
3/20/2021 9:45:00 AM 2.05 35.69 0.057 6.58 4 13.59
3/20/2021 10:00:00 AM 2.08 35.744 0.057 6.58 3.97 13.6
3/20/2021 10:15:00 AM 2.12 35.816 0.057 6.59 4 13.62
3/20/2021 10:30:00 AM 2.18 35.924 0.057 6.6 4.02 13.63
3/20/2021 10:45:00 AM 2.25 36.05 0.057 6.61 3.89 13.62
3/20/2021 11:00:00 AM 2.33 36.194 0.057 6.61 3.87 13.63
3/20/2021 11:15:00 AM 2.44 36.392 0.057 6.62 4.05 13.61
3/20/2021 11:30:00 AM 2.57 36.626 0.057 6.62 3.76 13.58
3/20/2021 11:45:00 AM 2.72 36.896 0.057 6.63 3.83 13.56
3/20/2021 12:00:00 PM 2.87 37.166 0.057 6.64 3.79 13.53
3/20/2021 12:15:00 PM 3.04 37.472 0.057 6.65 3.7 13.49
3/20/2021 12:30:00 PM 3.22 37.796 0.057 6.66 3.7 13.45
3/20/2021 12:45:00 PM 3.41 38.138 0.057 6.67 3.83 13.4
3/20/2021 1:00:00 PM 3.6 38.48 0.056 6.67 3.77 13.34
3/20/2021 1:15:00 PM 3.8 38.84 0.056 6.67 3.7 13.29
3/20/2021 1:30:00 PM 3.99 39.182 0.056 6.67 3.68 13.23
3/20/2021 1:45:00 PM 4.19 39.542 0.056 6.68 3.65 13.17
3/20/2021 2:00:00 PM 4.39 39.902 0.056 6.68 3.7 13.11
3/20/2021 2:15:00 PM 4.59 40.262 0.056 6.68 3.63 13.06
3/20/2021 2:30:00 PM 4.78 40.604 0.056 6.68 3.77 13
3/20/2021 2:45:00 PM 4.96 40.928 0.056 6.69 3.67 12.95
3/20/2021 3:00:00 PM 5.14 41.252 0.056 6.69 3.78 12.88
3/20/2021 3:15:00 PM 5.3 41.54 0.056 6.69 3.75 12.83
3/20/2021 3:30:00 PM 5.46 41.828 0.056 6.69 3.93 12.76
3/20/2021 3:45:00 PM 5.61 42.098 0.056 6.69 3.61 12.71
3/20/2021 4:00:00 PM 5.74 42.332 0.056 6.69 3.77 12.66
3/20/2021 4:15:00 PM 5.86 42.548 0.056 6.68 3.65 12.61
3/20/2021 4:30:00 PM 5.96 42.728 0.056 6.69 3.74 12.57
3/20/2021 4:45:00 PM 6.04 42.872 0.056 6.68 3.75 12.53
3/20/2021 5:00:00 PM 6.1 42.98 0.056 6.68 3.57 12.49
3/20/2021 5:15:00 PM 6.14 43.052 0.056 6.66 3.57 12.45
3/20/2021 5:30:00 PM 6.16 43.088 0.056 6.66 3.62 12.43
3/20/2021 5:45:00 PM 6.17 43.106 0.056 6.66 3.65 12.41
3/20/2021 6:00:00 PM 6.16 43.088 0.056 6.65 3.68 12.37
3/20/2021 6:15:00 PM 6.13 43.034 0.055 6.64 3.67 12.36
3/20/2021 6:30:00 PM 6.09 42.962 0.055 6.64 3.6 12.34
3/20/2021 6:45:00 PM 6.04 42.872 0.055 6.62 3.77 12.32
3/20/2021 7:00:00 PM 5.99 42.782 0.055 6.61 3.55 12.29
3/20/2021 7:15:00 PM 5.94 42.692 0.055 6.61 3.67 12.27
3/20/2021 7:30:00 PM 5.89 42.602 0.055 6.6 3.68 12.25
3/20/2021 7:45:00 PM 5.84 42.512 0.055 6.59 3.66 12.23
3/20/2021 8:00:00 PM 5.79 42.422 0.055 6.58 3.74 12.22
3/20/2021 8:15:00 PM 5.74 42.332 0.055 6.57 3.79 12.21
3/20/2021 8:30:00 PM 5.69 42.242 0.055 6.57 3.78 12.21
3/20/2021 8:45:00 PM 5.64 42.152 0.055 6.56 3.85 12.21
3/20/2021 9:00:00 PM 5.6 42.08 0.055 6.54 3.89 12.2
3/20/2021 9:15:00 PM 5.55 41.99 0.055 6.54 3.8 12.2
3/20/2021 9:30:00 PM 5.51 41.918 0.056 6.53 3.84 12.21
3/20/2021 9:45:00 PM 5.46 41.828 0.056 6.53 3.79 12.22
3/20/2021 10:00:00 PM 5.41 41.738 0.056 6.53 3.91 12.23
3/20/2021 10:15:00 PM 5.36 41.648 0.056 6.53 3.88 12.23
3/20/2021 10:30:00 PM 5.31 41.558 0.056 6.53 3.85 12.25
3/20/2021 10:45:00 PM 5.27 41.486 0.056 6.53 3.83 12.26
3/20/2021 11:00:00 PM 5.22 41.396 0.056 6.53 3.94 12.27
3/20/2021 11:15:00 PM 5.17 41.306 0.056 6.53 3.81 12.28
3/20/2021 11:30:00 PM 5.12 41.216 0.056 6.52 3.81 12.29
3/20/2021 11:45:00 PM 5.07 41.126 0.056 6.52 3.91 12.31
3/21/2021 12:00:00 AM 5.02 41.036 0.056 6.53 3.91 12.33
3/21/2021 12:15:00 AM 4.96 40.928 0.056 6.52 3.78 12.35
3/21/2021 12:30:00 AM 4.9 40.82 0.056 6.52 3.9 12.36
3/21/2021 12:45:00 AM 4.84 40.712 0.056 6.52 3.87 12.38
3/21/2021 1:00:00 AM 4.78 40.604 0.056 6.52 3.77 12.39
3/21/2021 1:15:00 AM 4.72 40.496 0.056 6.51 3.8 12.43
3/21/2021 1:30:00 AM 4.65 40.37 0.056 6.51 3.76 12.46
3/21/2021 1:45:00 AM 4.59 40.262 0.056 6.51 3.76 12.48
3/21/2021 2:00:00 AM 4.52 40.136 0.056 6.51 3.83 12.48
3/21/2021 2:15:00 AM 4.45 40.01 0.056 6.51 3.74 12.52
3/21/2021 2:30:00 AM 4.39 39.902 0.056 6.51 3.85 12.54
3/21/2021 2:45:00 AM 4.32 39.776 0.056 6.51 3.88 12.56
3/21/2021 3:00:00 AM 4.26 39.668 0.056 6.52 3.75 12.58
3/21/2021 3:15:00 AM 4.19 39.542 0.056 6.51 3.75 12.6
3/21/2021 3:30:00 AM 4.12 39.416 0.056 6.52 3.94 12.63
3/21/2021 3:45:00 AM 4.05 39.29 0.056 6.52 3.89 12.65
3/21/2021 4:00:00 AM 3.99 39.182 0.056 6.51 3.86 12.67
3/21/2021 4:15:00 AM 3.92 39.056 0.056 6.52 3.73 12.7
3/21/2021 4:30:00 AM 3.85 38.93 0.056 6.51 3.78 12.72
3/21/2021 4:45:00 AM 3.79 38.822 0.056 6.52 3.64 12.75
3/21/2021 5:00:00 AM 3.72 38.696 0.056 6.52 3.99 12.78
3/21/2021 5:15:00 AM 3.65 38.57 0.056 6.52 3.87 12.8
3/21/2021 5:30:00 AM 3.59 38.462 0.056 6.51 3.8 12.82
3/21/2021 5:45:00 AM 3.52 38.336 0.056 6.52 3.75 12.85
3/21/2021 6:00:00 AM 3.46 38.228 0.056 6.52 3.77 12.86
3/21/2021 6:15:00 AM 3.39 38.102 0.056 6.52 3.75 12.89
3/21/2021 6:30:00 AM 3.33 37.994 0.056 6.52 3.79 12.92
3/21/2021 6:45:00 AM 3.26 37.868 0.056 6.52 3.69 12.94
3/21/2021 7:00:00 AM 3.2 37.76 0.056 6.52 3.69 12.97
3/21/2021 7:15:00 AM 3.13 37.634 0.057 6.51 3.75 12.99
3/21/2021 7:30:00 AM 3.07 37.526 0.057 6.52 3.84 13.02
3/21/2021 7:45:00 AM 3.01 37.418 0.057 6.53 3.85 13.06
3/21/2021 8:00:00 AM 2.95 37.31 0.057 6.53 3.62 13.09
3/21/2021 8:15:00 AM 2.9 37.22 0.056 6.53 3.7 13.13
3/21/2021 8:30:00 AM 2.87 37.166 0.057 6.54 3.63 13.16
3/21/2021 8:45:00 AM 2.84 37.112 0.057 6.55 3.67 13.2
3/21/2021 9:00:00 AM 2.82 37.076 0.057 6.56 3.54 13.23
3/21/2021 9:15:00 AM 2.81 37.058 0.057 6.56 3.68 13.26
3/21/2021 9:30:00 AM 2.82 37.076 0.057 6.58 3.58 13.29
3/21/2021 9:45:00 AM 2.83 37.094 0.057 6.58 3.58 13.3
3/21/2021 10:00:00 AM 2.85 37.13 0.057 6.6 3.41 13.32
3/21/2021 10:15:00 AM 2.9 37.22 0.057 6.6 3.61 13.34
3/21/2021 10:30:00 AM 2.95 37.31 0.057 6.61 3.47 13.35
3/21/2021 10:45:00 AM 3.02 37.436 0.057 6.63 3.46 13.35
3/21/2021 11:00:00 AM 3.11 37.598 0.057 6.63 3.45 13.34
3/21/2021 11:15:00 AM 3.21 37.778 0.056 6.64 3.37 13.33
3/21/2021 11:30:00 AM 3.34 38.012 0.056 6.65 3.35 13.32
3/21/2021 11:45:00 AM 3.49 38.282 0.056 6.66 3.28 13.29
3/21/2021 12:00:00 PM 3.66 38.588 0.056 6.67 3.32 13.26
3/21/2021 12:15:00 PM 3.83 38.894 0.056 6.68 3.34 13.23
3/21/2021 12:30:00 PM 4.02 39.236 0.056 6.69 3.21 13.18
3/21/2021 12:45:00 PM 4.22 39.596 0.056 6.7 3.27 13.13
3/21/2021 1:00:00 PM 4.42 39.956 0.056 6.7 3.24 13.08
3/21/2021 1:15:00 PM 4.63 40.334 0.056 6.71 3.18 13.01
3/21/2021 1:30:00 PM 4.85 40.73 0.056 6.72 3.19 12.97
3/21/2021 1:45:00 PM 5.06 41.108 0.056 6.71 3.14 12.9
3/21/2021 2:00:00 PM 5.28 41.504 0.056 6.71 3.26 12.83
3/21/2021 2:15:00 PM 5.49 41.882 0.056 6.72 3.14 12.77
3/21/2021 2:30:00 PM 5.69 42.242 0.056 6.72 3.21 12.71
3/21/2021 2:45:00 PM 5.89 42.602 0.056 6.72 3.28 12.64
3/21/2021 3:00:00 PM 6.08 42.944 0.056 6.73 3.1 12.59
3/21/2021 3:15:00 PM 6.26 43.268 0.056 6.72 3.17 12.53
3/21/2021 3:30:00 PM 6.43 43.574 0.056 6.73 3.09 12.47
3/21/2021 3:45:00 PM 6.58 43.844 0.056 6.72 3.14 12.41
3/21/2021 4:00:00 PM 6.73 44.114 0.056 6.72 3.25 12.36
3/21/2021 4:15:00 PM 6.85 44.33 0.056 6.72 3.17 12.31
3/21/2021 4:30:00 PM 6.95 44.51 0.056 6.72 3.22 12.27
3/21/2021 4:45:00 PM 7.04 44.672 0.056 6.72 3.35 12.22
3/21/2021 5:00:00 PM 7.1 44.78 0.056 6.72 3.31 12.19
3/21/2021 5:15:00 PM 7.14 44.852 0.056 6.71 3.16 12.16
3/21/2021 5:30:00 PM 7.17 44.906 0.056 6.7 3.22 12.12
3/21/2021 5:45:00 PM 7.17 44.906 0.056 6.7 3.19 12.09
3/21/2021 6:00:00 PM 7.16 44.888 0.056 6.69 3.29 12.07
3/21/2021 6:15:00 PM 7.12 44.816 0.056 6.68 3.31 12.04
3/21/2021 6:30:00 PM 7.07 44.726 0.056 6.67 3.24 12.03
3/21/2021 6:45:00 PM 7.01 44.618 0.056 6.66 3.25 12.01
3/21/2021 7:00:00 PM 6.94 44.492 0.057 6.64 3.29 11.99
3/21/2021 7:15:00 PM 6.87 44.366 0.057 6.64 3.22 11.97
3/21/2021 7:30:00 PM 6.8 44.24 0.057 6.62 3.33 11.94
3/21/2021 7:45:00 PM 6.74 44.132 0.057 6.61 3.29 11.93
3/21/2021 8:00:00 PM 6.68 44.024 0.057 6.6 3.29 11.92
3/21/2021 8:15:00 PM 6.62 43.916 0.057 6.59 3.4 11.91
3/21/2021 8:30:00 PM 6.55 43.79 0.057 6.58 3.4 11.91
3/21/2021 8:45:00 PM 6.49 43.682 0.057 6.57 3.37 11.9
3/21/2021 9:00:00 PM 6.43 43.574 0.057 6.56 3.5 11.91
3/21/2021 9:15:00 PM 6.37 43.466 0.057 6.55 3.37 11.92
3/21/2021 9:30:00 PM 6.31 43.358 0.057 6.55 3.49 11.93
3/21/2021 9:45:00 PM 6.24 43.232 0.057 6.54 3.45 11.94
3/21/2021 10:00:00 PM 6.18 43.124 0.057 6.54 3.38 11.94
3/21/2021 10:15:00 PM 6.12 43.016 0.057 6.54 3.43 11.96
3/21/2021 10:30:00 PM 6.05 42.89 0.057 6.54 3.44 11.97
3/21/2021 10:45:00 PM 5.99 42.782 0.057 6.53 3.39 11.99
3/21/2021 11:00:00 PM 5.93 42.674 0.057 6.54 3.35 12
3/21/2021 11:15:00 PM 5.87 42.566 0.057 6.54 3.51 12.01
3/21/2021 11:30:00 PM 5.8 42.44 0.057 6.53 3.52 12.03
3/21/2021 11:45:00 PM 5.74 42.332 0.057 6.53 3.45 12.05
3/22/2021 12:00:00 AM 5.68 42.224 0.057 6.53 3.47 12.06
3/22/2021 12:15:00 AM 5.62 42.116 0.057 6.53 3.4 12.08
3/22/2021 12:30:00 AM 5.55 41.99 0.057 6.53 3.48 12.1
3/22/2021 12:45:00 AM 5.49 41.882 0.057 6.53 3.39 12.12
3/22/2021 1:00:00 AM 5.42 41.756 0.057 6.53 3.45 12.14
3/22/2021 1:15:00 AM 5.36 41.648 0.057 6.53 3.4 12.16
3/22/2021 1:30:00 AM 5.29 41.522 0.057 6.53 3.3 12.18
3/22/2021 1:45:00 AM 5.22 41.396 0.057 6.53 3.75 12.2
3/22/2021 2:00:00 AM 5.15 41.27 0.057 6.53 3.45 12.22
3/22/2021 2:15:00 AM 5.07 41.126 0.057 6.53 3.4 12.25
3/22/2021 2:30:00 AM 5 41 0.057 6.53 3.36 12.28
3/22/2021 2:45:00 AM 4.93 40.874 0.057 6.53 3.29 12.3
3/22/2021 3:00:00 AM 4.86 40.748 0.057 6.53 3.32 12.33
3/22/2021 3:15:00 AM 4.78 40.604 0.057 6.53 3.47 12.34
3/22/2021 3:30:00 AM 4.71 40.478 0.057 6.53 3.36 12.36
3/22/2021 3:45:00 AM 4.64 40.352 0.057 6.53 3.49 12.4
3/22/2021 4:00:00 AM 4.56 40.208 0.057 6.53 3.39 12.41
3/22/2021 4:15:00 AM 4.49 40.082 0.057 6.54 3.42 12.45
3/22/2021 4:30:00 AM 4.42 39.956 0.057 6.54 3.28 12.47
3/22/2021 4:45:00 AM 4.34 39.812 0.057 6.54 3.33 12.49
3/22/2021 5:00:00 AM 4.27 39.686 0.057 6.54 3.35 12.52
3/22/2021 5:15:00 AM 4.2 39.56 0.057 6.54 3.28 12.54
3/22/2021 5:30:00 AM 4.13 39.434 0.057 6.54 3.29 12.57
3/22/2021 5:45:00 AM 4.06 39.308 0.057 6.54 3.32 12.59
3/22/2021 6:00:00 AM 3.99 39.182 0.057 6.54 3.32 12.62
3/22/2021 6:15:00 AM 3.92 39.056 0.058 6.55 3.26 12.64
3/22/2021 6:30:00 AM 3.85 38.93 0.058 6.55 3.3 12.67
3/22/2021 6:45:00 AM 3.79 38.822 0.058 6.55 3.3 12.69
3/22/2021 7:00:00 AM 3.72 38.696 0.058 6.55 3.39 12.72
3/22/2021 7:15:00 AM 3.65 38.57 0.058 6.55 3.31 12.74
3/22/2021 7:30:00 AM 3.59 38.462 0.058 6.55 3.2 12.78
3/22/2021 7:45:00 AM 3.53 38.354 0.058 6.55 3.28 12.81
3/22/2021 8:00:00 AM 3.48 38.264 0.058 6.56 3.33 12.85
3/22/2021 8:15:00 AM 3.42 38.156 0.058 6.57 3.36 12.89
3/22/2021 8:30:00 AM 3.39 38.102 0.058 6.57 3.29 12.93
3/22/2021 8:45:00 AM 3.37 38.066 0.058 6.59 3.23 12.96
3/22/2021 9:00:00 AM 3.35 38.03 0.058 6.6 3.24 13
3/22/2021 9:15:00 AM 3.35 38.03 0.058 6.61 3.28 13.03
3/22/2021 9:30:00 AM 3.35 38.03 0.058 6.62 3.26 13.05
3/22/2021 9:45:00 AM 3.36 38.048 0.058 6.63 3.27 13.08
3/22/2021 10:00:00 AM 3.39 38.102 0.058 6.63 3.14 13.1
3/22/2021 10:15:00 AM 3.44 38.192 0.058 6.64 3.13 13.11
3/22/2021 10:30:00 AM 3.5 38.3 0.058 6.66 3.07 13.12
3/22/2021 10:45:00 AM 3.57 38.426 0.058 6.67 3.05 13.12
3/22/2021 11:00:00 AM 3.66 38.588 0.058 6.67 3.05 13.12
3/22/2021 11:15:00 AM 3.77 38.786 0.058 6.68 2.98 13.11
3/22/2021 11:30:00 AM 3.9 39.02 0.058 6.7 3.03 13.08
3/22/2021 11:45:00 AM 4.05 39.29 0.058 6.71 3.07 13.05
3/22/2021 12:00:00 PM 4.23 39.614 0.058 6.71 2.99 13.02
3/22/2021 12:15:00 PM 4.41 39.938 0.058 6.72 2.98 12.98
3/22/2021 12:30:00 PM 4.6 40.28 0.058 6.73 3.01 12.95
3/22/2021 12:45:00 PM 4.8 40.64 0.058 6.73 2.97 12.9
3/22/2021 1:00:00 PM 5.01 41.018 0.058 6.75 3.03 12.84
3/22/2021 1:15:00 PM 5.22 41.396 0.058 6.75 2.97 12.79
3/22/2021 1:30:00 PM 5.44 41.792 0.058 6.76 2.85 12.72
3/22/2021 1:45:00 PM 5.66 42.188 0.058 6.76 2.92 12.65
3/22/2021 2:00:00 PM 5.88 42.584 0.058 6.76 2.94 12.59
3/22/2021 2:15:00 PM 6.11 42.998 0.058 6.76 2.93 12.52
3/22/2021 2:30:00 PM 6.33 43.394 0.058 6.77 2.87 12.46
3/22/2021 2:45:00 PM 6.54 43.772 0.058 6.77 2.94 12.39
3/22/2021 3:00:00 PM 6.74 44.132 0.058 6.78 3.06 12.33
3/22/2021 3:15:00 PM 6.94 44.492 0.058 6.77 2.9 12.27
3/22/2021 3:30:00 PM 7.11 44.798 0.058 6.77 2.96 12.21
3/22/2021 3:45:00 PM 7.27 45.086 0.058 6.77 2.9 12.16
3/22/2021 4:00:00 PM 7.42 45.356 0.058 6.77 3.1 12.1
3/22/2021 4:15:00 PM 7.54 45.572 0.058 6.77 3.01 12.07
3/22/2021 4:30:00 PM 7.65 45.77 0.058 6.77 3.02 12.01
3/22/2021 4:45:00 PM 7.74 45.932 0.058 6.77 2.97 11.97
3/22/2021 5:00:00 PM 7.81 46.058 0.058 6.76 2.98 11.93
3/22/2021 5:15:00 PM 7.85 46.13 0.058 6.76 3.01 11.89
3/22/2021 5:30:00 PM 7.88 46.184 0.058 6.74 2.98 11.86
3/22/2021 5:45:00 PM 7.89 46.202 0.058 6.74 3 11.84
3/22/2021 6:00:00 PM 7.87 46.166 0.058 6.74 2.96 11.81
3/22/2021 6:15:00 PM 7.83 46.094 0.058 6.72 3.02 11.78
3/22/2021 6:30:00 PM 7.78 46.004 0.058 6.71 3.11 11.76
3/22/2021 6:45:00 PM 7.71 45.878 0.058 6.7 2.99 11.75
3/22/2021 7:00:00 PM 7.64 45.752 0.058 6.69 3.04 11.73
3/22/2021 7:15:00 PM 7.56 45.608 0.058 6.68 3.06 11.71
3/22/2021 7:30:00 PM 7.48 45.464 0.058 6.67 3.07 11.68
3/22/2021 7:45:00 PM 7.41 45.338 0.058 6.65 3.02 11.67
3/22/2021 8:00:00 PM 7.34 45.212 0.058 6.64 3.08 11.66
3/22/2021 8:15:00 PM 7.27 45.086 0.058 6.63 3.13 11.65
3/22/2021 8:30:00 PM 7.2 44.96 0.058 6.62 3.24 11.65
3/22/2021 8:45:00 PM 7.13 44.834 0.058 6.6 3.26 11.65
3/22/2021 9:00:00 PM 7.07 44.726 0.058 6.59 3.28 11.64
3/22/2021 9:15:00 PM 7 44.6 0.058 6.58 3.24 11.65
3/22/2021 9:30:00 PM 6.94 44.492 0.058 6.58 3.16 11.65
3/22/2021 9:45:00 PM 6.87 44.366 0.058 6.58 3.29 11.67
3/22/2021 10:00:00 PM 6.81 44.258 0.058 6.58 3.2 11.68
3/22/2021 10:15:00 PM 6.74 44.132 0.058 6.57 3.26 11.7
3/22/2021 10:30:00 PM 6.67 44.006 0.058 6.57 3.21 11.71
3/22/2021 10:45:00 PM 6.61 43.898 0.058 6.56 3.25 11.72
3/22/2021 11:00:00 PM 6.54 43.772 0.058 6.57 3.18 11.74
3/22/2021 11:15:00 PM 6.47 43.646 0.058 6.57 3.31 11.76
3/22/2021 11:30:00 PM 6.41 43.538 0.058 6.57 3.21 11.78
3/22/2021 11:45:00 PM 6.34 43.412 0.058 6.56 3.22 11.8
3/23/2021 12:00:00 AM 6.28 43.304 0.058 6.56 3.25 11.82
3/23/2021 12:15:00 AM 6.21 43.178 0.058 6.56 3.23 11.82
3/23/2021 12:30:00 AM 6.15 43.07 0.058 6.56 3.24 11.84
3/23/2021 12:45:00 AM 6.09 42.962 0.058 6.56 3.22 11.87
3/23/2021 1:00:00 AM 6.03 42.854 0.058 6.56 3.25 11.89
3/23/2021 1:15:00 AM 5.97 42.746 0.058 6.57 3.25 11.91
3/23/2021 1:30:00 AM 5.91 42.638 0.058 6.56 3.27 11.92
3/23/2021 1:45:00 AM 5.85 42.53 0.058 6.57 3.18 11.95
3/23/2021 2:00:00 AM 5.78 42.404 0.058 6.57 3.18 11.97
3/23/2021 2:15:00 AM 5.71 42.278 0.058 6.57 3.19 11.98
3/23/2021 2:30:00 AM 5.64 42.152 0.058 6.56 3.26 12.01
3/23/2021 2:45:00 AM 5.56 42.008 0.059 6.56 3.15 12.03
3/23/2021 3:00:00 AM 5.49 41.882 0.059 6.56 3.16 12.05
3/23/2021 3:15:00 AM 5.42 41.756 0.059 6.57 3.31 12.08
3/23/2021 3:30:00 AM 5.34 41.612 0.059 6.56 3.14 12.1
3/23/2021 3:45:00 AM 5.26 41.468 0.059 6.56 3.16 12.13
3/23/2021 4:00:00 AM 5.19 41.342 0.059 6.56 3.2 12.15
3/23/2021 4:15:00 AM 5.11 41.198 0.059 6.56 3.08 12.18
3/23/2021 4:30:00 AM 5.04 41.072 0.059 6.56 3.17 12.21
3/23/2021 4:45:00 AM 4.96 40.928 0.059 6.56 3.11 12.22
3/23/2021 5:00:00 AM 4.89 40.802 0.059 6.57 3.11 12.26
3/23/2021 5:15:00 AM 4.81 40.658 0.059 6.56 3.13 12.27
3/23/2021 5:30:00 AM 4.74 40.532 0.059 6.56 3.1 12.31
3/23/2021 5:45:00 AM 4.67 40.406 0.059 6.56 3.17 12.33
3/23/2021 6:00:00 AM 4.6 40.28 0.059 6.57 3.13 12.35
3/23/2021 6:15:00 AM 4.53 40.154 0.059 6.57 3.14 12.38
3/23/2021 6:30:00 AM 4.46 40.028 0.059 6.57 3.21 12.4
3/23/2021 6:45:00 AM 4.39 39.902 0.059 6.57 3.12 12.43
3/23/2021 7:00:00 AM 4.32 39.776 0.059 6.57 3.17 12.45
3/23/2021 7:15:00 AM 4.26 39.668 0.059 6.57 3.16 12.47
3/23/2021 7:30:00 AM 4.2 39.56 0.059 6.58 3.16 12.51
3/23/2021 7:45:00 AM 4.14 39.452 0.059 6.58 3.11 12.55
3/23/2021 8:00:00 AM 4.1 39.38 0.059 6.59 3.03 12.59
3/23/2021 8:15:00 AM 4.06 39.308 0.059 6.6 3.25 12.63
3/23/2021 8:30:00 AM 4.03 39.254 0.059 6.61 3.15 12.68
3/23/2021 8:45:00 AM 4.02 39.236 0.059 6.62 3.16 12.71
3/23/2021 9:00:00 AM 4.01 39.218 0.059 6.63 3.11 12.75
3/23/2021 9:15:00 AM 4 39.2 0.059 6.64 2.99 12.78
3/23/2021 9:30:00 AM 4.01 39.218 0.059 6.65 3.02 12.81
3/23/2021 9:45:00 AM 4.03 39.254 0.059 6.67 2.98 12.83
3/23/2021 10:00:00 AM 4.07 39.326 0.059 6.68 2.9 12.85
3/23/2021 10:15:00 AM 4.12 39.416 0.059 6.69 3.03 12.86
3/23/2021 10:30:00 AM 4.19 39.542 0.059 6.7 2.93 12.86
3/23/2021 10:45:00 AM 4.26 39.668 0.06 6.71 2.9 12.86
3/23/2021 11:00:00 AM 4.36 39.848 0.06 6.72 2.88 12.86
3/23/2021 11:15:00 AM 4.49 40.082 0.059 6.73 2.94 12.85
3/23/2021 11:30:00 AM 4.62 40.316 0.059 6.74 2.95 12.84
3/23/2021 11:45:00 AM 4.76 40.568 0.059 6.74 2.87 12.82
3/23/2021 12:00:00 PM 4.94 40.892 0.059 6.75 2.9 12.79
3/23/2021 12:15:00 PM 5.12 41.216 0.059 6.77 2.9 12.75
3/23/2021 12:30:00 PM 5.31 41.558 0.06 6.78 2.87 12.71
3/23/2021 12:45:00 PM 5.5 41.9 0.059 6.78 2.86 12.66
3/23/2021 1:00:00 PM 5.64 42.152 0.059 6.78 2.8 12.62
3/23/2021 1:15:00 PM 5.86 42.548 0.059 6.8 2.86 12.58
3/23/2021 1:30:00 PM 6 42.8 0.059 6.8 2.86 12.53
3/23/2021 1:45:00 PM 6.16 43.088 0.059 6.79 2.9 12.48
3/23/2021 2:00:00 PM 6.3 43.34 0.059 6.79 2.84 12.43
3/23/2021 2:15:00 PM 6.45 43.61 0.059 6.79 2.81 12.38
3/23/2021 2:30:00 PM 6.63 43.934 0.059 6.8 2.97 12.33
3/23/2021 2:45:00 PM 6.74 44.132 0.059 6.8 2.84 12.28
3/23/2021 3:00:00 PM 6.85 44.33 0.059 6.8 2.85 12.24
3/23/2021 3:15:00 PM 7 44.6 0.059 6.8 2.9 12.2
3/23/2021 3:30:00 PM 7.06 44.708 0.059 6.8 2.88 12.16
3/23/2021 3:45:00 PM 7.19 44.942 0.059 6.8 2.87 12.11
3/23/2021 4:00:00 PM 7.29 45.122 0.059 6.8 2.82 12.08
3/23/2021 4:15:00 PM 7.34 45.212 0.059 6.8 2.84 12.05
3/23/2021 4:30:00 PM 7.45 45.41 0.059 6.8 2.89 12.02
3/23/2021 4:45:00 PM 7.47 45.446 0.059 6.81 2.91 11.98
3/23/2021 5:00:00 PM 7.51 45.518 0.059 6.79 2.87 11.96
3/23/2021 5:15:00 PM 7.59 45.662 0.059 6.79 2.88 11.93
3/23/2021 5:30:00 PM 7.63 45.734 0.059 6.79 2.9 11.91
3/23/2021 5:45:00 PM 7.65 45.77 0.059 6.79 2.9 11.87
3/23/2021 6:00:00 PM 7.65 45.77 0.059 6.78 2.88 11.85
3/23/2021 6:15:00 PM 7.67 45.806 0.059 6.78 2.82 11.83
3/23/2021 6:30:00 PM 7.68 45.824 0.059 6.77 2.91 11.81
3/23/2021 6:45:00 PM 7.65 45.77 0.059 6.76 2.87 11.78
3/23/2021 7:00:00 PM 7.63 45.734 0.059 6.75 2.96 11.74
3/23/2021 7:15:00 PM 7.61 45.698 0.059 6.73 2.92 11.69
3/23/2021 7:30:00 PM 7.59 45.662 0.06 6.71 2.84 11.66
3/23/2021 7:45:00 PM 7.57 45.626 0.06 6.7 2.97 11.62
3/23/2021 8:00:00 PM 7.55 45.59 0.06 6.69 2.98 11.6
3/23/2021 8:15:00 PM 7.54 45.572 0.06 6.68 2.91 11.57
3/23/2021 8:30:00 PM 7.53 45.554 0.06 6.67 3.03 11.56
3/23/2021 8:45:00 PM 7.51 45.518 0.06 6.66 3.06 11.54
3/23/2021 9:00:00 PM 7.49 45.482 0.06 6.65 3.01 11.52
3/23/2021 9:15:00 PM 7.45 45.41 0.06 6.65 2.99 11.52
3/23/2021 9:30:00 PM 7.41 45.338 0.06 6.64 2.99 11.52
3/23/2021 9:45:00 PM 7.37 45.266 0.06 6.64 2.98 11.53
3/23/2021 10:00:00 PM 7.33 45.194 0.06 6.64 3.07 11.52
3/23/2021 10:15:00 PM 7.29 45.122 0.06 6.63 3.13 11.53
3/23/2021 10:30:00 PM 7.24 45.032 0.06 6.62 3.01 11.54
3/23/2021 10:45:00 PM 7.2 44.96 0.06 6.62 3.02 11.53
3/23/2021 11:00:00 PM 7.15 44.87 0.06 6.62 3.04 11.55
3/23/2021 11:15:00 PM 7.11 44.798 0.06 6.61 3.03 11.55
3/23/2021 11:30:00 PM 7.07 44.726 0.06 6.61 3.02 11.56
3/23/2021 11:45:00 PM 7.03 44.654 0.06 6.61 2.95 11.57
3/24/2021 12:00:00 AM 6.99 44.582 0.06 6.61 3.11 11.58
3/24/2021 12:15:00 AM 6.97 44.546 0.06 6.62 3.22 11.59
3/24/2021 12:30:00 AM 6.96 44.528 0.06 6.61 3 11.59
3/24/2021 12:45:00 AM 6.93 44.474 0.06 6.62 3.21 11.6
3/24/2021 1:00:00 AM 6.91 44.438 0.06 6.62 3.03 11.61
3/24/2021 1:15:00 AM 6.88 44.384 0.06 6.62 3.04 11.61
3/24/2021 1:30:00 AM 6.86 44.348 0.06 6.62 3.11 11.62
3/24/2021 1:45:00 AM 6.84 44.312 0.06 6.62 3.06 11.62
3/24/2021 2:00:00 AM 6.81 44.258 0.06 6.62 3.14 11.63
3/24/2021 2:15:00 AM 6.79 44.222 0.06 6.62 3.14 11.64
3/24/2021 2:30:00 AM 6.77 44.186 0.06 6.62 3.05 11.64
3/24/2021 2:45:00 AM 6.76 44.168 0.06 6.62 3.12 11.65
3/24/2021 3:00:00 AM 6.75 44.15 0.06 6.62 3 11.66
3/24/2021 3:15:00 AM 6.74 44.132 0.06 6.62 3.1 11.66
3/24/2021 3:30:00 AM 6.73 44.114 0.06 6.63 3.02 11.66
3/24/2021 3:45:00 AM 6.73 44.114 0.06 6.63 3.02 11.67
3/24/2021 4:00:00 AM 6.72 44.096 0.06 6.63 3.09 11.67
3/24/2021 4:15:00 AM 6.71 44.078 0.06 6.62 3.03 11.67
3/24/2021 4:30:00 AM 6.7 44.06 0.06 6.63 3.05 11.67
3/24/2021 4:45:00 AM 6.7 44.06 0.06 6.63 3.06 11.68
3/24/2021 5:00:00 AM 6.69 44.042 0.06 6.63 3.05 11.68
3/24/2021 5:15:00 AM 6.69 44.042 0.06 6.63 3.13 11.68
3/24/2021 5:30:00 AM 6.68 44.024 0.06 6.63 3.18 11.68
3/24/2021 5:45:00 AM 6.67 44.006 0.06 6.63 3.23 11.68
3/24/2021 6:00:00 AM 6.67 44.006 0.06 6.63 3.29 11.69
3/24/2021 6:15:00 AM 6.67 44.006 0.06 6.63 3.34 11.69
3/24/2021 6:30:00 AM 6.66 43.988 0.06 6.63 3.33 11.69
3/24/2021 6:45:00 AM 6.66 43.988 0.06 6.63 3.39 11.69
3/24/2021 7:00:00 AM 6.66 43.988 0.06 6.62 3.53 11.69
3/24/2021 7:15:00 AM 6.65 43.97 0.06 6.63 3.9 11.69
3/24/2021 7:30:00 AM 6.65 43.97 0.06 6.63 3.8 11.7
3/24/2021 7:45:00 AM 6.65 43.97 0.06 6.63 3.6 11.7
3/24/2021 8:00:00 AM 6.66 43.988 0.06 6.63 3.64 11.71
3/24/2021 8:15:00 AM 6.66 43.988 0.06 6.64 3.89 11.72
3/24/2021 8:30:00 AM 6.66 43.988 0.06 6.65 3.99 11.74
3/24/2021 8:45:00 AM 6.66 43.988 0.06 6.64 3.76 11.75
3/24/2021 9:00:00 AM 6.67 44.006 0.06 6.65 3.78 11.77
3/24/2021 9:15:00 AM 6.68 44.024 0.06 6.65 3.79 11.79
3/24/2021 9:30:00 AM 6.69 44.042 0.06 6.66 3.79 11.81
3/24/2021 9:45:00 AM 6.71 44.078 0.06 6.68 3.7 11.83
3/24/2021 10:00:00 AM 6.74 44.132 0.06 6.68 3.71 11.85
3/24/2021 10:15:00 AM 6.78 44.204 0.06 6.7 3.76 11.88
3/24/2021 10:30:00 AM 6.8 44.24 0.06 6.7 3.72 11.89
3/24/2021 10:45:00 AM 6.82 44.276 0.06 6.71 3.71 11.9
3/24/2021 11:00:00 AM 6.86 44.348 0.06 6.72 3.68 11.91
3/24/2021 11:15:00 AM 6.92 44.456 0.06 6.72 3.63 11.91
3/24/2021 11:30:00 AM 6.98 44.564 0.06 6.74 3.56 11.92
3/24/2021 11:45:00 AM 7.05 44.69 0.061 6.75 3.49 11.92
3/24/2021 12:00:00 PM 7.12 44.816 0.061 6.76 3.59 11.93
3/24/2021 12:15:00 PM 7.2 44.96 0.06 6.76 3.41 11.92
3/24/2021 12:30:00 PM 7.29 45.122 0.06 6.77 3.54 11.91
3/24/2021 12:45:00 PM 7.37 45.266 0.06 6.78 3.42 11.91
3/24/2021 1:00:00 PM 7.46 45.428 0.06 6.78 3.49 11.88
3/24/2021 1:15:00 PM 7.53 45.554 0.06 6.79 3.5 11.88
3/24/2021 1:30:00 PM 7.62 45.716 0.06 6.79 3.53 11.86
3/24/2021 1:45:00 PM 7.72 45.896 0.06 6.8 3.49 11.83
3/24/2021 2:00:00 PM 7.81 46.058 0.06 6.8 3.4 11.81
3/24/2021 2:15:00 PM 7.88 46.184 0.06 6.81 3.52 11.78
3/24/2021 2:30:00 PM 7.97 46.346 0.06 6.81 3.48 11.76
3/24/2021 2:45:00 PM 8.06 46.508 0.06 6.81 3.51 11.74
3/24/2021 3:00:00 PM 8.14 46.652 0.06 6.81 3.63 11.72
3/24/2021 3:15:00 PM 8.24 46.832 0.06 6.81 3.91 11.7
3/24/2021 3:30:00 PM 8.34 47.012 0.06 6.82 3.72 11.68
3/24/2021 3:45:00 PM 8.44 47.192 0.06 6.81 3.94 11.65
3/24/2021 4:00:00 PM 8.54 47.372 0.06 6.81 3.85 11.62
3/24/2021 4:15:00 PM 8.69 47.642 0.06 6.82 3.8 11.59
3/24/2021 4:30:00 PM 8.96 48.128 0.06 6.83 3.98 11.55
3/24/2021 4:45:00 PM 9.11 48.398 0.06 6.84 3.86 11.51
3/24/2021 5:00:00 PM 9.02 48.236 0.06 6.83 3.96 11.49
3/24/2021 5:15:00 PM 8.96 48.128 0.06 6.81 4.06 11.47
3/24/2021 5:30:00 PM 9.04 48.272 0.06 6.8 4.03 11.44
3/24/2021 5:45:00 PM 9.18 48.524 0.06 6.81 4 11.4
3/24/2021 6:00:00 PM 9.19 48.542 0.06 6.8 4.08 11.36
3/24/2021 6:15:00 PM 9.16 48.488 0.06 6.79 4.02 11.34
3/24/2021 6:30:00 PM 9.16 48.488 0.06 6.78 4 11.31
3/24/2021 6:45:00 PM 9.15 48.47 0.06 6.77 3.94 11.27
3/24/2021 7:00:00 PM 9.13 48.434 0.06 6.76 4.02 11.24
3/24/2021 7:15:00 PM 9.11 48.398 0.061 6.74 4.09 11.21
3/24/2021 7:30:00 PM 9.07 48.326 0.061 6.73 3.96 11.17
3/24/2021 7:45:00 PM 9.04 48.272 0.061 6.72 4.17 11.14
3/24/2021 8:00:00 PM 9.02 48.236 0.061 6.7 4.27 11.12
3/24/2021 8:15:00 PM 9.02 48.236 0.061 6.69 4.17 11.09
3/24/2021 8:30:00 PM 9.02 48.236 0.061 6.69 4.18 11.07
3/24/2021 8:45:00 PM 9.03 48.254 0.061 6.69 4.17 11.04
3/24/2021 9:00:00 PM 9.03 48.254 0.061 6.68 4.22 11.03
3/24/2021 9:15:00 PM 9.03 48.254 0.062 6.67 4.36 11.01
3/24/2021 9:30:00 PM 9.02 48.236 0.062 6.67 4.32 11
3/24/2021 9:45:00 PM 9.01 48.218 0.062 6.67 4.25 11
3/24/2021 10:00:00 PM 9 48.2 0.062 6.66 4.37 11
3/24/2021 10:15:00 PM 8.98 48.164 0.063 6.66 4.39 11
3/24/2021 10:30:00 PM 8.96 48.128 0.063 6.65 4.38 11
3/24/2021 10:45:00 PM 8.95 48.11 0.063 6.65 4.51 11.01
3/24/2021 11:00:00 PM 8.93 48.074 0.063 6.65 4.7 11
3/24/2021 11:15:00 PM 8.92 48.056 0.063 6.65 4.65 11
3/24/2021 11:30:00 PM 8.92 48.056 0.064 6.64 4.57 11
3/24/2021 11:45:00 PM 8.91 48.038 0.064 6.64 4.58 11
3/25/2021 12:00:00 AM 8.91 48.038 0.064 6.64 4.49 11
3/25/2021 12:15:00 AM 8.91 48.038 0.064 6.64 4.7 11
3/25/2021 12:30:00 AM 8.89 48.002 0.065 6.64 4.68 11
3/25/2021 12:45:00 AM 8.87 47.966 0.065 6.64 4.63 11.01
3/25/2021 1:00:00 AM 8.86 47.948 0.065 6.64 4.56 11.01
3/25/2021 1:15:00 AM 8.84 47.912 0.065 6.64 4.45 11.01
3/25/2021 1:30:00 AM 8.83 47.894 0.066 6.64 4.39 11.02
3/25/2021 1:45:00 AM 8.82 47.876 0.066 6.64 4.45 11.02
3/25/2021 2:00:00 AM 8.81 47.858 0.066 6.64 4.43 11.02
3/25/2021 2:15:00 AM 8.79 47.822 0.066 6.64 4.36 11.02
3/25/2021 2:30:00 AM 8.78 47.804 0.067 6.64 4.35 11.03
3/25/2021 2:45:00 AM 8.76 47.768 0.067 6.64 4.41 11.04
3/25/2021 3:00:00 AM 8.73 47.714 0.067 6.63 4.42 11.05
3/25/2021 3:15:00 AM 8.7 47.66 0.067 6.63 4.43 11.05
3/25/2021 3:30:00 AM 8.67 47.606 0.067 6.63 4.25 11.06
3/25/2021 3:45:00 AM 8.64 47.552 0.068 6.63 4.23 11.07
3/25/2021 4:00:00 AM 8.61 47.498 0.068 6.63 4.33 11.07
3/25/2021 4:15:00 AM 8.59 47.462 0.068 6.63 4.2 11.08
3/25/2021 4:30:00 AM 8.55 47.39 0.068 6.62 4.25 11.09
3/25/2021 4:45:00 AM 8.52 47.336 0.068 6.62 4.23 11.09
3/25/2021 5:00:00 AM 8.5 47.3 0.068 6.62 4.12 11.11
3/25/2021 5:15:00 AM 8.47 47.246 0.068 6.62 3.96 11.11
3/25/2021 5:30:00 AM 8.44 47.192 0.068 6.62 3.94 11.12
3/25/2021 5:45:00 AM 8.41 47.138 0.068 6.62 3.87 11.13
3/25/2021 6:00:00 AM 8.37 47.066 0.068 6.62 3.87 11.14
3/25/2021 6:15:00 AM 8.33 46.994 0.068 6.62 3.82 11.16
3/25/2021 6:30:00 AM 8.29 46.922 0.068 6.62 3.86 11.17
3/25/2021 6:45:00 AM 8.26 46.868 0.068 6.61 3.79 11.18
3/25/2021 7:00:00 AM 8.22 46.796 0.068 6.62 3.8 11.19
3/25/2021 7:15:00 AM 8.17 46.706 0.067 6.62 3.88 11.21
3/25/2021 7:30:00 AM 8.14 46.652 0.067 6.62 3.66 11.24
3/25/2021 7:45:00 AM 8.11 46.598 0.067 6.63 3.65 11.27
3/25/2021 8:00:00 AM 8.08 46.544 0.067 6.64 3.73 11.3
3/25/2021 8:15:00 AM 8.07 46.526 0.067 6.64 3.66 11.34
3/25/2021 8:30:00 AM 8.07 46.526 0.067 6.66 3.62 11.39
3/25/2021 8:45:00 AM 8.07 46.526 0.067 6.68 3.74 11.43
3/25/2021 9:00:00 AM 8.09 46.562 0.067 6.7 3.58 11.47
3/25/2021 9:15:00 AM 8.1 46.58 0.067 6.71 3.64 11.51
3/25/2021 9:30:00 AM 8.13 46.634 0.067 6.72 3.56 11.54
3/25/2021 9:45:00 AM 8.17 46.706 0.067 6.73 3.63 11.56
3/25/2021 10:00:00 AM 8.23 46.814 0.067 6.75 3.48 11.59
3/25/2021 10:15:00 AM 8.29 46.922 0.067 6.77 3.36 11.6
3/25/2021 10:30:00 AM 8.37 47.066 0.067 6.78 3.4 11.61
3/25/2021 10:45:00 AM 8.45 47.21 0.066 6.79 3.38 11.62
3/25/2021 11:00:00 AM 8.56 47.408 0.066 6.8 3.36 11.61
3/25/2021 11:15:00 AM 8.67 47.606 0.066 6.81 3.38 11.6
3/25/2021 11:30:00 AM 8.78 47.804 0.066 6.81 3.34 11.58
3/25/2021 11:45:00 AM 8.94 48.092 0.066 6.83 3.33 11.57
3/25/2021 12:00:00 PM 9.1 48.38 0.066 6.83 3.36 11.54
3/25/2021 12:15:00 PM 9.26 48.668 0.066 6.85 3.37 11.52
3/25/2021 12:30:00 PM 9.42 48.956 0.066 6.86 3.28 11.49
3/25/2021 12:45:00 PM 9.61 49.298 0.066 6.87 3.31 11.46
3/25/2021 1:00:00 PM 9.78 49.604 0.066 6.88 3.3 11.43
3/25/2021 1:15:00 PM 9.95 49.91 0.066 6.89 3.27 11.39
3/25/2021 1:30:00 PM 10.12 50.216 0.066 6.9 3.25 11.34
3/25/2021 1:45:00 PM 10.3 50.54 0.066 6.9 3.34 11.3
3/25/2021 2:00:00 PM 10.43 50.774 0.066 6.91 3.37 11.26
3/25/2021 2:15:00 PM 10.59 51.062 0.065 6.91 3.26 11.22
3/25/2021 2:30:00 PM 10.75 51.35 0.065 6.91 3.23 11.18
3/25/2021 2:45:00 PM 10.9 51.62 0.065 6.92 3.26 11.14
3/25/2021 3:00:00 PM 11.01 51.818 0.065 6.91 3.34 11.09
3/25/2021 3:15:00 PM 11.11 51.998 0.065 6.9 3.29 11.05
3/25/2021 3:30:00 PM 11.21 52.178 0.065 6.91 3.26 11.01
3/25/2021 3:45:00 PM 11.28 52.304 0.065 6.9 3.29 10.98
3/25/2021 4:00:00 PM 11.34 52.412 0.065 6.9 3.27 10.94
3/25/2021 4:15:00 PM 11.38 52.484 0.065 6.9 3.31 10.92
3/25/2021 4:30:00 PM 11.41 52.538 0.065 6.89 3.32 10.89
3/25/2021 4:45:00 PM 11.42 52.556 0.065 6.88 3.28 10.87
3/25/2021 5:00:00 PM 11.42 52.556 0.065 6.87 3.35 10.85
3/25/2021 5:15:00 PM 11.43 52.574 0.065 6.87 3.34 10.83
3/25/2021 5:30:00 PM 11.41 52.538 0.065 6.86 3.43 10.8
3/25/2021 5:45:00 PM 11.38 52.484 0.065 6.85 3.31 10.77
3/25/2021 6:00:00 PM 11.34 52.412 0.065 6.83 3.31 10.73
3/25/2021 6:15:00 PM 11.31 52.358 0.065 6.82 3.31 10.7
3/25/2021 6:30:00 PM 11.29 52.322 0.065 6.8 3.28 10.67
3/25/2021 6:45:00 PM 11.25 52.25 0.065 6.79 3.33 10.63
3/25/2021 7:00:00 PM 11.22 52.196 0.065 6.77 3.37 10.6
3/25/2021 7:15:00 PM 11.2 52.16 0.065 6.76 3.33 10.58
3/25/2021 7:30:00 PM 11.16 52.088 0.065 6.75 3.42 10.54
3/25/2021 7:45:00 PM 11.13 52.034 0.065 6.73 3.4 10.52
3/25/2021 8:00:00 PM 11.1 51.98 0.066 6.73 3.41 10.49
3/25/2021 8:15:00 PM 11.07 51.926 0.066 6.72 3.46 10.47
3/25/2021 8:30:00 PM 11.03 51.854 0.066 6.71 3.54 10.46
3/25/2021 8:45:00 PM 11.01 51.818 0.066 6.7 3.58 10.45
3/25/2021 9:00:00 PM 10.99 51.782 0.066 6.7 3.44 10.45
3/25/2021 9:15:00 PM 10.96 51.728 0.066 6.69 3.48 10.45
3/25/2021 9:30:00 PM 10.93 51.674 0.066 6.68 3.59 10.44
3/25/2021 9:45:00 PM 10.92 51.656 0.066 6.68 3.44 10.44
3/25/2021 10:00:00 PM 10.89 51.602 0.066 6.68 3.52 10.44
3/25/2021 10:15:00 PM 10.88 51.584 0.066 6.68 3.55 10.44
3/25/2021 10:30:00 PM 10.86 51.548 0.065 6.68 3.56 10.44
3/25/2021 10:45:00 PM 10.85 51.53 0.066 6.68 3.51 10.43
3/25/2021 11:00:00 PM 10.84 51.512 0.066 6.67 3.49 10.44
3/25/2021 11:15:00 PM 10.82 51.476 0.066 6.67 3.59 10.44
3/25/2021 11:30:00 PM 10.8 51.44 0.066 6.68 3.61 10.44
3/25/2021 11:45:00 PM 10.78 51.404 0.066 6.67 3.59 10.44
3/26/2021 12:00:00 AM 10.77 51.386 0.065 6.68 3.51 10.44
3/26/2021 12:15:00 AM 10.75 51.35 0.065 6.67 3.65 10.44
3/26/2021 12:30:00 AM 10.73 51.314 0.066 6.67 3.64 10.44
3/26/2021 12:45:00 AM 10.7 51.26 0.066 6.67 3.59 10.44
3/26/2021 1:00:00 AM 10.69 51.242 0.066 6.67 3.61 10.45
3/26/2021 1:15:00 AM 10.67 51.206 0.066 6.67 3.58 10.45
3/26/2021 1:30:00 AM 10.65 51.17 0.066 6.68 3.69 10.45
3/26/2021 1:45:00 AM 10.62 51.116 0.066 6.67 3.46 10.45
3/26/2021 2:00:00 AM 10.6 51.08 0.066 6.66 3.61 10.46
3/26/2021 2:15:00 AM 10.58 51.044 0.065 6.66 3.62 10.46
3/26/2021 2:30:00 AM 10.56 51.008 0.065 6.66 3.53 10.46
3/26/2021 2:45:00 AM 10.55 50.99 0.065 6.67 3.51 10.46
3/26/2021 3:00:00 AM 10.53 50.954 0.065 6.67 3.46 10.46
3/26/2021 3:15:00 AM 10.52 50.936 0.065 6.67 3.66 10.46
3/26/2021 3:30:00 AM 10.52 50.936 0.065 6.68 3.47 10.46
3/26/2021 3:45:00 AM 10.5 50.9 0.065 6.67 3.87 10.46
3/26/2021 4:00:00 AM 10.5 50.9 0.066 6.68 3.56 10.46
3/26/2021 4:15:00 AM 10.49 50.882 0.066 6.68 3.53 10.46
3/26/2021 4:30:00 AM 10.46 50.828 0.066 6.67 4.02 10.46
3/26/2021 4:45:00 AM 10.41 50.738 0.066 6.67 3.63 10.47
3/26/2021 5:00:00 AM 10.38 50.684 0.066 6.67 3.64 10.47
3/26/2021 5:15:00 AM 10.36 50.648 0.065 6.67 3.6 10.47
3/26/2021 5:30:00 AM 10.35 50.63 0.065 6.66 3.56 10.47
3/26/2021 5:45:00 AM 10.35 50.63 0.065 6.67 3.54 10.47
3/26/2021 6:00:00 AM 10.33 50.594 0.065 6.67 3.76 10.47
3/26/2021 6:15:00 AM 10.31 50.558 0.065 6.67 4.04 10.47
3/26/2021 6:30:00 AM 10.3 50.54 0.065 6.67 4.13 10.48
3/26/2021 6:45:00 AM 10.27 50.486 0.065 6.67 3.74 10.48
3/26/2021 7:00:00 AM 10.25 50.45 0.065 6.67 3.72 10.49
3/26/2021 7:15:00 AM 10.21 50.378 0.065 6.67 3.78 10.5
3/26/2021 7:30:00 AM 10.19 50.342 0.065 6.68 3.59 10.52
3/26/2021 7:45:00 AM 10.19 50.342 0.065 6.69 3.54 10.54
3/26/2021 8:00:00 AM 10.19 50.342 0.065 6.7 3.68 10.57
3/26/2021 8:15:00 AM 10.19 50.342 0.065 6.72 3.61 10.61
3/26/2021 8:30:00 AM 10.21 50.378 0.065 6.74 3.49 10.63
3/26/2021 8:45:00 AM 10.23 50.414 0.065 6.74 3.61 10.66
3/26/2021 9:00:00 AM 10.29 50.522 0.065 6.77 3.5 10.7
3/26/2021 9:15:00 AM 10.32 50.576 0.065 6.78 3.64 10.73
3/26/2021 9:30:00 AM 10.33 50.594 0.065 6.79 3.54 10.73
3/26/2021 9:45:00 AM 10.37 50.666 0.065 6.79 3.48 10.75
3/26/2021 10:00:00 AM 10.47 50.846 0.065 6.81 3.57 10.79
3/26/2021 10:15:00 AM 10.49 50.882 0.065 6.82 3.46 10.81
3/26/2021 10:30:00 AM 10.49 50.882 0.065 6.82 3.55 10.83
3/26/2021 10:45:00 AM 10.49 50.882 0.065 6.82 3.4 10.81
3/26/2021 11:00:00 AM 10.51 50.918 0.065 6.82 3.59 10.81
3/26/2021 11:15:00 AM 10.51 50.918 0.065 6.83 3.5 10.81
3/26/2021 11:30:00 AM 10.49 50.882 0.065 6.82 3.77 10.82
3/26/2021 11:45:00 AM 10.47 50.846 0.065 6.82 3.68 10.81
3/26/2021 12:00:00 PM 10.47 50.846 0.065 6.81 3.72 10.81
3/26/2021 12:15:00 PM 10.46 50.828 0.065 6.81 3.61 10.83
3/26/2021 12:30:00 PM 10.47 50.846 0.065 6.83 3.62 10.85
3/26/2021 12:45:00 PM 10.5 50.9 0.065 6.83 3.67 10.89
3/26/2021 1:00:00 PM 10.55 50.99 0.065 6.84 3.71 10.91
3/26/2021 1:15:00 PM 10.58 51.044 0.065 6.85 3.62 10.93
3/26/2021 1:30:00 PM 10.62 51.116 0.065 6.85 3.53 10.93
3/26/2021 1:45:00 PM 10.64 51.152 0.065 6.86 3.57 10.94
3/26/2021 2:00:00 PM 10.62 51.116 0.065 6.87 3.55 10.94
3/26/2021 2:15:00 PM 10.69 51.242 0.065 6.87 3.63 10.95
3/26/2021 2:30:00 PM 10.7 51.26 0.064 6.88 3.58 10.96
3/26/2021 2:45:00 PM 10.71 51.278 0.065 6.87 3.58 10.95
3/26/2021 3:00:00 PM 10.7 51.26 0.064 6.87 3.67 10.95
3/26/2021 3:15:00 PM 10.69 51.242 0.064 6.87 3.54 10.95
3/26/2021 3:30:00 PM 10.66 51.188 0.064 6.86 3.56 10.95
3/26/2021 3:45:00 PM 10.63 51.134 0.064 6.85 3.56 10.95
3/26/2021 4:00:00 PM 10.6 51.08 0.064 6.85 3.63 10.95
3/26/2021 4:15:00 PM 10.59 51.062 0.064 6.86 3.54 10.96
3/26/2021 4:30:00 PM 10.58 51.044 0.064 6.86 3.51 10.97
3/26/2021 4:45:00 PM 10.55 50.99 0.064 6.86 3.51 10.98
3/26/2021 5:00:00 PM 10.5 50.9 0.064 6.85 3.56 10.96
3/26/2021 5:15:00 PM 10.47 50.846 0.064 6.84 3.62 10.95
3/26/2021 5:30:00 PM 10.43 50.774 0.064 6.83 3.78 10.94
3/26/2021 5:45:00 PM 10.4 50.72 0.065 6.83 3.72 10.94
3/26/2021 6:00:00 PM 10.37 50.666 0.065 6.82 3.79 10.93
3/26/2021 6:15:00 PM 10.32 50.576 0.065 6.82 3.81 10.92
3/26/2021 6:30:00 PM 10.26 50.468 0.065 6.81 3.9 10.91
3/26/2021 6:45:00 PM 10.2 50.36 0.065 6.8 4.02 10.9
3/26/2021 7:00:00 PM 10.15 50.27 0.065 6.78 3.91 10.88
3/26/2021 7:15:00 PM 10.08 50.144 0.065 6.76 3.91 10.86
3/26/2021 7:30:00 PM 10.01 50.018 0.065 6.76 3.91 10.85
3/26/2021 7:45:00 PM 9.94 49.892 0.065 6.74 4.02 10.84
3/26/2021 8:00:00 PM 9.87 49.766 0.065 6.73 3.94 10.83
3/26/2021 8:15:00 PM 9.81 49.658 0.065 6.72 4 10.83
3/26/2021 8:30:00 PM 9.75 49.55 0.066 6.72 3.92 10.83
3/26/2021 8:45:00 PM 9.7 49.46 0.066 6.72 3.84 10.83
3/26/2021 9:00:00 PM 9.64 49.352 0.066 6.71 3.88 10.84
3/26/2021 9:15:00 PM 9.59 49.262 0.066 6.71 3.85 10.85
3/26/2021 9:30:00 PM 9.54 49.172 0.066 6.71 3.81 10.86
3/26/2021 9:45:00 PM 9.49 49.082 0.066 6.7 3.87 10.87
3/26/2021 10:00:00 PM 9.45 49.01 0.066 6.7 3.84 10.88
3/26/2021 10:15:00 PM 9.4 48.92 0.066 6.7 3.81 10.89
3/26/2021 10:30:00 PM 9.36 48.848 0.066 6.7 3.75 10.89
3/26/2021 10:45:00 PM 9.31 48.758 0.066 6.7 3.84 10.91
3/26/2021 11:00:00 PM 9.27 48.686 0.067 6.7 3.88 10.92
3/26/2021 11:15:00 PM 9.23 48.614 0.067 6.7 3.71 10.93
3/26/2021 11:30:00 PM 9.18 48.524 0.067 6.7 3.84 10.94
3/26/2021 11:45:00 PM 9.15 48.47 0.067 6.7 3.74 10.95
3/27/2021 12:00:00 AM 9.11 48.398 0.067 6.7 3.78 10.96
3/27/2021 12:15:00 AM 9.07 48.326 0.067 6.7 3.89 10.97
3/27/2021 12:30:00 AM 9.03 48.254 0.067 6.7 3.86 10.98
3/27/2021 12:45:00 AM 8.99 48.182 0.068 6.69 3.82 10.99
3/27/2021 1:00:00 AM 8.96 48.128 0.068 6.7 3.89 11
3/27/2021 1:15:00 AM 8.92 48.056 0.068 6.7 4.03 11.01
3/27/2021 1:30:00 AM 8.89 48.002 0.068 6.7 3.81 11.02
3/27/2021 1:45:00 AM 8.85 47.93 0.068 6.7 4.07 11.03
3/27/2021 2:00:00 AM 8.82 47.876 0.068 6.7 3.98 11.04
3/27/2021 2:15:00 AM 8.79 47.822 0.068 6.7 4.09 11.05
3/27/2021 2:30:00 AM 8.75 47.75 0.069 6.7 3.95 11.06
3/27/2021 2:45:00 AM 8.72 47.696 0.069 6.69 4.07 11.07
3/27/2021 3:00:00 AM 8.68 47.624 0.069 6.7 4.03 11.08
3/27/2021 3:15:00 AM 8.65 47.57 0.069 6.7 3.88 11.09
3/27/2021 3:30:00 AM 8.61 47.498 0.069 6.7 4.07 11.09
3/27/2021 3:45:00 AM 8.58 47.444 0.069 6.7 3.91 11.11
3/27/2021 4:00:00 AM 8.55 47.39 0.069 6.7 4.06 11.12
3/27/2021 4:15:00 AM 8.52 47.336 0.07 6.7 3.97 11.12
3/27/2021 4:30:00 AM 8.48 47.264 0.07 6.7 3.91 11.13
3/27/2021 4:45:00 AM 8.45 47.21 0.07 6.7 3.9 11.14
3/27/2021 5:00:00 AM 8.42 47.156 0.07 6.7 3.82 11.15
3/27/2021 5:15:00 AM 8.38 47.084 0.07 6.7 3.78 11.17
3/27/2021 5:30:00 AM 8.34 47.012 0.07 6.69 3.81 11.17
3/27/2021 5:45:00 AM 8.3 46.94 0.07 6.7 3.69 11.19
3/27/2021 6:00:00 AM 8.27 46.886 0.07 6.7 3.66 11.2
3/27/2021 6:15:00 AM 8.22 46.796 0.07 6.7 3.72 11.21
3/27/2021 6:30:00 AM 8.19 46.742 0.07 6.7 3.71 11.22
3/27/2021 6:45:00 AM 8.15 46.67 0.07 6.69 3.8 11.23
3/27/2021 7:00:00 AM 8.11 46.598 0.07 6.7 3.59 11.25
3/27/2021 7:15:00 AM 8.08 46.544 0.07 6.7 3.69 11.26
3/27/2021 7:30:00 AM 8.05 46.49 0.07 6.71 3.68 11.29
3/27/2021 7:45:00 AM 8.03 46.454 0.07 6.71 3.64 11.33
3/27/2021 8:00:00 AM 8.01 46.418 0.07 6.73 3.66 11.38
3/27/2021 8:15:00 AM 8 46.4 0.07 6.74 3.86 11.44
3/27/2021 8:30:00 AM 8.01 46.418 0.07 6.76 3.68 11.48
3/27/2021 8:45:00 AM 8.02 46.436 0.069 6.78 3.57 11.53
3/27/2021 9:00:00 AM 8.02 46.436 0.069 6.79 3.42 11.57
3/27/2021 9:15:00 AM 8.05 46.49 0.069 6.8 3.36 11.61
3/27/2021 9:30:00 AM 8.08 46.544 0.069 6.82 3.36 11.64
3/27/2021 9:45:00 AM 8.11 46.598 0.069 6.82 3.33 11.65
3/27/2021 10:00:00 AM 8.15 46.67 0.069 6.85 3.23 11.67
3/27/2021 10:15:00 AM 8.26 46.868 0.069 6.87 3.28 11.69
3/27/2021 10:30:00 AM 8.35 47.03 0.068 6.88 3.29 11.7
3/27/2021 10:45:00 AM 8.41 47.138 0.068 6.89 3.22 11.7
3/27/2021 11:00:00 AM 8.57 47.426 0.068 6.9 3.34 11.7
3/27/2021 11:15:00 AM 8.68 47.624 0.068 6.91 3.21 11.69
3/27/2021 11:30:00 AM 8.85 47.93 0.068 6.93 3.18 11.66
3/27/2021 11:45:00 AM 8.98 48.164 0.068 6.93 3.18 11.64
3/27/2021 12:00:00 PM 9.11 48.398 0.068 6.93 3.11 11.62
3/27/2021 12:15:00 PM 9.18 48.524 0.068 6.93 3.18 11.59
3/27/2021 12:30:00 PM 9.26 48.668 0.068 6.93 3.1 11.57
3/27/2021 12:45:00 PM 9.44 48.992 0.068 6.94 3.26 11.54
3/27/2021 1:00:00 PM 9.64 49.352 0.068 6.95 3.15 11.51
3/27/2021 1:15:00 PM 9.75 49.55 0.068 6.95 3.07 11.48
3/27/2021 1:30:00 PM 9.86 49.748 0.068 6.96 3.09 11.46
3/27/2021 1:45:00 PM 9.99 49.982 0.067 6.96 3.74 11.43
3/27/2021 2:00:00 PM 10.14 50.252 0.067 6.97 3.25 11.4
3/27/2021 2:15:00 PM 10.31 50.558 0.067 6.98 3.1 11.36
3/27/2021 2:30:00 PM 10.45 50.81 0.067 6.97 3.07 11.32
3/27/2021 2:45:00 PM 10.55 50.99 0.067 6.97 3.06 11.29
3/27/2021 3:00:00 PM 10.66 51.188 0.067 6.97 3.05 11.25
3/27/2021 3:15:00 PM 10.76 51.368 0.067 6.97 3.07 11.22
3/27/2021 3:30:00 PM 10.86 51.548 0.067 6.98 3.16 11.19
3/27/2021 3:45:00 PM 10.93 51.674 0.067 6.98 3.02 11.15
3/27/2021 4:00:00 PM 11.01 51.818 0.067 6.96 2.97 11.12
3/27/2021 4:15:00 PM 11.06 51.908 0.067 6.94 3.08 11.1
3/27/2021 4:30:00 PM 11.12 52.016 0.067 6.93 3.11 11.07
3/27/2021 4:45:00 PM 11.15 52.07 0.067 6.93 3.14 11.05
3/27/2021 5:00:00 PM 11.25 52.25 0.067 6.95 3.23 11.02
3/27/2021 5:15:00 PM 11.28 52.304 0.067 6.93 3.16 10.98
3/27/2021 5:30:00 PM 11.32 52.376 0.067 6.97 3.14 10.95
3/27/2021 5:45:00 PM 11.36 52.448 0.067 6.91 3.08 10.92
3/27/2021 6:00:00 PM 11.37 52.466 0.067 6.92 3.12 10.88
3/27/2021 6:15:00 PM 11.36 52.448 0.067 6.9 3.08 10.85
3/27/2021 6:30:00 PM 11.35 52.43 0.067 6.88 3.19 10.82
3/27/2021 6:45:00 PM 11.3 52.34 0.067 6.86 3.15 10.78
3/27/2021 7:00:00 PM 11.23 52.214 0.067 6.85 3.11 10.74
3/27/2021 7:15:00 PM 11.16 52.088 0.067 6.83 3.14 10.69
3/27/2021 7:30:00 PM 11.08 51.944 0.067 6.82 3.05 10.66
3/27/2021 7:45:00 PM 10.99 51.782 0.068 6.79 3.06 10.62
3/27/2021 8:00:00 PM 10.91 51.638 0.068 6.76 3.19 10.59
3/27/2021 8:15:00 PM 10.84 51.512 0.068 6.74 3.2 10.57
3/27/2021 8:30:00 PM 10.77 51.386 0.068 6.73 3.24 10.55
3/27/2021 8:45:00 PM 10.7 51.26 0.068 6.72 3.25 10.55
3/27/2021 9:00:00 PM 10.62 51.116 0.068 6.71 3.23 10.54
3/27/2021 9:15:00 PM 10.55 50.99 0.068 6.7 3.31 10.55
3/27/2021 9:30:00 PM 10.48 50.864 0.068 6.69 3.23 10.55
3/27/2021 9:45:00 PM 10.41 50.738 0.068 6.68 3.22 10.55
3/27/2021 10:00:00 PM 10.34 50.612 0.068 6.68 3.24 10.57
3/27/2021 10:15:00 PM 10.28 50.504 0.068 6.68 3.36 10.57
3/27/2021 10:30:00 PM 10.21 50.378 0.068 6.68 3.13 10.58
3/27/2021 10:45:00 PM 10.14 50.252 0.068 6.66 3.4 10.6
3/27/2021 11:00:00 PM 10.07 50.126 0.068 6.67 3.28 10.61
3/27/2021 11:15:00 PM 10 50 0.068 6.67 3.29 10.62
3/27/2021 11:30:00 PM 9.92 49.856 0.068 6.67 3.22 10.64
3/27/2021 11:45:00 PM 9.85 49.73 0.068 6.64 3.31 10.66
3/28/2021 12:00:00 AM 9.77 49.586 0.068 6.66 3.32 10.67
3/28/2021 12:15:00 AM 9.7 49.46 0.068 6.65 3.14 10.69
3/28/2021 12:30:00 AM 9.62 49.316 0.068 6.65 3.21 10.7
3/28/2021 12:45:00 AM 9.55 49.19 0.068 6.65 3.2 10.72
3/28/2021 1:00:00 AM 9.47 49.046 0.068 6.66 3.19 10.74
3/28/2021 1:15:00 AM 9.39 48.902 0.068 6.66 3.3 10.75
3/28/2021 1:30:00 AM 9.32 48.776 0.068 6.65 3.13 10.78
3/28/2021 1:45:00 AM 9.24 48.632 0.068 6.66 3.21 10.79
3/28/2021 2:00:00 AM 9.16 48.488 0.068 6.65 3.21 10.82
3/28/2021 2:15:00 AM 9.09 48.362 0.068 6.66 3.18 10.83
3/28/2021 2:30:00 AM 9.01 48.218 0.068 6.66 3.35 10.85
3/28/2021 2:45:00 AM 8.93 48.074 0.068 6.65 3.02 10.87
3/28/2021 3:00:00 AM 8.85 47.93 0.068 6.66 3.15 10.89
3/28/2021 3:15:00 AM 8.78 47.804 0.068 6.66 3.16 10.91
3/28/2021 3:30:00 AM 8.71 47.678 0.068 6.66 3.26 10.92
3/28/2021 3:45:00 AM 8.64 47.552 0.068 6.67 3.2 10.94
3/28/2021 4:00:00 AM 8.58 47.444 0.068 6.66 3.21 10.96
3/28/2021 4:15:00 AM 8.52 47.336 0.068 6.66 3.21 10.97
3/28/2021 4:30:00 AM 8.46 47.228 0.068 6.67 3.12 10.99
3/28/2021 4:45:00 AM 8.4 47.12 0.068 6.66 3.09 11
3/28/2021 5:00:00 AM 8.35 47.03 0.069 6.66 3.04 11.02
3/28/2021 5:15:00 AM 8.31 46.958 0.069 6.67 3.13 11.03
3/28/2021 5:30:00 AM 8.26 46.868 0.069 6.67 3.21 11.04
3/28/2021 5:45:00 AM 8.22 46.796 0.069 6.67 3.06 11.06
3/28/2021 6:00:00 AM 8.19 46.742 0.069 6.67 3.17 11.06
3/28/2021 6:15:00 AM 8.16 46.688 0.069 6.67 3.17 11.08
3/28/2021 6:30:00 AM 8.13 46.634 0.069 6.68 3.13 11.09
3/28/2021 6:45:00 AM 8.1 46.58 0.069 6.69 3.14 11.1
3/28/2021 7:00:00 AM 8.07 46.526 0.069 6.7 3.12 11.11
3/28/2021 7:15:00 AM 8.04 46.472 0.069 6.68 3.1 11.11
3/28/2021 7:30:00 AM 8.02 46.436 0.068 6.69 3.18 11.13
3/28/2021 7:45:00 AM 8 46.4 0.068 6.7 3.07 11.14
3/28/2021 8:00:00 AM 7.98 46.364 0.068 6.7 3.58 11.16
3/28/2021 8:15:00 AM 7.96 46.328 0.068 6.71 3.05 11.17
3/28/2021 8:30:00 AM 7.95 46.31 0.068 6.71 3.07 11.21
3/28/2021 8:45:00 AM 7.94 46.292 0.068 6.72 3.14 11.23
3/28/2021 9:00:00 AM 7.93 46.274 0.068 6.73 3.15 11.24
3/28/2021 9:15:00 AM 7.93 46.274 0.068 6.74 3.3 11.27
3/28/2021 9:30:00 AM 7.93 46.274 0.068 6.74 3.45 11.29
3/28/2021 9:45:00 AM 7.93 46.274 0.068 6.74 3.25 11.3
3/28/2021 10:00:00 AM 7.95 46.31 0.068 6.74 3.24 11.33
3/28/2021 10:15:00 AM 7.97 46.346 0.067 6.77 3.16 11.35
3/28/2021 10:30:00 AM 7.99 46.382 0.067 6.77 3.08 11.36
3/28/2021 10:45:00 AM 8.01 46.418 0.067 6.79 3.07 11.38
3/28/2021 11:00:00 AM 8.06 46.508 0.067 6.8 3.07 11.41
3/28/2021 11:15:00 AM 8.09 46.562 0.067 6.82 3.07 11.42
3/28/2021 11:30:00 AM 8.12 46.616 0.067 6.81 3.14 11.41
3/28/2021 11:45:00 AM 8.18 46.724 0.067 6.83 3.19 11.42
3/28/2021 12:00:00 PM 8.25 46.85 0.067 6.85 3.38 11.43
3/28/2021 12:15:00 PM 8.31 46.958 0.067 6.86 3.39 11.43
3/28/2021 12:30:00 PM 8.38 47.084 0.067 6.85 3.35 11.44
3/28/2021 12:45:00 PM 8.48 47.264 0.067 6.88 3.37 11.44
3/28/2021 1:00:00 PM 8.56 47.408 0.067 6.88 3.41 11.43
3/28/2021 1:15:00 PM 8.62 47.516 0.067 6.88 3.58 11.42
3/28/2021 1:30:00 PM 8.68 47.624 0.067 6.88 3.4 11.39
3/28/2021 1:45:00 PM 8.74 47.732 0.067 6.91 3.51 11.35
3/28/2021 2:00:00 PM 8.78 47.804 0.067 6.91 3.64 11.33
3/28/2021 2:15:00 PM 8.81 47.858 0.067 6.91 3.9 11.31
3/28/2021 2:30:00 PM 8.85 47.93 0.067 6.9 3.76 11.3
3/28/2021 2:45:00 PM 8.88 47.984 0.067 6.9 3.99 11.26
3/28/2021 3:00:00 PM 8.94 48.092 0.067 6.9 4.43 11.26
3/28/2021 3:15:00 PM 8.94 48.092 0.067 6.89 4.56 11.2
3/28/2021 3:30:00 PM 8.97 48.146 0.067 6.89 4.6 11.2
3/28/2021 3:45:00 PM 8.99 48.182 0.067 6.88 4.8 11.19
3/28/2021 4:00:00 PM 8.99 48.182 0.068 6.88 5.34 11.18
3/28/2021 4:15:00 PM 8.98 48.164 0.068 6.88 5.51 11.18
3/28/2021 4:30:00 PM 9.03 48.254 0.068 6.88 5.89 11.21
3/28/2021 4:45:00 PM 9.06 48.308 0.068 6.89 5.89 11.21
3/28/2021 5:00:00 PM 9.06 48.308 0.069 6.89 6.24 11.2
3/28/2021 5:15:00 PM 9.07 48.326 0.069 6.88 6.18 11.19
3/28/2021 5:30:00 PM 9.11 48.398 0.069 6.89 6.24 11.2
3/28/2021 5:45:00 PM 9.1 48.38 0.069 6.89 6.33 11.17
3/28/2021 6:00:00 PM 9.08 48.344 0.069 6.87 6.09 11.13
3/28/2021 6:15:00 PM 9.08 48.344 0.069 6.87 6.12 11.15
3/28/2021 6:30:00 PM 9.04 48.272 0.069 6.87 6 11.13
3/28/2021 6:45:00 PM 8.99 48.182 0.069 6.86 5.84 11.1
3/28/2021 7:00:00 PM 8.94 48.092 0.07 6.85 6.04 11.07
3/28/2021 7:15:00 PM 8.87 47.966 0.07 6.83 5.83 11.07
3/28/2021 7:30:00 PM 8.8 47.84 0.07 6.82 6.05 11.04
3/28/2021 7:45:00 PM 8.73 47.714 0.07 6.8 6.09 11.02
3/28/2021 8:00:00 PM 8.65 47.57 0.071 6.77 5.93 11.01
3/28/2021 8:15:00 PM 8.58 47.444 0.071 6.77 5.97 11.01
3/28/2021 8:30:00 PM 8.53 47.354 0.071 6.76 6.13 11.01
3/28/2021 8:45:00 PM 8.47 47.246 0.072 6.75 6.55 11.01
3/28/2021 9:00:00 PM 8.4 47.12 0.072 6.74 6.46 11.02
3/28/2021 9:15:00 PM 8.34 47.012 0.072 6.74 6.62 11.03
3/28/2021 9:30:00 PM 8.28 46.904 0.072 6.73 6.77 11.04
3/28/2021 9:45:00 PM 8.22 46.796 0.073 6.75 7.25 11.05
3/28/2021 10:00:00 PM 8.16 46.688 0.073 6.74 7.37 11.06
3/28/2021 10:15:00 PM 8.09 46.562 0.073 6.74 8.03 11.09
3/28/2021 10:30:00 PM 8.02 46.436 0.074 6.72 7.73 11.1
3/28/2021 10:45:00 PM 7.96 46.328 0.074 6.72 7.71 11.11
3/28/2021 11:00:00 PM 7.89 46.202 0.074 6.72 8.43 11.13
3/28/2021 11:15:00 PM 7.82 46.076 0.074 6.7 8.04 11.15
3/28/2021 11:30:00 PM 7.77 45.986 0.074 6.7 8.09 11.16
3/28/2021 11:45:00 PM 7.71 45.878 0.074 6.72 7.99 11.18
3/29/2021 12:00:00 AM 7.66 45.788 0.074 6.72 7.74 11.19
3/29/2021 12:15:00 AM 7.61 45.698 0.074 6.73 7.64 11.21
3/29/2021 12:30:00 AM 7.57 45.626 0.074 6.73 7.7 11.23
3/29/2021 12:45:00 AM 7.53 45.554 0.074 6.73 7.77 11.25
3/29/2021 1:00:00 AM 7.49 45.482 0.074 6.74 7.46 11.26
3/29/2021 1:15:00 AM 7.45 45.41 0.075 6.74 7.15 11.27
3/29/2021 1:30:00 AM 7.4 45.32 0.075 6.75 7.2 11.29
3/29/2021 1:45:00 AM 7.35 45.23 0.075 6.75 7.03 11.31
3/29/2021 2:00:00 AM 7.3 45.14 0.076 6.75 6.93 11.32
3/29/2021 2:15:00 AM 7.25 45.05 0.076 6.75 6.86 11.35
3/29/2021 2:30:00 AM 7.21 44.978 0.077 6.75 6.73 11.35
3/29/2021 2:45:00 AM 7.15 44.87 0.077 6.75 6.85 11.37
3/29/2021 3:00:00 AM 7.08 44.744 0.078 6.75 6.75 11.39
3/29/2021 3:15:00 AM 7.03 44.654 0.079 6.76 7.1 11.41
3/29/2021 3:30:00 AM 6.97 44.546 0.08 6.76 6.81 11.43
3/29/2021 3:45:00 AM 6.92 44.456 0.081 6.75 6.81 11.45
3/29/2021 4:00:00 AM 6.86 44.348 0.082 6.76 6.97 11.47
3/29/2021 4:15:00 AM 6.81 44.258 0.083 6.77 7.02 11.49
3/29/2021 4:30:00 AM 6.75 44.15 0.084 6.78 7.11 11.5
3/29/2021 4:45:00 AM 6.69 44.042 0.085 6.77 7.25 11.53
3/29/2021 5:00:00 AM 6.64 43.952 0.086 6.77 7.23 11.55
3/29/2021 5:15:00 AM 6.59 43.862 0.087 6.78 7.53 11.56
3/29/2021 5:30:00 AM 6.54 43.772 0.088 6.8 7.65 11.58
3/29/2021 5:45:00 AM 6.48 43.664 0.088 6.79 7.53 11.6
3/29/2021 6:00:00 AM 6.41 43.538 0.089 6.8 7.72 11.63
3/29/2021 6:15:00 AM 6.35 43.43 0.089 6.8 7.73 11.65
3/29/2021 6:30:00 AM 6.27 43.286 0.09 6.8 7.78 11.68
3/29/2021 6:45:00 AM 6.21 43.178 0.09 6.8 8.02 11.7
3/29/2021 7:00:00 AM 6.16 43.088 0.091 6.81 7.84 11.72
3/29/2021 7:15:00 AM 6.11 42.998 0.091 6.82 7.98 11.74
3/29/2021 7:30:00 AM 6.06 42.908 0.091 6.82 7.98 11.76
3/29/2021 7:45:00 AM 6.01 42.818 0.091 6.83 7.86 11.79
3/29/2021 8:00:00 AM 5.97 42.746 0.091 6.83 7.86 11.83
3/29/2021 8:15:00 AM 5.92 42.656 0.091 6.83 7.54 11.87
3/29/2021 8:30:00 AM 5.89 42.602 0.09 6.84 7.65 11.91
3/29/2021 8:45:00 AM 5.86 42.548 0.09 6.85 7.35 11.95
3/29/2021 9:00:00 AM 5.83 42.494 0.09 6.86 7.16 12
3/29/2021 9:15:00 AM 5.79 42.422 0.09 6.87 7.02 12.05
3/29/2021 9:30:00 AM 5.73 42.314 0.089 6.87 6.72 12.09
3/29/2021 9:45:00 AM 5.65 42.17 0.089 6.86 6.94 12.11
3/29/2021 10:00:00 AM 5.55 41.99 0.089 6.86 6.59 12.16
3/29/2021 10:15:00 AM 5.48 41.864 0.088 6.86 6.44 12.22
3/29/2021 10:30:00 AM 5.46 41.828 0.088 6.87 6.22 12.27
3/29/2021 10:45:00 AM 5.51 41.918 0.088 6.89 6.23 12.31
3/29/2021 11:00:00 AM 5.57 42.026 0.087 6.92 5.97 12.34
3/29/2021 11:15:00 AM 5.67 42.206 0.087 6.93 5.74 12.36
3/29/2021 11:30:00 AM 5.73 42.314 0.087 6.94 5.6 12.37
3/29/2021 11:45:00 AM 5.84 42.512 0.087 6.96 5.53 12.38
3/29/2021 12:00:00 PM 5.91 42.638 0.086 6.97 5.41 12.39
3/29/2021 12:15:00 PM 6.01 42.818 0.086 6.97 5.2 12.4
3/29/2021 12:30:00 PM 6.08 42.944 0.086 6.96 5.1 12.39
3/29/2021 12:45:00 PM 6.18 43.124 0.086 6.99 5.09 12.38
3/29/2021 1:00:00 PM 6.21 43.178 0.086 6.97 4.93 12.38
3/29/2021 1:15:00 PM 6.3 43.34 0.085 6.98 4.9 12.37
3/29/2021 1:30:00 PM 6.45 43.61 0.085 7 4.74 12.35
3/29/2021 1:45:00 PM 6.61 43.898 0.085 7 4.78 12.33
3/29/2021 2:00:00 PM 6.76 44.168 0.085 7 4.73 12.29
3/29/2021 2:15:00 PM 6.98 44.564 0.085 7.01 4.79 12.26
3/29/2021 2:30:00 PM 7.1 44.78 0.085 7.01 4.52 12.23
3/29/2021 2:45:00 PM 7.21 44.978 0.084 7 4.56 12.2
3/29/2021 3:00:00 PM 7.32 45.176 0.084 7 4.38 12.18
3/29/2021 3:15:00 PM 7.46 45.428 0.084 7 4.32 12.14
3/29/2021 3:30:00 PM 7.59 45.662 0.084 7 4.32 12.1
3/29/2021 3:45:00 PM 7.72 45.896 0.084 6.99 4.28 12.06
3/29/2021 4:00:00 PM 7.86 46.148 0.084 7 4.21 12.02
3/29/2021 4:15:00 PM 8.01 46.418 0.084 7 4.27 11.97
3/29/2021 4:30:00 PM 8.15 46.67 0.083 7.01 4.25 11.92
3/29/2021 4:45:00 PM 8.26 46.868 0.083 7.01 4.08 11.87
3/29/2021 5:00:00 PM 8.34 47.012 0.083 7 4.15 11.83
3/29/2021 5:15:00 PM 8.38 47.084 0.083 6.99 4.1 11.8
3/29/2021 5:30:00 PM 8.39 47.102 0.083 6.99 3.93 11.78
3/29/2021 5:45:00 PM 8.36 47.048 0.083 6.98 3.89 11.76
3/29/2021 6:00:00 PM 8.32 46.976 0.083 6.97 3.9 11.74
3/29/2021 6:15:00 PM 8.24 46.832 0.083 6.96 3.83 11.73
3/29/2021 6:30:00 PM 8.16 46.688 0.082 6.95 3.91 11.71
3/29/2021 6:45:00 PM 8.05 46.49 0.082 6.92 3.93 11.7
3/29/2021 7:00:00 PM 7.94 46.292 0.082 6.91 3.86 11.67
3/29/2021 7:15:00 PM 7.82 46.076 0.082 6.88 3.79 11.66
3/29/2021 7:30:00 PM 7.7 45.86 0.082 6.86 3.85 11.63
3/29/2021 7:45:00 PM 7.58 45.644 0.082 6.83 3.81 11.61
3/29/2021 8:00:00 PM 7.46 45.428 0.082 6.82 3.89 11.61
3/29/2021 8:15:00 PM 7.35 45.23 0.082 6.81 3.84 11.6
3/29/2021 8:30:00 PM 7.24 45.032 0.082 6.8 3.97 11.61
3/29/2021 8:45:00 PM 7.14 44.852 0.082 6.79 3.82 11.61
3/29/2021 9:00:00 PM 7.04 44.672 0.082 6.78 3.81 11.61
3/29/2021 9:15:00 PM 6.95 44.51 0.081 6.78 3.7 11.63
3/29/2021 9:30:00 PM 6.87 44.366 0.081 6.78 3.96 11.64
3/29/2021 9:45:00 PM 6.79 44.222 0.081 6.78 3.73 11.65
3/29/2021 10:00:00 PM 6.71 44.078 0.081 6.77 3.7 11.66
3/29/2021 10:15:00 PM 6.63 43.934 0.081 6.77 3.92 11.68
3/29/2021 10:30:00 PM 6.56 43.808 0.081 6.76 3.74 11.7
3/29/2021 10:45:00 PM 6.48 43.664 0.081 6.77 3.67 11.71
3/29/2021 11:00:00 PM 6.41 43.538 0.08 6.76 3.62 11.73
3/29/2021 11:15:00 PM 6.33 43.394 0.08 6.76 3.68 11.75
3/29/2021 11:30:00 PM 6.26 43.268 0.08 6.75 3.71 11.78
3/29/2021 11:45:00 PM 6.19 43.142 0.08 6.76 3.59 11.79
3/30/2021 12:00:00 AM 6.11 42.998 0.08 6.76 3.57 11.82
3/30/2021 12:15:00 AM 6.04 42.872 0.08 6.76 3.5 11.84
3/30/2021 12:30:00 AM 5.96 42.728 0.079 6.77 3.49 11.86
3/30/2021 12:45:00 AM 5.89 42.602 0.079 6.77 3.48 11.89
3/30/2021 1:00:00 AM 5.81 42.458 0.079 6.77 3.45 11.91
3/30/2021 1:15:00 AM 5.74 42.332 0.079 6.76 3.41 11.93
3/30/2021 1:30:00 AM 5.67 42.206 0.079 6.76 3.56 11.96
3/30/2021 1:45:00 AM 5.59 42.062 0.079 6.76 3.56 11.98
3/30/2021 2:00:00 AM 5.52 41.936 0.079 6.76 3.56 12
3/30/2021 2:15:00 AM 5.45 41.81 0.079 6.76 3.46 12.02
3/30/2021 2:30:00 AM 5.39 41.702 0.078 6.76 3.39 12.04
3/30/2021 2:45:00 AM 5.32 41.576 0.078 6.76 3.39 12.07
3/30/2021 3:00:00 AM 5.25 41.45 0.078 6.76 3.49 12.09
3/30/2021 3:15:00 AM 5.19 41.342 0.078 6.76 3.31 12.11
3/30/2021 3:30:00 AM 5.12 41.216 0.078 6.76 3.36 12.13
3/30/2021 3:45:00 AM 5.06 41.108 0.078 6.76 3.31 12.16
3/30/2021 4:00:00 AM 5 41 0.078 6.76 3.32 12.17
3/30/2021 4:15:00 AM 4.94 40.892 0.078 6.76 3.29 12.2
3/30/2021 4:30:00 AM 4.87 40.766 0.077 6.76 3.21 12.23
3/30/2021 4:45:00 AM 4.81 40.658 0.078 6.75 3.2 12.25
3/30/2021 5:00:00 AM 4.75 40.55 0.077 6.75 3.2 12.27
3/30/2021 5:15:00 AM 4.68 40.424 0.077 6.76 3.2 12.28
3/30/2021 5:30:00 AM 4.62 40.316 0.077 6.76 3.15 12.3
3/30/2021 5:45:00 AM 4.56 40.208 0.077 6.75 3.25 12.34
3/30/2021 6:00:00 AM 4.49 40.082 0.077 6.75 3.15 12.36
3/30/2021 6:15:00 AM 4.43 39.974 0.077 6.75 3.11 12.37
3/30/2021 6:30:00 AM 4.36 39.848 0.077 6.75 3.1 12.4
3/30/2021 6:45:00 AM 4.3 39.74 0.077 6.75 3.13 12.42
3/30/2021 7:00:00 AM 4.23 39.614 0.077 6.75 3.1 12.44
3/30/2021 7:15:00 AM 4.17 39.506 0.077 6.75 3.07 12.49
3/30/2021 7:30:00 AM 4.11 39.398 0.076 6.75 3.03 12.53
3/30/2021 7:45:00 AM 4.06 39.308 0.076 6.76 3.02 12.58
3/30/2021 8:00:00 AM 4.01 39.218 0.076 6.77 3.11 12.62
3/30/2021 8:15:00 AM 3.99 39.182 0.076 6.78 3.05 12.67
3/30/2021 8:30:00 AM 3.97 39.146 0.076 6.79 3.06 12.72
3/30/2021 8:45:00 AM 3.96 39.128 0.076 6.8 2.99 12.76
3/30/2021 9:00:00 AM 3.96 39.128 0.076 6.81 3.01 12.79
3/30/2021 9:15:00 AM 3.98 39.164 0.076 6.82 2.89 12.82
3/30/2021 9:30:00 AM 4.01 39.218 0.076 6.83 2.91 12.84
3/30/2021 9:45:00 AM 4.06 39.308 0.076 6.84 2.93 12.86
3/30/2021 10:00:00 AM 4.13 39.434 0.075 6.85 2.8 12.88
3/30/2021 10:15:00 AM 4.22 39.596 0.075 6.87 2.81 12.88
3/30/2021 10:30:00 AM 4.33 39.794 0.075 6.88 2.9 12.87
3/30/2021 10:45:00 AM 4.46 40.028 0.075 6.9 2.84 12.87
3/30/2021 11:00:00 AM 4.61 40.298 0.075 6.91 2.82 12.85
3/30/2021 11:15:00 AM 4.78 40.604 0.074 6.91 2.89 12.83
3/30/2021 11:30:00 AM 4.97 40.946 0.074 6.92 2.76 12.8
3/30/2021 11:45:00 AM 5.19 41.342 0.074 6.93 2.69 12.75
3/30/2021 12:00:00 PM 5.42 41.756 0.074 6.95 2.7 12.7
3/30/2021 12:15:00 PM 5.66 42.188 0.074 6.95 2.68 12.65
3/30/2021 12:30:00 PM 5.89 42.602 0.074 6.96 2.74 12.6
3/30/2021 12:45:00 PM 6.15 43.07 0.073 6.96 2.66 12.53
3/30/2021 1:00:00 PM 6.41 43.538 0.073 6.97 2.67 12.46
3/30/2021 1:15:00 PM 6.67 44.006 0.073 6.97 2.72 12.4
3/30/2021 1:30:00 PM 6.94 44.492 0.073 6.98 2.71 12.33
3/30/2021 1:45:00 PM 7.21 44.978 0.073 6.98 2.66 12.26
3/30/2021 2:00:00 PM 7.48 45.464 0.073 6.98 2.7 12.19
3/30/2021 2:15:00 PM 7.75 45.95 0.072 6.99 2.66 12.11
3/30/2021 2:30:00 PM 8.01 46.418 0.072 6.99 2.71 12.04
3/30/2021 2:45:00 PM 8.27 46.886 0.072 7 2.65 11.97
3/30/2021 3:00:00 PM 8.5 47.3 0.072 6.99 2.65 11.89
3/30/2021 3:15:00 PM 8.75 47.75 0.072 7 2.73 11.82
3/30/2021 3:30:00 PM 8.95 48.11 0.072 7 2.68 11.76
3/30/2021 3:45:00 PM 9.14 48.452 0.071 7 2.65 11.69
3/30/2021 4:00:00 PM 9.26 48.668 0.071 7 2.74 11.64
3/30/2021 4:15:00 PM 9.44 48.992 0.071 7 2.69 11.6
3/30/2021 4:30:00 PM 9.57 49.226 0.072 7 2.73 11.55
3/30/2021 4:45:00 PM 9.67 49.406 0.071 7 2.69 11.5
3/30/2021 5:00:00 PM 9.75 49.55 0.071 7 2.75 11.46
3/30/2021 5:15:00 PM 9.81 49.658 0.071 6.99 2.73 11.42
3/30/2021 5:30:00 PM 9.84 49.712 0.071 6.99 2.75 11.39
3/30/2021 5:45:00 PM 9.83 49.694 0.071 6.98 2.72 11.35
3/30/2021 6:00:00 PM 9.83 49.694 0.071 6.96 2.8 11.33
3/30/2021 6:15:00 PM 9.81 49.658 0.071 6.96 2.79 11.31
3/30/2021 6:30:00 PM 9.74 49.532 0.071 6.94 2.74 11.28
3/30/2021 6:45:00 PM 9.66 49.388 0.071 6.93 2.79 11.25
3/30/2021 7:00:00 PM 9.61 49.298 0.071 6.92 2.89 11.23
3/30/2021 7:15:00 PM 9.53 49.154 0.071 6.9 2.96 11.2
3/30/2021 7:30:00 PM 9.45 49.01 0.071 6.87 2.88 11.15
3/30/2021 7:45:00 PM 9.38 48.884 0.071 6.85 2.91 11.11
3/30/2021 8:00:00 PM 9.31 48.758 0.071 6.84 3.02 11.07
3/30/2021 8:15:00 PM 9.24 48.632 0.071 6.82 2.85 11.05
3/30/2021 8:30:00 PM 9.17 48.506 0.071 6.8 2.92 11.03
3/30/2021 8:45:00 PM 9.11 48.398 0.071 6.79 3.01 11.02
3/30/2021 9:00:00 PM 9.05 48.29 0.071 6.78 2.94 11.01
3/30/2021 9:15:00 PM 9 48.2 0.071 6.77 2.98 11.01
3/30/2021 9:30:00 PM 8.95 48.11 0.07 6.76 2.98 11.01
3/30/2021 9:45:00 PM 8.91 48.038 0.071 6.76 2.99 11.01
3/30/2021 10:00:00 PM 8.86 47.948 0.07 6.76 3.03 11.01
3/30/2021 10:15:00 PM 8.82 47.876 0.07 6.75 2.93 11.02
3/30/2021 10:30:00 PM 8.77 47.786 0.07 6.76 2.95 11.02
3/30/2021 10:45:00 PM 8.73 47.714 0.07 6.75 3 11.03
3/30/2021 11:00:00 PM 8.68 47.624 0.07 6.75 2.96 11.04
3/30/2021 11:15:00 PM 8.63 47.534 0.07 6.75 2.91 11.05
3/30/2021 11:30:00 PM 8.59 47.462 0.07 6.74 2.86 11.06
3/30/2021 11:45:00 PM 8.55 47.39 0.07 6.74 2.82 11.07
3/31/2021 12:00:00 AM 8.51 47.318 0.07 6.74 3.08 11.08
3/31/2021 12:15:00 AM 8.47 47.246 0.07 6.74 2.9 11.09
3/31/2021 12:30:00 AM 8.43 47.174 0.07 6.74 2.88 11.09
3/31/2021 12:45:00 AM 8.39 47.102 0.07 6.74 2.92 11.1
3/31/2021 1:00:00 AM 8.35 47.03 0.07 6.75 2.87 11.11
3/31/2021 1:15:00 AM 8.32 46.976 0.07 6.74 2.93 11.12
3/31/2021 1:30:00 AM 8.29 46.922 0.07 6.74 2.91 11.13
3/31/2021 1:45:00 AM 8.26 46.868 0.07 6.74 2.99 11.14
3/31/2021 2:00:00 AM 8.24 46.832 0.07 6.74 2.9 11.14
3/31/2021 2:15:00 AM 8.22 46.796 0.07 6.74 2.92 11.16
3/31/2021 2:30:00 AM 8.2 46.76 0.07 6.74 2.86 11.16
3/31/2021 2:45:00 AM 8.17 46.706 0.07 6.75 2.94 11.17
3/31/2021 3:00:00 AM 8.14 46.652 0.07 6.74 2.95 11.17
3/31/2021 3:15:00 AM 8.11 46.598 0.069 6.74 3.01 11.18
3/31/2021 3:30:00 AM 8.09 46.562 0.069 6.75 2.91 11.18
3/31/2021 3:45:00 AM 8.05 46.49 0.069 6.74 3 11.18
3/31/2021 4:00:00 AM 8.02 46.436 0.069 6.74 2.94 11.19
3/31/2021 4:15:00 AM 8 46.4 0.069 6.73 2.92 11.2
3/31/2021 4:30:00 AM 7.98 46.364 0.069 6.74 2.94 11.21
3/31/2021 4:45:00 AM 7.95 46.31 0.069 6.74 2.9 11.22
3/31/2021 5:00:00 AM 7.93 46.274 0.069 6.74 2.96 11.22
3/31/2021 5:15:00 AM 7.91 46.238 0.069 6.74 2.95 11.23
3/31/2021 5:30:00 AM 7.88 46.184 0.069 6.74 2.92 11.23
3/31/2021 5:45:00 AM 7.86 46.148 0.069 6.74 2.99 11.24
3/31/2021 6:00:00 AM 7.84 46.112 0.069 6.74 2.99 11.25
3/31/2021 6:15:00 AM 7.81 46.058 0.069 6.74 2.96 11.26
3/31/2021 6:30:00 AM 7.78 46.004 0.069 6.74 2.84 11.27
3/31/2021 6:45:00 AM 7.76 45.968 0.069 6.73 2.92 11.28
3/31/2021 7:00:00 AM 7.74 45.932 0.069 6.74 2.95 11.28
3/31/2021 7:15:00 AM 7.71 45.878 0.069 6.74 3.14 11.3
3/31/2021 7:30:00 AM 7.7 45.86 0.069 6.74 2.99 11.3
3/31/2021 7:45:00 AM 7.68 45.824 0.069 6.74 2.92 11.32
3/31/2021 8:00:00 AM 7.67 45.806 0.069 6.74 2.91 11.35
3/31/2021 8:15:00 AM 7.65 45.77 0.069 6.75 2.87 11.36
3/31/2021 8:30:00 AM 7.64 45.752 0.069 6.76 2.88 11.38
3/31/2021 8:45:00 AM 7.62 45.716 0.069 6.76 2.8 11.41
3/31/2021 9:00:00 AM 7.61 45.698 0.068 6.76 2.83 11.42
3/31/2021 9:15:00 AM 7.59 45.662 0.068 6.77 2.83 11.45
3/31/2021 9:30:00 AM 7.58 45.644 0.068 6.77 3.1 11.46
3/31/2021 9:45:00 AM 7.58 45.644 0.068 6.77 3.51 11.49
3/31/2021 10:00:00 AM 7.59 45.662 0.068 6.79 3.66 11.55
3/31/2021 10:15:00 AM 7.59 45.662 0.068 6.79 3.41 11.58
3/31/2021 10:30:00 AM 7.6 45.68 0.067 6.81 3.22 11.59
3/31/2021 10:45:00 AM 7.61 45.698 0.067 6.81 3.21 11.6
3/31/2021 11:00:00 AM 7.61 45.698 0.067 6.82 3.29 11.62
3/31/2021 11:15:00 AM 7.61 45.698 0.067 6.82 3.29 11.6
3/31/2021 11:30:00 AM 7.62 45.716 0.067 6.82 3.29 11.61
3/31/2021 11:45:00 AM 7.63 45.734 0.067 6.83 3.36 11.62
3/31/2021 12:00:00 PM 7.65 45.77 0.067 6.84 3.53 11.64
3/31/2021 12:15:00 PM 7.66 45.788 0.067 6.84 3.6 11.63